<?xml version="1.0" encoding="UTF-8"?><gpx xmlns="http://www.topografix.com/GPX/1/1" version="1.1" creator="iOrient"><trk><name>Большая прогулка. Первая гонка</name><trkseg><trkpt lat="55.8343590" lon="48.9582917"><time>2021-04-17T07:19:19.913</time></trkpt><trkpt lat="55.8343176" lon="48.9582541"><time>2021-04-17T07:19:27.943</time></trkpt><trkpt lat="55.8342696" lon="48.9581884"><time>2021-04-17T07:19:30.917</time></trkpt><trkpt lat="55.8342149" lon="48.9581464"><time>2021-04-17T07:19:33.933</time></trkpt><trkpt lat="55.8341635" lon="48.9581282"><time>2021-04-17T07:19:35.930</time></trkpt><trkpt lat="55.8341180" lon="48.9581140"><time>2021-04-17T07:19:37.940</time></trkpt><trkpt lat="55.8340600" lon="48.9580886"><time>2021-04-17T07:19:40.950</time></trkpt><trkpt lat="55.8340311" lon="48.9580175"><time>2021-04-17T07:19:42.933</time></trkpt><trkpt lat="55.8340091" lon="48.9579081"><time>2021-04-17T07:19:45.933</time></trkpt><trkpt lat="55.8340068" lon="48.9578141"><time>2021-04-17T07:19:47.933</time></trkpt><trkpt lat="55.8340089" lon="48.9577181"><time>2021-04-17T07:19:49.930</time></trkpt><trkpt lat="55.8340086" lon="48.9576274"><time>2021-04-17T07:19:51.930</time></trkpt><trkpt lat="55.8340034" lon="48.9575475"><time>2021-04-17T07:19:53.943</time></trkpt><trkpt lat="55.8339917" lon="48.9574532"><time>2021-04-17T07:19:55.937</time></trkpt><trkpt lat="55.8339764" lon="48.9573562"><time>2021-04-17T07:19:57.937</time></trkpt><trkpt lat="55.8339664" lon="48.9572659"><time>2021-04-17T07:19:59.940</time></trkpt><trkpt lat="55.8339559" lon="48.9571778"><time>2021-04-17T07:20:01.913</time></trkpt><trkpt lat="55.8339525" lon="48.9570848"><time>2021-04-17T07:20:03.917</time></trkpt><trkpt lat="55.8339589" lon="48.9570008"><time>2021-04-17T07:20:05.917</time></trkpt><trkpt lat="55.8339669" lon="48.9569137"><time>2021-04-17T07:20:07.937</time></trkpt><trkpt lat="55.8339892" lon="48.9568080"><time>2021-04-17T07:20:09.913</time></trkpt><trkpt lat="55.8340157" lon="48.9567124"><time>2021-04-17T07:20:11.927</time></trkpt><trkpt lat="55.8340488" lon="48.9566322"><time>2021-04-17T07:20:14.930</time></trkpt><trkpt lat="55.8340727" lon="48.9565409"><time>2021-04-17T07:20:17.937</time></trkpt><trkpt lat="55.8340748" lon="48.9564245"><time>2021-04-17T07:20:20.930</time></trkpt><trkpt lat="55.8340796" lon="48.9563073"><time>2021-04-17T07:20:23.933</time></trkpt><trkpt lat="55.8340880" lon="48.9562246"><time>2021-04-17T07:20:25.940</time></trkpt><trkpt lat="55.8341024" lon="48.9561122"><time>2021-04-17T07:20:28.907</time></trkpt><trkpt lat="55.8341178" lon="48.9560007"><time>2021-04-17T07:20:31.917</time></trkpt><trkpt lat="55.8341410" lon="48.9558968"><time>2021-04-17T07:20:34.923</time></trkpt><trkpt lat="55.8341634" lon="48.9557948"><time>2021-04-17T07:20:37.920</time></trkpt><trkpt lat="55.8341770" lon="48.9556893"><time>2021-04-17T07:20:40.937</time></trkpt><trkpt lat="55.8341954" lon="48.9555759"><time>2021-04-17T07:20:43.933</time></trkpt><trkpt lat="55.8342090" lon="48.9554632"><time>2021-04-17T07:20:46.917</time></trkpt><trkpt lat="55.8342190" lon="48.9553462"><time>2021-04-17T07:20:49.940</time></trkpt><trkpt lat="55.8342332" lon="48.9552302"><time>2021-04-17T07:20:52.933</time></trkpt><trkpt lat="55.8342452" lon="48.9551528"><time>2021-04-17T07:20:54.930</time></trkpt><trkpt lat="55.8342538" lon="48.9550736"><time>2021-04-17T07:20:56.930</time></trkpt><trkpt lat="55.8342567" lon="48.9549547"><time>2021-04-17T07:20:59.950</time></trkpt><trkpt lat="55.8342594" lon="48.9548696"><time>2021-04-17T07:21:01.917</time></trkpt><trkpt lat="55.8342646" lon="48.9547853"><time>2021-04-17T07:21:03.937</time></trkpt><trkpt lat="55.8342685" lon="48.9546698"><time>2021-04-17T07:21:06.940</time></trkpt><trkpt lat="55.8342658" lon="48.9545498"><time>2021-04-17T07:21:09.930</time></trkpt><trkpt lat="55.8342605" lon="48.9544661"><time>2021-04-17T07:21:11.943</time></trkpt><trkpt lat="55.8342552" lon="48.9543826"><time>2021-04-17T07:21:13.930</time></trkpt><trkpt lat="55.8342468" lon="48.9542994"><time>2021-04-17T07:21:15.927</time></trkpt><trkpt lat="55.8342367" lon="48.9541792"><time>2021-04-17T07:21:18.950</time></trkpt><trkpt lat="55.8342287" lon="48.9540879"><time>2021-04-17T07:21:20.937</time></trkpt><trkpt lat="55.8342272" lon="48.9540063"><time>2021-04-17T07:21:22.927</time></trkpt><trkpt lat="55.8342338" lon="48.9538984"><time>2021-04-17T07:21:25.917</time></trkpt><trkpt lat="55.8342305" lon="48.9537881"><time>2021-04-17T07:21:28.937</time></trkpt><trkpt lat="55.8342415" lon="48.9536752"><time>2021-04-17T07:21:31.927</time></trkpt><trkpt lat="55.8342569" lon="48.9535732"><time>2021-04-17T07:21:34.940</time></trkpt><trkpt lat="55.8342654" lon="48.9534670"><time>2021-04-17T07:21:37.940</time></trkpt><trkpt lat="55.8342761" lon="48.9533650"><time>2021-04-17T07:21:40.930</time></trkpt><trkpt lat="55.8342923" lon="48.9532524"><time>2021-04-17T07:21:43.940</time></trkpt><trkpt lat="55.8343048" lon="48.9531727"><time>2021-04-17T07:21:45.947</time></trkpt><trkpt lat="55.8343158" lon="48.9530616"><time>2021-04-17T07:21:48.930</time></trkpt><trkpt lat="55.8343319" lon="48.9529624"><time>2021-04-17T07:21:51.947</time></trkpt><trkpt lat="55.8343431" lon="48.9528633"><time>2021-04-17T07:21:54.940</time></trkpt><trkpt lat="55.8343569" lon="48.9527549"><time>2021-04-17T07:21:57.937</time></trkpt><trkpt lat="55.8343739" lon="48.9526498"><time>2021-04-17T07:22:00.930</time></trkpt><trkpt lat="55.8343882" lon="48.9525483"><time>2021-04-17T07:22:03.947</time></trkpt><trkpt lat="55.8343980" lon="48.9524684"><time>2021-04-17T07:22:05.933</time></trkpt><trkpt lat="55.8344136" lon="48.9523922"><time>2021-04-17T07:22:07.930</time></trkpt><trkpt lat="55.8344318" lon="48.9522860"><time>2021-04-17T07:22:10.937</time></trkpt><trkpt lat="55.8344452" lon="48.9521863"><time>2021-04-17T07:22:14.073</time></trkpt><trkpt lat="55.8344487" lon="48.9520824"><time>2021-04-17T07:22:16.930</time></trkpt><trkpt lat="55.8344508" lon="48.9519797"><time>2021-04-17T07:22:19.917</time></trkpt><trkpt lat="55.8344520" lon="48.9518708"><time>2021-04-17T07:22:22.930</time></trkpt><trkpt lat="55.8344462" lon="48.9517917"><time>2021-04-17T07:22:24.930</time></trkpt><trkpt lat="55.8344383" lon="48.9516785"><time>2021-04-17T07:22:27.937</time></trkpt><trkpt lat="55.8344277" lon="48.9515627"><time>2021-04-17T07:22:30.930</time></trkpt><trkpt lat="55.8344245" lon="48.9514640"><time>2021-04-17T07:22:33.930</time></trkpt><trkpt lat="55.8344201" lon="48.9513799"><time>2021-04-17T07:22:36.933</time></trkpt><trkpt lat="55.8344139" lon="48.9512956"><time>2021-04-17T07:22:40.943</time></trkpt><trkpt lat="55.8343921" lon="48.9511942"><time>2021-04-17T07:22:44.940</time></trkpt><trkpt lat="55.8343737" lon="48.9511186"><time>2021-04-17T07:22:47.930</time></trkpt><trkpt lat="55.8343631" lon="48.9510406"><time>2021-04-17T07:22:50.933</time></trkpt><trkpt lat="55.8343377" lon="48.9509507"><time>2021-04-17T07:22:54.937</time></trkpt><trkpt lat="55.8343019" lon="48.9508729"><time>2021-04-17T07:22:58.937</time></trkpt><trkpt lat="55.8342684" lon="48.9507967"><time>2021-04-17T07:23:01.993</time></trkpt><trkpt lat="55.8342375" lon="48.9507256"><time>2021-04-17T07:23:05.933</time></trkpt><trkpt lat="55.8341987" lon="48.9506422"><time>2021-04-17T07:23:08.913</time></trkpt><trkpt lat="55.8342016" lon="48.9505574"><time>2021-04-17T07:23:12.917</time></trkpt><trkpt lat="55.8342092" lon="48.9504704"><time>2021-04-17T07:23:17.023</time></trkpt><trkpt lat="55.8341970" lon="48.9503918"><time>2021-04-17T07:23:21.917</time></trkpt><trkpt lat="55.8341494" lon="48.9503718"><time>2021-04-17T07:23:25.940</time></trkpt><trkpt lat="55.8341073" lon="48.9503359"><time>2021-04-17T07:23:28.933</time></trkpt><trkpt lat="55.8340817" lon="48.9502667"><time>2021-04-17T07:23:35.943</time></trkpt><trkpt lat="55.8340676" lon="48.9502005"><time>2021-04-17T07:23:45.280</time></trkpt><trkpt lat="55.8340599" lon="48.9501912"><time>2021-04-17T07:23:53.930</time></trkpt><trkpt lat="55.8340358" lon="48.9501132"><time>2021-04-17T07:24:25.933</time></trkpt><trkpt lat="55.8340203" lon="48.9500163"><time>2021-04-17T07:24:28.943</time></trkpt><trkpt lat="55.8340309" lon="48.9499279"><time>2021-04-17T07:24:33.943</time></trkpt><trkpt lat="55.8340691" lon="48.9498760"><time>2021-04-17T07:24:38.927</time></trkpt><trkpt lat="55.8341059" lon="48.9498106"><time>2021-04-17T07:24:47.927</time></trkpt><trkpt lat="55.8340839" lon="48.9497165"><time>2021-04-17T07:24:53.930</time></trkpt><trkpt lat="55.8340999" lon="48.9496375"><time>2021-04-17T07:25:01.917</time></trkpt><trkpt lat="55.8341319" lon="48.9495734"><time>2021-04-17T07:25:06.910</time></trkpt><trkpt lat="55.8341148" lon="48.9494884"><time>2021-04-17T07:25:10.933</time></trkpt><trkpt lat="55.8340670" lon="48.9494418"><time>2021-04-17T07:25:14.943</time></trkpt><trkpt lat="55.8340283" lon="48.9493737"><time>2021-04-17T07:25:17.937</time></trkpt><trkpt lat="55.8340048" lon="48.9492902"><time>2021-04-17T07:25:22.907</time></trkpt><trkpt lat="55.8339765" lon="48.9492089"><time>2021-04-17T07:25:25.923</time></trkpt><trkpt lat="55.8339401" lon="48.9491481"><time>2021-04-17T07:25:29.913</time></trkpt><trkpt lat="55.8339385" lon="48.9490621"><time>2021-04-17T07:25:56.920</time></trkpt><trkpt lat="55.8339151" lon="48.9489833"><time>2021-04-17T07:26:00.927</time></trkpt><trkpt lat="55.8338943" lon="48.9489093"><time>2021-04-17T07:26:03.977</time></trkpt><trkpt lat="55.8338611" lon="48.9488186"><time>2021-04-17T07:26:07.940</time></trkpt><trkpt lat="55.8338421" lon="48.9487281"><time>2021-04-17T07:26:10.937</time></trkpt><trkpt lat="55.8338137" lon="48.9486246"><time>2021-04-17T07:26:13.957</time></trkpt><trkpt lat="55.8337770" lon="48.9485390"><time>2021-04-17T07:26:16.937</time></trkpt><trkpt lat="55.8337255" lon="48.9484905"><time>2021-04-17T07:26:19.933</time></trkpt><trkpt lat="55.8336931" lon="48.9484037"><time>2021-04-17T07:26:23.940</time></trkpt><trkpt lat="55.8336566" lon="48.9483484"><time>2021-04-17T07:26:39.937</time></trkpt><trkpt lat="55.8336165" lon="48.9483087"><time>2021-04-17T07:26:42.940</time></trkpt><trkpt lat="55.8335625" lon="48.9482633"><time>2021-04-17T07:26:46.943</time></trkpt><trkpt lat="55.8335249" lon="48.9481998"><time>2021-04-17T07:26:49.937</time></trkpt><trkpt lat="55.8334771" lon="48.9481369"><time>2021-04-17T07:26:53.927</time></trkpt><trkpt lat="55.8334526" lon="48.9480648"><time>2021-04-17T07:26:55.927</time></trkpt><trkpt lat="55.8334381" lon="48.9479761"><time>2021-04-17T07:26:58.930</time></trkpt><trkpt lat="55.8334169" lon="48.9478788"><time>2021-04-17T07:27:02.943</time></trkpt><trkpt lat="55.8333832" lon="48.9478065"><time>2021-04-17T07:27:07.937</time></trkpt><trkpt lat="55.8334340" lon="48.9478198"><time>2021-04-17T07:27:14.930</time></trkpt><trkpt lat="55.8334709" lon="48.9477486"><time>2021-04-17T07:27:16.937</time></trkpt><trkpt lat="55.8334947" lon="48.9476742"><time>2021-04-17T07:27:18.940</time></trkpt><trkpt lat="55.8335270" lon="48.9475871"><time>2021-04-17T07:27:22.937</time></trkpt><trkpt lat="55.8335493" lon="48.9474927"><time>2021-04-17T07:27:26.940</time></trkpt><trkpt lat="55.8335244" lon="48.9473964"><time>2021-04-17T07:27:29.937</time></trkpt><trkpt lat="55.8334976" lon="48.9472964"><time>2021-04-17T07:27:32.933</time></trkpt><trkpt lat="55.8334886" lon="48.9472047"><time>2021-04-17T07:27:35.930</time></trkpt><trkpt lat="55.8335082" lon="48.9471249"><time>2021-04-17T07:27:39.937</time></trkpt><trkpt lat="55.8335352" lon="48.9470554"><time>2021-04-17T07:27:42.937</time></trkpt><trkpt lat="55.8335311" lon="48.9469687"><time>2021-04-17T07:27:45.937</time></trkpt><trkpt lat="55.8335451" lon="48.9468848"><time>2021-04-17T07:27:49.920</time></trkpt><trkpt lat="55.8335288" lon="48.9467908"><time>2021-04-17T07:27:54.937</time></trkpt><trkpt lat="55.8335119" lon="48.9466995"><time>2021-04-17T07:28:02.933</time></trkpt><trkpt lat="55.8335361" lon="48.9466252"><time>2021-04-17T07:28:08.963</time></trkpt><trkpt lat="55.8335770" lon="48.9465466"><time>2021-04-17T07:28:13.943</time></trkpt><trkpt lat="55.8336100" lon="48.9464849"><time>2021-04-17T07:28:19.937</time></trkpt><trkpt lat="55.8336600" lon="48.9464942"><time>2021-04-17T07:28:30.920</time></trkpt><trkpt lat="55.8337203" lon="48.9465243"><time>2021-04-17T07:28:34.920</time></trkpt><trkpt lat="55.8337644" lon="48.9465756"><time>2021-04-17T07:28:41.937</time></trkpt><trkpt lat="55.8338132" lon="48.9466012"><time>2021-04-17T07:28:43.947</time></trkpt><trkpt lat="55.8338682" lon="48.9466354"><time>2021-04-17T07:28:46.933</time></trkpt><trkpt lat="55.8339194" lon="48.9466653"><time>2021-04-17T07:28:49.947</time></trkpt><trkpt lat="55.8339660" lon="48.9467042"><time>2021-04-17T07:28:52.937</time></trkpt><trkpt lat="55.8340141" lon="48.9467177"><time>2021-04-17T07:29:06.920</time></trkpt><trkpt lat="55.8340718" lon="48.9466593"><time>2021-04-17T07:29:09.930</time></trkpt><trkpt lat="55.8340895" lon="48.9465852"><time>2021-04-17T07:29:11.940</time></trkpt><trkpt lat="55.8341050" lon="48.9465097"><time>2021-04-17T07:29:15.940</time></trkpt><trkpt lat="55.8341260" lon="48.9464271"><time>2021-04-17T07:29:17.947</time></trkpt><trkpt lat="55.8341580" lon="48.9463683"><time>2021-04-17T07:29:20.937</time></trkpt><trkpt lat="55.8341854" lon="48.9462983"><time>2021-04-17T07:29:24.933</time></trkpt><trkpt lat="55.8341952" lon="48.9462069"><time>2021-04-17T07:29:26.930</time></trkpt><trkpt lat="55.8342108" lon="48.9460907"><time>2021-04-17T07:29:29.940</time></trkpt><trkpt lat="55.8342361" lon="48.9459729"><time>2021-04-17T07:29:33.937</time></trkpt><trkpt lat="55.8342498" lon="48.9458816"><time>2021-04-17T07:29:35.940</time></trkpt><trkpt lat="55.8342641" lon="48.9457911"><time>2021-04-17T07:29:38.947</time></trkpt><trkpt lat="55.8342845" lon="48.9457109"><time>2021-04-17T07:29:42.950</time></trkpt><trkpt lat="55.8342881" lon="48.9456175"><time>2021-04-17T07:29:45.940</time></trkpt><trkpt lat="55.8343305" lon="48.9455758"><time>2021-04-17T07:29:51.923</time></trkpt><trkpt lat="55.8343828" lon="48.9455350"><time>2021-04-17T07:29:56.933</time></trkpt><trkpt lat="55.8344067" lon="48.9454631"><time>2021-04-17T07:30:01.927</time></trkpt><trkpt lat="55.8343868" lon="48.9453802"><time>2021-04-17T07:30:04.937</time></trkpt><trkpt lat="55.8344021" lon="48.9452918"><time>2021-04-17T07:30:07.940</time></trkpt><trkpt lat="55.8344224" lon="48.9452100"><time>2021-04-17T07:30:10.927</time></trkpt><trkpt lat="55.8344385" lon="48.9451315"><time>2021-04-17T07:30:12.930</time></trkpt><trkpt lat="55.8344552" lon="48.9450182"><time>2021-04-17T07:30:15.947</time></trkpt><trkpt lat="55.8344669" lon="48.9449307"><time>2021-04-17T07:30:18.940</time></trkpt><trkpt lat="55.8344867" lon="48.9448352"><time>2021-04-17T07:30:20.930</time></trkpt><trkpt lat="55.8345161" lon="48.9447301"><time>2021-04-17T07:30:22.937</time></trkpt><trkpt lat="55.8345486" lon="48.9446326"><time>2021-04-17T07:30:24.940</time></trkpt><trkpt lat="55.8345746" lon="48.9445557"><time>2021-04-17T07:30:26.930</time></trkpt><trkpt lat="55.8346033" lon="48.9444790"><time>2021-04-17T07:30:28.940</time></trkpt><trkpt lat="55.8346370" lon="48.9443718"><time>2021-04-17T07:30:31.937</time></trkpt><trkpt lat="55.8346603" lon="48.9442813"><time>2021-04-17T07:30:33.960</time></trkpt><trkpt lat="55.8346895" lon="48.9441693"><time>2021-04-17T07:30:36.937</time></trkpt><trkpt lat="55.8347117" lon="48.9440890"><time>2021-04-17T07:30:38.937</time></trkpt><trkpt lat="55.8347306" lon="48.9439753"><time>2021-04-17T07:30:41.937</time></trkpt><trkpt lat="55.8347414" lon="48.9438948"><time>2021-04-17T07:30:43.943</time></trkpt><trkpt lat="55.8347568" lon="48.9438048"><time>2021-04-17T07:30:45.940</time></trkpt><trkpt lat="55.8347708" lon="48.9437187"><time>2021-04-17T07:30:47.937</time></trkpt><trkpt lat="55.8347813" lon="48.9436310"><time>2021-04-17T07:30:49.940</time></trkpt><trkpt lat="55.8347931" lon="48.9435501"><time>2021-04-17T07:30:51.933</time></trkpt><trkpt lat="55.8347991" lon="48.9434595"><time>2021-04-17T07:30:53.937</time></trkpt><trkpt lat="55.8347962" lon="48.9433687"><time>2021-04-17T07:30:55.933</time></trkpt><trkpt lat="55.8348019" lon="48.9432710"><time>2021-04-17T07:30:58.937</time></trkpt><trkpt lat="55.8348184" lon="48.9431595"><time>2021-04-17T07:31:02.953</time></trkpt><trkpt lat="55.8348384" lon="48.9430632"><time>2021-04-17T07:31:05.937</time></trkpt><trkpt lat="55.8348645" lon="48.9429872"><time>2021-04-17T07:31:08.947</time></trkpt><trkpt lat="55.8348853" lon="48.9428957"><time>2021-04-17T07:31:12.937</time></trkpt><trkpt lat="55.8349060" lon="48.9427962"><time>2021-04-17T07:31:16.937</time></trkpt><trkpt lat="55.8349277" lon="48.9426983"><time>2021-04-17T07:31:20.950</time></trkpt><trkpt lat="55.8349521" lon="48.9426195"><time>2021-04-17T07:31:23.940</time></trkpt><trkpt lat="55.8349716" lon="48.9425236"><time>2021-04-17T07:31:26.937</time></trkpt><trkpt lat="55.8349875" lon="48.9424299"><time>2021-04-17T07:31:29.937</time></trkpt><trkpt lat="55.8350118" lon="48.9423507"><time>2021-04-17T07:31:32.937</time></trkpt><trkpt lat="55.8350314" lon="48.9422765"><time>2021-04-17T07:31:35.940</time></trkpt><trkpt lat="55.8350519" lon="48.9422042"><time>2021-04-17T07:31:38.927</time></trkpt><trkpt lat="55.8350671" lon="48.9421258"><time>2021-04-17T07:31:41.937</time></trkpt><trkpt lat="55.8350757" lon="48.9420311"><time>2021-04-17T07:31:44.930</time></trkpt><trkpt lat="55.8350931" lon="48.9419374"><time>2021-04-17T07:31:47.930</time></trkpt><trkpt lat="55.8351046" lon="48.9418481"><time>2021-04-17T07:31:51.943</time></trkpt><trkpt lat="55.8351237" lon="48.9417591"><time>2021-04-17T07:31:55.950</time></trkpt><trkpt lat="55.8351320" lon="48.9416668"><time>2021-04-17T07:31:58.930</time></trkpt><trkpt lat="55.8351426" lon="48.9415826"><time>2021-04-17T07:32:00.937</time></trkpt><trkpt lat="55.8351767" lon="48.9414853"><time>2021-04-17T07:32:02.940</time></trkpt><trkpt lat="55.8352148" lon="48.9414008"><time>2021-04-17T07:32:04.917</time></trkpt><trkpt lat="55.8352508" lon="48.9413172"><time>2021-04-17T07:32:06.937</time></trkpt><trkpt lat="55.8352806" lon="48.9412382"><time>2021-04-17T07:32:09.943</time></trkpt><trkpt lat="55.8353027" lon="48.9411556"><time>2021-04-17T07:32:16.937</time></trkpt><trkpt lat="55.8353200" lon="48.9410672"><time>2021-04-17T07:32:19.930</time></trkpt><trkpt lat="55.8353355" lon="48.9409832"><time>2021-04-17T07:32:21.930</time></trkpt><trkpt lat="55.8353497" lon="48.9408912"><time>2021-04-17T07:32:23.937</time></trkpt><trkpt lat="55.8353673" lon="48.9407967"><time>2021-04-17T07:32:25.967</time></trkpt><trkpt lat="55.8353756" lon="48.9407083"><time>2021-04-17T07:32:27.937</time></trkpt><trkpt lat="55.8354200" lon="48.9407203"><time>2021-04-17T07:32:35.937</time></trkpt><trkpt lat="55.8354721" lon="48.9407053"><time>2021-04-17T07:32:38.940</time></trkpt><trkpt lat="55.8354932" lon="48.9406564"><time>2021-04-17T07:32:45.937</time></trkpt><trkpt lat="55.8354896" lon="48.9406243"><time>2021-04-17T07:33:07.910</time></trkpt><trkpt lat="55.8354670" lon="48.9405443"><time>2021-04-17T07:33:10.940</time></trkpt><trkpt lat="55.8354639" lon="48.9404360"><time>2021-04-17T07:33:13.930</time></trkpt><trkpt lat="55.8354303" lon="48.9403182"><time>2021-04-17T07:33:16.933</time></trkpt><trkpt lat="55.8354243" lon="48.9402041"><time>2021-04-17T07:33:19.937</time></trkpt><trkpt lat="55.8354442" lon="48.9401064"><time>2021-04-17T07:33:21.940</time></trkpt><trkpt lat="55.8354704" lon="48.9400229"><time>2021-04-17T07:33:23.937</time></trkpt><trkpt lat="55.8354969" lon="48.9399331"><time>2021-04-17T07:33:25.933</time></trkpt><trkpt lat="55.8355201" lon="48.9398445"><time>2021-04-17T07:33:27.940</time></trkpt><trkpt lat="55.8355470" lon="48.9397638"><time>2021-04-17T07:33:30.937</time></trkpt><trkpt lat="55.8355939" lon="48.9397064"><time>2021-04-17T07:33:34.950</time></trkpt><trkpt lat="55.8356139" lon="48.9396347"><time>2021-04-17T07:33:37.913</time></trkpt><trkpt lat="55.8356571" lon="48.9395811"><time>2021-04-17T07:33:41.943</time></trkpt><trkpt lat="55.8357174" lon="48.9395756"><time>2021-04-17T07:33:51.930</time></trkpt><trkpt lat="55.8357714" lon="48.9396100"><time>2021-04-17T07:33:54.937</time></trkpt><trkpt lat="55.8358280" lon="48.9396694"><time>2021-04-17T07:33:57.930</time></trkpt><trkpt lat="55.8358739" lon="48.9397074"><time>2021-04-17T07:33:59.937</time></trkpt><trkpt lat="55.8359268" lon="48.9397525"><time>2021-04-17T07:34:01.927</time></trkpt><trkpt lat="55.8359725" lon="48.9397547"><time>2021-04-17T07:34:04.953</time></trkpt><trkpt lat="55.8360393" lon="48.9398097"><time>2021-04-17T07:34:06.937</time></trkpt><trkpt lat="55.8361054" lon="48.9398473"><time>2021-04-17T07:34:08.937</time></trkpt><trkpt lat="55.8361642" lon="48.9398687"><time>2021-04-17T07:34:10.950</time></trkpt><trkpt lat="55.8362158" lon="48.9399273"><time>2021-04-17T07:34:17.937</time></trkpt><trkpt lat="55.8362677" lon="48.9399539"><time>2021-04-17T07:34:20.937</time></trkpt><trkpt lat="55.8363139" lon="48.9399933"><time>2021-04-17T07:34:22.950</time></trkpt><trkpt lat="55.8363757" lon="48.9400245"><time>2021-04-17T07:34:24.937</time></trkpt><trkpt lat="55.8364426" lon="48.9400446"><time>2021-04-17T07:34:26.917</time></trkpt><trkpt lat="55.8365027" lon="48.9400835"><time>2021-04-17T07:34:28.950</time></trkpt><trkpt lat="55.8365647" lon="48.9401202"><time>2021-04-17T07:34:30.927</time></trkpt><trkpt lat="55.8366244" lon="48.9401494"><time>2021-04-17T07:34:32.933</time></trkpt><trkpt lat="55.8366826" lon="48.9401847"><time>2021-04-17T07:34:34.947</time></trkpt><trkpt lat="55.8367387" lon="48.9402278"><time>2021-04-17T07:34:36.937</time></trkpt><trkpt lat="55.8367901" lon="48.9402765"><time>2021-04-17T07:34:38.930</time></trkpt><trkpt lat="55.8368368" lon="48.9403142"><time>2021-04-17T07:34:40.927</time></trkpt><trkpt lat="55.8368840" lon="48.9403452"><time>2021-04-17T07:34:42.937</time></trkpt><trkpt lat="55.8369277" lon="48.9403891"><time>2021-04-17T07:34:44.927</time></trkpt><trkpt lat="55.8369731" lon="48.9404309"><time>2021-04-17T07:34:46.957</time></trkpt><trkpt lat="55.8370199" lon="48.9404650"><time>2021-04-17T07:34:48.937</time></trkpt><trkpt lat="55.8370802" lon="48.9405115"><time>2021-04-17T07:34:51.937</time></trkpt><trkpt lat="55.8371411" lon="48.9405354"><time>2021-04-17T07:34:54.937</time></trkpt><trkpt lat="55.8372082" lon="48.9405750"><time>2021-04-17T07:34:57.940</time></trkpt><trkpt lat="55.8372552" lon="48.9405989"><time>2021-04-17T07:34:59.937</time></trkpt><trkpt lat="55.8373124" lon="48.9406304"><time>2021-04-17T07:35:02.933</time></trkpt><trkpt lat="55.8373734" lon="48.9406280"><time>2021-04-17T07:35:05.940</time></trkpt><trkpt lat="55.8374285" lon="48.9406485"><time>2021-04-17T07:35:08.950</time></trkpt><trkpt lat="55.8374701" lon="48.9406827"><time>2021-04-17T07:35:11.930</time></trkpt><trkpt lat="55.8375142" lon="48.9407173"><time>2021-04-17T07:35:14.917</time></trkpt><trkpt lat="55.8375621" lon="48.9407532"><time>2021-04-17T07:35:17.937</time></trkpt><trkpt lat="55.8376026" lon="48.9407917"><time>2021-04-17T07:35:20.940</time></trkpt><trkpt lat="55.8376457" lon="48.9408229"><time>2021-04-17T07:35:24.937</time></trkpt><trkpt lat="55.8376940" lon="48.9408722"><time>2021-04-17T07:35:29.957</time></trkpt><trkpt lat="55.8377392" lon="48.9409240"><time>2021-04-17T07:35:34.940</time></trkpt><trkpt lat="55.8377790" lon="48.9409799"><time>2021-04-17T07:35:38.930</time></trkpt><trkpt lat="55.8378208" lon="48.9410463"><time>2021-04-17T07:35:42.937</time></trkpt><trkpt lat="55.8378541" lon="48.9411087"><time>2021-04-17T07:35:46.923</time></trkpt><trkpt lat="55.8378939" lon="48.9411790"><time>2021-04-17T07:35:50.937</time></trkpt><trkpt lat="55.8379260" lon="48.9412458"><time>2021-04-17T07:35:54.937</time></trkpt><trkpt lat="55.8379510" lon="48.9413245"><time>2021-04-17T07:35:58.937</time></trkpt><trkpt lat="55.8379915" lon="48.9413947"><time>2021-04-17T07:36:02.930</time></trkpt><trkpt lat="55.8380309" lon="48.9414506"><time>2021-04-17T07:36:06.937</time></trkpt><trkpt lat="55.8380607" lon="48.9415268"><time>2021-04-17T07:36:10.937</time></trkpt><trkpt lat="55.8380950" lon="48.9416012"><time>2021-04-17T07:36:13.933</time></trkpt><trkpt lat="55.8381404" lon="48.9416221"><time>2021-04-17T07:36:17.930</time></trkpt><trkpt lat="55.8381961" lon="48.9416599"><time>2021-04-17T07:36:19.940</time></trkpt><trkpt lat="55.8382655" lon="48.9416527"><time>2021-04-17T07:36:26.937</time></trkpt><trkpt lat="55.8383238" lon="48.9416217"><time>2021-04-17T07:36:29.950</time></trkpt><trkpt lat="55.8383450" lon="48.9415294"><time>2021-04-17T07:36:33.927</time></trkpt><trkpt lat="55.8383317" lon="48.9414496"><time>2021-04-17T07:36:37.930</time></trkpt><trkpt lat="55.8383166" lon="48.9414260"><time>2021-04-17T07:36:39.467</time></trkpt><trkpt lat="55.8382833" lon="48.9414538"><time>2021-04-17T07:36:58.920</time></trkpt><trkpt lat="55.8383279" lon="48.9415129"><time>2021-04-17T07:37:12.910</time></trkpt><trkpt lat="55.8383689" lon="48.9416049"><time>2021-04-17T07:37:14.983</time></trkpt><trkpt lat="55.8384233" lon="48.9416340"><time>2021-04-17T07:37:17.933</time></trkpt><trkpt lat="55.8384685" lon="48.9416054"><time>2021-04-17T07:37:29.933</time></trkpt><trkpt lat="55.8385211" lon="48.9415756"><time>2021-04-17T07:37:33.933</time></trkpt><trkpt lat="55.8385768" lon="48.9415118"><time>2021-04-17T07:37:35.937</time></trkpt><trkpt lat="55.8386270" lon="48.9414722"><time>2021-04-17T07:37:37.937</time></trkpt><trkpt lat="55.8386658" lon="48.9414189"><time>2021-04-17T07:37:40.937</time></trkpt><trkpt lat="55.8386979" lon="48.9414875"><time>2021-04-17T07:37:52.937</time></trkpt><trkpt lat="55.8387429" lon="48.9415149"><time>2021-04-17T07:38:07.937</time></trkpt><trkpt lat="55.8388044" lon="48.9415351"><time>2021-04-17T07:38:09.927</time></trkpt><trkpt lat="55.8388593" lon="48.9415698"><time>2021-04-17T07:38:11.957</time></trkpt><trkpt lat="55.8389120" lon="48.9416178"><time>2021-04-17T07:38:14.933</time></trkpt><trkpt lat="55.8389563" lon="48.9416617"><time>2021-04-17T07:38:17.957</time></trkpt><trkpt lat="55.8390064" lon="48.9417007"><time>2021-04-17T07:38:20.940</time></trkpt><trkpt lat="55.8390652" lon="48.9417222"><time>2021-04-17T07:38:23.953</time></trkpt><trkpt lat="55.8391165" lon="48.9417493"><time>2021-04-17T07:38:26.930</time></trkpt><trkpt lat="55.8391749" lon="48.9417820"><time>2021-04-17T07:38:29.947</time></trkpt><trkpt lat="55.8392338" lon="48.9418228"><time>2021-04-17T07:38:32.933</time></trkpt><trkpt lat="55.8392882" lon="48.9418191"><time>2021-04-17T07:38:35.940</time></trkpt><trkpt lat="55.8393522" lon="48.9418371"><time>2021-04-17T07:38:38.930</time></trkpt><trkpt lat="55.8393979" lon="48.9418556"><time>2021-04-17T07:38:40.957</time></trkpt><trkpt lat="55.8394598" lon="48.9419010"><time>2021-04-17T07:38:43.933</time></trkpt><trkpt lat="55.8395201" lon="48.9419471"><time>2021-04-17T07:38:46.953</time></trkpt><trkpt lat="55.8395807" lon="48.9419623"><time>2021-04-17T07:38:49.937</time></trkpt><trkpt lat="55.8396213" lon="48.9419150"><time>2021-04-17T07:38:51.937</time></trkpt><trkpt lat="55.8396560" lon="48.9418385"><time>2021-04-17T07:38:53.937</time></trkpt><trkpt lat="55.8396883" lon="48.9417550"><time>2021-04-17T07:38:55.930</time></trkpt><trkpt lat="55.8397166" lon="48.9416746"><time>2021-04-17T07:38:57.937</time></trkpt><trkpt lat="55.8397457" lon="48.9415705"><time>2021-04-17T07:39:00.940</time></trkpt><trkpt lat="55.8397752" lon="48.9414977"><time>2021-04-17T07:39:02.937</time></trkpt><trkpt lat="55.8398049" lon="48.9414328"><time>2021-04-17T07:39:04.950</time></trkpt><trkpt lat="55.8398469" lon="48.9413567"><time>2021-04-17T07:39:06.937</time></trkpt><trkpt lat="55.8398885" lon="48.9412944"><time>2021-04-17T07:39:08.937</time></trkpt><trkpt lat="55.8399237" lon="48.9412348"><time>2021-04-17T07:39:10.967</time></trkpt><trkpt lat="55.8399586" lon="48.9411430"><time>2021-04-17T07:39:13.930</time></trkpt><trkpt lat="55.8399802" lon="48.9410690"><time>2021-04-17T07:39:15.940</time></trkpt><trkpt lat="55.8400115" lon="48.9409904"><time>2021-04-17T07:39:17.937</time></trkpt><trkpt lat="55.8400465" lon="48.9409008"><time>2021-04-17T07:39:20.937</time></trkpt><trkpt lat="55.8400764" lon="48.9408251"><time>2021-04-17T07:39:23.940</time></trkpt><trkpt lat="55.8401089" lon="48.9407353"><time>2021-04-17T07:39:26.937</time></trkpt><trkpt lat="55.8401435" lon="48.9406610"><time>2021-04-17T07:39:29.927</time></trkpt><trkpt lat="55.8401839" lon="48.9405728"><time>2021-04-17T07:39:32.937</time></trkpt><trkpt lat="55.8402149" lon="48.9405140"><time>2021-04-17T07:39:34.947</time></trkpt><trkpt lat="55.8402507" lon="48.9404543"><time>2021-04-17T07:39:36.917</time></trkpt><trkpt lat="55.8402745" lon="48.9403624"><time>2021-04-17T07:39:39.940</time></trkpt><trkpt lat="55.8403002" lon="48.9402811"><time>2021-04-17T07:39:42.937</time></trkpt><trkpt lat="55.8403355" lon="48.9402065"><time>2021-04-17T07:39:45.933</time></trkpt><trkpt lat="55.8403576" lon="48.9401308"><time>2021-04-17T07:39:49.933</time></trkpt><trkpt lat="55.8403826" lon="48.9400548"><time>2021-04-17T07:39:53.927</time></trkpt><trkpt lat="55.8403935" lon="48.9399697"><time>2021-04-17T07:39:57.937</time></trkpt><trkpt lat="55.8403536" lon="48.9399167"><time>2021-04-17T07:40:00.930</time></trkpt><trkpt lat="55.8402984" lon="48.9398606"><time>2021-04-17T07:40:03.933</time></trkpt><trkpt lat="55.8402520" lon="48.9398293"><time>2021-04-17T07:40:06.933</time></trkpt><trkpt lat="55.8402052" lon="48.9398137"><time>2021-04-17T07:40:09.937</time></trkpt><trkpt lat="55.8401645" lon="48.9397630"><time>2021-04-17T07:40:21.930</time></trkpt><trkpt lat="55.8401231" lon="48.9397124"><time>2021-04-17T07:40:25.930</time></trkpt><trkpt lat="55.8400660" lon="48.9396910"><time>2021-04-17T07:40:28.957</time></trkpt><trkpt lat="55.8400113" lon="48.9396663"><time>2021-04-17T07:40:31.937</time></trkpt><trkpt lat="55.8399650" lon="48.9396507"><time>2021-04-17T07:40:34.963</time></trkpt><trkpt lat="55.8399332" lon="48.9395747"><time>2021-04-17T07:40:39.930</time></trkpt><trkpt lat="55.8399159" lon="48.9394870"><time>2021-04-17T07:40:44.937</time></trkpt><trkpt lat="55.8399380" lon="48.9393917"><time>2021-04-17T07:40:49.937</time></trkpt><trkpt lat="55.8399688" lon="48.9393132"><time>2021-04-17T07:40:53.930</time></trkpt><trkpt lat="55.8400162" lon="48.9392499"><time>2021-04-17T07:40:57.937</time></trkpt><trkpt lat="55.8400311" lon="48.9391349"><time>2021-04-17T07:41:00.937</time></trkpt><trkpt lat="55.8400545" lon="48.9390518"><time>2021-04-17T07:41:02.940</time></trkpt><trkpt lat="55.8400880" lon="48.9389920"><time>2021-04-17T07:41:04.930</time></trkpt><trkpt lat="55.8401388" lon="48.9389361"><time>2021-04-17T07:41:07.937</time></trkpt><trkpt lat="55.8401557" lon="48.9388559"><time>2021-04-17T07:41:11.927</time></trkpt><trkpt lat="55.8401899" lon="48.9387843"><time>2021-04-17T07:41:16.940</time></trkpt><trkpt lat="55.8402155" lon="48.9387024"><time>2021-04-17T07:41:19.937</time></trkpt><trkpt lat="55.8402292" lon="48.9386165"><time>2021-04-17T07:41:23.927</time></trkpt><trkpt lat="55.8402159" lon="48.9385320"><time>2021-04-17T07:41:27.900</time></trkpt><trkpt lat="55.8401667" lon="48.9384885"><time>2021-04-17T07:41:31.923</time></trkpt><trkpt lat="55.8401123" lon="48.9384761"><time>2021-04-17T07:41:33.917</time></trkpt><trkpt lat="55.8401028" lon="48.9384812"><time>2021-04-17T07:41:35.450</time></trkpt><trkpt lat="55.8401558" lon="48.9385257"><time>2021-04-17T07:42:01.927</time></trkpt><trkpt lat="55.8401836" lon="48.9385923"><time>2021-04-17T07:42:07.930</time></trkpt><trkpt lat="55.8401635" lon="48.9386667"><time>2021-04-17T07:42:10.950</time></trkpt><trkpt lat="55.8401260" lon="48.9387338"><time>2021-04-17T07:42:16.923</time></trkpt><trkpt lat="55.8400998" lon="48.9388160"><time>2021-04-17T07:42:24.937</time></trkpt><trkpt lat="55.8401016" lon="48.9389133"><time>2021-04-17T07:42:27.937</time></trkpt><trkpt lat="55.8401421" lon="48.9388687"><time>2021-04-17T07:42:59.937</time></trkpt><trkpt lat="55.8401599" lon="48.9387779"><time>2021-04-17T07:43:06.927</time></trkpt><trkpt lat="55.8401797" lon="48.9386882"><time>2021-04-17T07:43:10.933</time></trkpt><trkpt lat="55.8401796" lon="48.9385865"><time>2021-04-17T07:43:13.933</time></trkpt><trkpt lat="55.8401921" lon="48.9385062"><time>2021-04-17T07:43:16.930</time></trkpt><trkpt lat="55.8402200" lon="48.9384326"><time>2021-04-17T07:43:19.953</time></trkpt><trkpt lat="55.8402360" lon="48.9383515"><time>2021-04-17T07:43:23.933</time></trkpt><trkpt lat="55.8401895" lon="48.9383544"><time>2021-04-17T07:43:51.937</time></trkpt><trkpt lat="55.8402133" lon="48.9382788"><time>2021-04-17T07:44:02.820</time></trkpt><trkpt lat="55.8401666" lon="48.9382921"><time>2021-04-17T07:44:27.930</time></trkpt><trkpt lat="55.8401175" lon="48.9382369"><time>2021-04-17T07:44:32.933</time></trkpt><trkpt lat="55.8400804" lon="48.9381845"><time>2021-04-17T07:44:36.957</time></trkpt><trkpt lat="55.8400638" lon="48.9380950"><time>2021-04-17T07:44:41.933</time></trkpt><trkpt lat="55.8401158" lon="48.9381374"><time>2021-04-17T07:44:51.933</time></trkpt><trkpt lat="55.8401741" lon="48.9381326"><time>2021-04-17T07:44:57.927</time></trkpt><trkpt lat="55.8402247" lon="48.9381247"><time>2021-04-17T07:45:00.977</time></trkpt><trkpt lat="55.8402608" lon="48.9380589"><time>2021-04-17T07:45:04.933</time></trkpt><trkpt lat="55.8402814" lon="48.9379814"><time>2021-04-17T07:45:07.943</time></trkpt><trkpt lat="55.8403084" lon="48.9378783"><time>2021-04-17T07:45:10.937</time></trkpt><trkpt lat="55.8403284" lon="48.9378063"><time>2021-04-17T07:45:12.933</time></trkpt><trkpt lat="55.8403459" lon="48.9377197"><time>2021-04-17T07:45:14.937</time></trkpt><trkpt lat="55.8403600" lon="48.9376218"><time>2021-04-17T07:45:17.940</time></trkpt><trkpt lat="55.8403733" lon="48.9375424"><time>2021-04-17T07:45:20.937</time></trkpt><trkpt lat="55.8403837" lon="48.9374634"><time>2021-04-17T07:45:22.937</time></trkpt><trkpt lat="55.8403921" lon="48.9373685"><time>2021-04-17T07:45:24.957</time></trkpt><trkpt lat="55.8403979" lon="48.9372662"><time>2021-04-17T07:45:26.933</time></trkpt><trkpt lat="55.8404066" lon="48.9371746"><time>2021-04-17T07:45:28.933</time></trkpt><trkpt lat="55.8404202" lon="48.9370847"><time>2021-04-17T07:45:30.943</time></trkpt><trkpt lat="55.8404335" lon="48.9369906"><time>2021-04-17T07:45:32.933</time></trkpt><trkpt lat="55.8404439" lon="48.9369036"><time>2021-04-17T07:45:34.937</time></trkpt><trkpt lat="55.8404559" lon="48.9368163"><time>2021-04-17T07:45:36.950</time></trkpt><trkpt lat="55.8404636" lon="48.9367256"><time>2021-04-17T07:45:38.937</time></trkpt><trkpt lat="55.8404892" lon="48.9366115"><time>2021-04-17T07:45:41.937</time></trkpt><trkpt lat="55.8405107" lon="48.9364726"><time>2021-04-17T07:45:45.937</time></trkpt><trkpt lat="55.8405307" lon="48.9363707"><time>2021-04-17T07:45:47.917</time></trkpt><trkpt lat="55.8405553" lon="48.9362734"><time>2021-04-17T07:45:50.940</time></trkpt><trkpt lat="55.8405837" lon="48.9361865"><time>2021-04-17T07:45:53.940</time></trkpt><trkpt lat="55.8406035" lon="48.9361006"><time>2021-04-17T07:45:56.937</time></trkpt><trkpt lat="55.8406203" lon="48.9360265"><time>2021-04-17T07:45:59.940</time></trkpt><trkpt lat="55.8406313" lon="48.9359389"><time>2021-04-17T07:46:03.943</time></trkpt><trkpt lat="55.8406485" lon="48.9358382"><time>2021-04-17T07:46:06.937</time></trkpt><trkpt lat="55.8406575" lon="48.9357234"><time>2021-04-17T07:46:09.937</time></trkpt><trkpt lat="55.8406617" lon="48.9356104"><time>2021-04-17T07:46:12.937</time></trkpt><trkpt lat="55.8406765" lon="48.9355296"><time>2021-04-17T07:46:14.930</time></trkpt><trkpt lat="55.8406951" lon="48.9354252"><time>2021-04-17T07:46:17.937</time></trkpt><trkpt lat="55.8407126" lon="48.9353173"><time>2021-04-17T07:46:20.930</time></trkpt><trkpt lat="55.8407225" lon="48.9352357"><time>2021-04-17T07:46:22.957</time></trkpt><trkpt lat="55.8407337" lon="48.9351204"><time>2021-04-17T07:46:25.940</time></trkpt><trkpt lat="55.8407488" lon="48.9350049"><time>2021-04-17T07:46:28.933</time></trkpt><trkpt lat="55.8407568" lon="48.9349151"><time>2021-04-17T07:46:30.930</time></trkpt><trkpt lat="55.8407660" lon="48.9348304"><time>2021-04-17T07:46:32.937</time></trkpt><trkpt lat="55.8407820" lon="48.9347514"><time>2021-04-17T07:46:34.947</time></trkpt><trkpt lat="55.8408004" lon="48.9346620"><time>2021-04-17T07:46:36.933</time></trkpt><trkpt lat="55.8408205" lon="48.9345697"><time>2021-04-17T07:46:38.937</time></trkpt><trkpt lat="55.8408337" lon="48.9344847"><time>2021-04-17T07:46:40.960</time></trkpt><trkpt lat="55.8408461" lon="48.9344005"><time>2021-04-17T07:46:42.940</time></trkpt><trkpt lat="55.8408575" lon="48.9343024"><time>2021-04-17T07:46:44.933</time></trkpt><trkpt lat="55.8408669" lon="48.9342226"><time>2021-04-17T07:46:46.947</time></trkpt><trkpt lat="55.8408861" lon="48.9341387"><time>2021-04-17T07:46:49.930</time></trkpt><trkpt lat="55.8409083" lon="48.9340578"><time>2021-04-17T07:46:52.960</time></trkpt><trkpt lat="55.8409247" lon="48.9339823"><time>2021-04-17T07:46:55.933</time></trkpt><trkpt lat="55.8409589" lon="48.9339129"><time>2021-04-17T07:47:00.940</time></trkpt><trkpt lat="55.8409613" lon="48.9338250"><time>2021-04-17T07:47:03.937</time></trkpt><trkpt lat="55.8409657" lon="48.9337236"><time>2021-04-17T07:47:06.937</time></trkpt><trkpt lat="55.8409980" lon="48.9336405"><time>2021-04-17T07:47:10.927</time></trkpt><trkpt lat="55.8410479" lon="48.9336287"><time>2021-04-17T07:47:14.930</time></trkpt><trkpt lat="55.8410988" lon="48.9336310"><time>2021-04-17T07:47:18.933</time></trkpt><trkpt lat="55.8411442" lon="48.9336366"><time>2021-04-17T07:47:22.933</time></trkpt><trkpt lat="55.8411809" lon="48.9335766"><time>2021-04-17T07:47:26.923</time></trkpt><trkpt lat="55.8412102" lon="48.9335064"><time>2021-04-17T07:47:29.937</time></trkpt><trkpt lat="55.8412472" lon="48.9334483"><time>2021-04-17T07:47:32.937</time></trkpt><trkpt lat="55.8412864" lon="48.9333858"><time>2021-04-17T07:47:35.933</time></trkpt><trkpt lat="55.8413103" lon="48.9332876"><time>2021-04-17T07:47:39.947</time></trkpt><trkpt lat="55.8413386" lon="48.9332253"><time>2021-04-17T07:47:44.933</time></trkpt><trkpt lat="55.8413731" lon="48.9332898"><time>2021-04-17T07:47:48.927</time></trkpt><trkpt lat="55.8413954" lon="48.9333653"><time>2021-04-17T07:47:51.933</time></trkpt><trkpt lat="55.8414490" lon="48.9334070"><time>2021-04-17T07:47:55.937</time></trkpt><trkpt lat="55.8414960" lon="48.9333476"><time>2021-04-17T07:47:59.927</time></trkpt><trkpt lat="55.8414997" lon="48.9332332"><time>2021-04-17T07:48:02.960</time></trkpt><trkpt lat="55.8415350" lon="48.9331815"><time>2021-04-17T07:48:06.927</time></trkpt><trkpt lat="55.8415755" lon="48.9331053"><time>2021-04-17T07:48:10.920</time></trkpt><trkpt lat="55.8416218" lon="48.9330765"><time>2021-04-17T07:48:15.920</time></trkpt><trkpt lat="55.8416218" lon="48.9330765"><time>2021-04-17T07:48:17.600</time></trkpt><trkpt lat="55.8415939" lon="48.9331448"><time>2021-04-17T07:48:25.950</time></trkpt><trkpt lat="55.8415511" lon="48.9331854"><time>2021-04-17T07:49:04.913</time></trkpt><trkpt lat="55.8415817" lon="48.9332518"><time>2021-04-17T07:50:40.933</time></trkpt><trkpt lat="55.8415833" lon="48.9333397"><time>2021-04-17T07:50:43.937</time></trkpt><trkpt lat="55.8416225" lon="48.9332915"><time>2021-04-17T07:51:01.937</time></trkpt><trkpt lat="55.8415945" lon="48.9333903"><time>2021-04-17T07:51:22.947</time></trkpt><trkpt lat="55.8415909" lon="48.9334866"><time>2021-04-17T07:51:25.940</time></trkpt><trkpt lat="55.8416239" lon="48.9335541"><time>2021-04-17T07:51:28.937</time></trkpt><trkpt lat="55.8416625" lon="48.9335953"><time>2021-04-17T07:51:32.950</time></trkpt><trkpt lat="55.8417115" lon="48.9336124"><time>2021-04-17T07:51:41.933</time></trkpt><trkpt lat="55.8417511" lon="48.9336562"><time>2021-04-17T07:51:45.937</time></trkpt><trkpt lat="55.8417905" lon="48.9337042"><time>2021-04-17T07:51:49.937</time></trkpt><trkpt lat="55.8418374" lon="48.9337175"><time>2021-04-17T07:51:58.933</time></trkpt><trkpt lat="55.8417996" lon="48.9336703"><time>2021-04-17T07:52:04.917</time></trkpt><trkpt lat="55.8417977" lon="48.9337609"><time>2021-04-17T07:52:21.933</time></trkpt><trkpt lat="55.8418096" lon="48.9338426"><time>2021-04-17T07:52:26.930</time></trkpt><trkpt lat="55.8418574" lon="48.9337463"><time>2021-04-17T07:52:32.937</time></trkpt><trkpt lat="55.8418850" lon="48.9336789"><time>2021-04-17T07:52:42.903</time></trkpt><trkpt lat="55.8419351" lon="48.9337060"><time>2021-04-17T07:52:48.943</time></trkpt><trkpt lat="55.8419841" lon="48.9337265"><time>2021-04-17T07:52:52.933</time></trkpt><trkpt lat="55.8420296" lon="48.9337554"><time>2021-04-17T07:52:59.933</time></trkpt><trkpt lat="55.8420782" lon="48.9337490"><time>2021-04-17T07:53:11.933</time></trkpt><trkpt lat="55.8421092" lon="48.9338073"><time>2021-04-17T07:53:15.913</time></trkpt><trkpt lat="55.8421529" lon="48.9338353"><time>2021-04-17T07:53:19.927</time></trkpt><trkpt lat="55.8421959" lon="48.9338730"><time>2021-04-17T07:53:22.933</time></trkpt><trkpt lat="55.8422433" lon="48.9338983"><time>2021-04-17T07:53:27.920</time></trkpt><trkpt lat="55.8422876" lon="48.9339302"><time>2021-04-17T07:53:31.927</time></trkpt><trkpt lat="55.8423357" lon="48.9339490"><time>2021-04-17T07:53:34.933</time></trkpt><trkpt lat="55.8423842" lon="48.9339895"><time>2021-04-17T07:53:38.933</time></trkpt><trkpt lat="55.8424343" lon="48.9340166"><time>2021-04-17T07:53:42.937</time></trkpt><trkpt lat="55.8424736" lon="48.9340678"><time>2021-04-17T07:53:47.937</time></trkpt><trkpt lat="55.8425310" lon="48.9341185"><time>2021-04-17T07:53:52.920</time></trkpt><trkpt lat="55.8425912" lon="48.9341462"><time>2021-04-17T07:53:56.910</time></trkpt><trkpt lat="55.8426348" lon="48.9341878"><time>2021-04-17T07:53:59.927</time></trkpt><trkpt lat="55.8426803" lon="48.9342184"><time>2021-04-17T07:54:02.937</time></trkpt><trkpt lat="55.8427245" lon="48.9341730"><time>2021-04-17T07:54:12.920</time></trkpt><trkpt lat="55.8427203" lon="48.9342556"><time>2021-04-17T07:54:23.927</time></trkpt><trkpt lat="55.8427444" lon="48.9343305"><time>2021-04-17T07:54:29.940</time></trkpt><trkpt lat="55.8427624" lon="48.9344480"><time>2021-04-17T07:54:39.917</time></trkpt><trkpt lat="55.8427831" lon="48.9345427"><time>2021-04-17T07:54:41.947</time></trkpt><trkpt lat="55.8427856" lon="48.9346533"><time>2021-04-17T07:54:44.930</time></trkpt><trkpt lat="55.8427659" lon="48.9347392"><time>2021-04-17T07:54:47.940</time></trkpt><trkpt lat="55.8427418" lon="48.9348387"><time>2021-04-17T07:54:50.967</time></trkpt><trkpt lat="55.8427239" lon="48.9349281"><time>2021-04-17T07:54:53.943</time></trkpt><trkpt lat="55.8427155" lon="48.9350120"><time>2021-04-17T07:54:56.940</time></trkpt><trkpt lat="55.8427571" lon="48.9349778"><time>2021-04-17T07:55:03.937</time></trkpt><trkpt lat="55.8427803" lon="48.9348802"><time>2021-04-17T07:55:05.927</time></trkpt><trkpt lat="55.8427862" lon="48.9347590"><time>2021-04-17T07:55:08.943</time></trkpt><trkpt lat="55.8427835" lon="48.9346750"><time>2021-04-17T07:55:10.940</time></trkpt><trkpt lat="55.8427986" lon="48.9345810"><time>2021-04-17T07:55:15.943</time></trkpt><trkpt lat="55.8427715" lon="48.9345010"><time>2021-04-17T07:55:18.947</time></trkpt><trkpt lat="55.8427408" lon="48.9344217"><time>2021-04-17T07:55:21.943</time></trkpt><trkpt lat="55.8427379" lon="48.9343394"><time>2021-04-17T07:55:24.943</time></trkpt><trkpt lat="55.8427503" lon="48.9342595"><time>2021-04-17T07:55:29.950</time></trkpt><trkpt lat="55.8427963" lon="48.9342223"><time>2021-04-17T07:55:41.937</time></trkpt><trkpt lat="55.8428371" lon="48.9342685"><time>2021-04-17T07:55:45.937</time></trkpt><trkpt lat="55.8428647" lon="48.9343324"><time>2021-04-17T07:55:47.933</time></trkpt><trkpt lat="55.8429083" lon="48.9344007"><time>2021-04-17T07:55:50.937</time></trkpt><trkpt lat="55.8429596" lon="48.9344267"><time>2021-04-17T07:55:53.947</time></trkpt><trkpt lat="55.8430165" lon="48.9344007"><time>2021-04-17T07:55:57.940</time></trkpt><trkpt lat="55.8430666" lon="48.9344035"><time>2021-04-17T07:56:01.947</time></trkpt><trkpt lat="55.8431106" lon="48.9344595"><time>2021-04-17T07:56:07.020</time></trkpt><trkpt lat="55.8431609" lon="48.9344780"><time>2021-04-17T07:56:10.910</time></trkpt><trkpt lat="55.8432179" lon="48.9345273"><time>2021-04-17T07:56:16.920</time></trkpt><trkpt lat="55.8432628" lon="48.9345540"><time>2021-04-17T07:56:21.927</time></trkpt><trkpt lat="55.8433082" lon="48.9345566"><time>2021-04-17T07:56:25.930</time></trkpt><trkpt lat="55.8433600" lon="48.9345377"><time>2021-04-17T07:56:29.940</time></trkpt><trkpt lat="55.8434150" lon="48.9345052"><time>2021-04-17T07:56:34.940</time></trkpt><trkpt lat="55.8434626" lon="48.9345228"><time>2021-04-17T07:56:37.950</time></trkpt><trkpt lat="55.8435169" lon="48.9345502"><time>2021-04-17T07:56:41.923</time></trkpt><trkpt lat="55.8435564" lon="48.9345935"><time>2021-04-17T07:56:44.933</time></trkpt><trkpt lat="55.8436071" lon="48.9346194"><time>2021-04-17T07:56:49.930</time></trkpt><trkpt lat="55.8436648" lon="48.9346426"><time>2021-04-17T07:56:53.917</time></trkpt><trkpt lat="55.8437149" lon="48.9346469"><time>2021-04-17T07:56:58.927</time></trkpt><trkpt lat="55.8437587" lon="48.9345979"><time>2021-04-17T07:57:03.930</time></trkpt><trkpt lat="55.8438049" lon="48.9345419"><time>2021-04-17T07:57:08.930</time></trkpt><trkpt lat="55.8438563" lon="48.9345033"><time>2021-04-17T07:57:12.943</time></trkpt><trkpt lat="55.8438768" lon="48.9344188"><time>2021-04-17T07:57:16.943</time></trkpt><trkpt lat="55.8438940" lon="48.9343429"><time>2021-04-17T07:57:20.943</time></trkpt><trkpt lat="55.8439061" lon="48.9342416"><time>2021-04-17T07:57:25.947</time></trkpt><trkpt lat="55.8439251" lon="48.9341420"><time>2021-04-17T07:57:29.943</time></trkpt><trkpt lat="55.8439327" lon="48.9340626"><time>2021-04-17T07:57:32.933</time></trkpt><trkpt lat="55.8439516" lon="48.9339752"><time>2021-04-17T07:57:35.947</time></trkpt><trkpt lat="55.8439776" lon="48.9339006"><time>2021-04-17T07:57:38.930</time></trkpt><trkpt lat="55.8440076" lon="48.9338299"><time>2021-04-17T07:57:42.943</time></trkpt><trkpt lat="55.8440284" lon="48.9337590"><time>2021-04-17T07:57:46.947</time></trkpt><trkpt lat="55.8440612" lon="48.9336834"><time>2021-04-17T07:57:50.937</time></trkpt><trkpt lat="55.8440892" lon="48.9336126"><time>2021-04-17T07:57:55.927</time></trkpt><trkpt lat="55.8440960" lon="48.9335331"><time>2021-04-17T07:58:01.947</time></trkpt><trkpt lat="55.8441165" lon="48.9334120"><time>2021-04-17T07:58:08.963</time></trkpt><trkpt lat="55.8441265" lon="48.9333309"><time>2021-04-17T07:58:13.940</time></trkpt><trkpt lat="55.8441484" lon="48.9332337"><time>2021-04-17T07:58:18.927</time></trkpt><trkpt lat="55.8441664" lon="48.9331534"><time>2021-04-17T07:58:24.927</time></trkpt><trkpt lat="55.8441864" lon="48.9330647"><time>2021-04-17T07:58:29.940</time></trkpt><trkpt lat="55.8442173" lon="48.9329843"><time>2021-04-17T07:58:33.947</time></trkpt><trkpt lat="55.8442364" lon="48.9328878"><time>2021-04-17T07:58:37.927</time></trkpt><trkpt lat="55.8442488" lon="48.9328038"><time>2021-04-17T07:58:41.943</time></trkpt><trkpt lat="55.8442668" lon="48.9327203"><time>2021-04-17T07:58:46.943</time></trkpt><trkpt lat="55.8442749" lon="48.9326357"><time>2021-04-17T07:58:50.947</time></trkpt><trkpt lat="55.8442919" lon="48.9325381"><time>2021-04-17T07:58:54.927</time></trkpt><trkpt lat="55.8443221" lon="48.9324425"><time>2021-04-17T07:58:57.930</time></trkpt><trkpt lat="55.8443401" lon="48.9323627"><time>2021-04-17T07:59:00.937</time></trkpt><trkpt lat="55.8443598" lon="48.9322884"><time>2021-04-17T07:59:03.943</time></trkpt><trkpt lat="55.8443761" lon="48.9321922"><time>2021-04-17T07:59:07.937</time></trkpt><trkpt lat="55.8444050" lon="48.9321235"><time>2021-04-17T07:59:11.907</time></trkpt><trkpt lat="55.8444299" lon="48.9320522"><time>2021-04-17T07:59:14.920</time></trkpt><trkpt lat="55.8444427" lon="48.9319752"><time>2021-04-17T07:59:18.933</time></trkpt><trkpt lat="55.8444404" lon="48.9318796"><time>2021-04-17T07:59:23.940</time></trkpt><trkpt lat="55.8444608" lon="48.9317827"><time>2021-04-17T07:59:27.940</time></trkpt><trkpt lat="55.8444892" lon="48.9317046"><time>2021-04-17T07:59:30.947</time></trkpt><trkpt lat="55.8445058" lon="48.9316066"><time>2021-04-17T07:59:32.947</time></trkpt><trkpt lat="55.8445303" lon="48.9314919"><time>2021-04-17T07:59:35.943</time></trkpt><trkpt lat="55.8445402" lon="48.9313866"><time>2021-04-17T07:59:38.940</time></trkpt><trkpt lat="55.8445506" lon="48.9313057"><time>2021-04-17T07:59:41.947</time></trkpt><trkpt lat="55.8445763" lon="48.9312153"><time>2021-04-17T07:59:46.917</time></trkpt><trkpt lat="55.8445782" lon="48.9311346"><time>2021-04-17T07:59:49.917</time></trkpt><trkpt lat="55.8445899" lon="48.9310423"><time>2021-04-17T07:59:53.943</time></trkpt><trkpt lat="55.8445749" lon="48.9309364"><time>2021-04-17T07:59:57.947</time></trkpt><trkpt lat="55.8445623" lon="48.9308561"><time>2021-04-17T08:00:01.923</time></trkpt><trkpt lat="55.8445535" lon="48.9307750"><time>2021-04-17T08:00:05.943</time></trkpt><trkpt lat="55.8445707" lon="48.9306997"><time>2021-04-17T08:00:09.947</time></trkpt><trkpt lat="55.8446008" lon="48.9306316"><time>2021-04-17T08:00:15.010</time></trkpt><trkpt lat="55.8445760" lon="48.9305333"><time>2021-04-17T08:00:17.927</time></trkpt><trkpt lat="55.8445644" lon="48.9304400"><time>2021-04-17T08:00:20.943</time></trkpt><trkpt lat="55.8445723" lon="48.9303582"><time>2021-04-17T08:00:24.357</time></trkpt><trkpt lat="55.8445937" lon="48.9302781"><time>2021-04-17T08:00:27.923</time></trkpt><trkpt lat="55.8445943" lon="48.9301913"><time>2021-04-17T08:00:31.917</time></trkpt><trkpt lat="55.8446131" lon="48.9300814"><time>2021-04-17T08:00:37.947</time></trkpt><trkpt lat="55.8446299" lon="48.9299849"><time>2021-04-17T08:00:41.917</time></trkpt><trkpt lat="55.8446626" lon="48.9298986"><time>2021-04-17T08:00:46.927</time></trkpt><trkpt lat="55.8446817" lon="48.9298193"><time>2021-04-17T08:00:49.927</time></trkpt><trkpt lat="55.8447058" lon="48.9297489"><time>2021-04-17T08:00:54.927</time></trkpt><trkpt lat="55.8447052" lon="48.9296590"><time>2021-04-17T08:00:59.913</time></trkpt><trkpt lat="55.8447092" lon="48.9295761"><time>2021-04-17T08:01:02.913</time></trkpt><trkpt lat="55.8447118" lon="48.9294776"><time>2021-04-17T08:01:06.927</time></trkpt><trkpt lat="55.8447428" lon="48.9293916"><time>2021-04-17T08:01:10.937</time></trkpt><trkpt lat="55.8447779" lon="48.9293363"><time>2021-04-17T08:01:13.930</time></trkpt><trkpt lat="55.8448137" lon="48.9292437"><time>2021-04-17T08:01:16.923</time></trkpt><trkpt lat="55.8448381" lon="48.9291730"><time>2021-04-17T08:01:20.133</time></trkpt><trkpt lat="55.8448582" lon="48.9290944"><time>2021-04-17T08:01:23.943</time></trkpt><trkpt lat="55.8448857" lon="48.9290204"><time>2021-04-17T08:01:27.943</time></trkpt><trkpt lat="55.8449175" lon="48.9289505"><time>2021-04-17T08:01:31.917</time></trkpt><trkpt lat="55.8449455" lon="48.9288625"><time>2021-04-17T08:01:35.923</time></trkpt><trkpt lat="55.8449606" lon="48.9287856"><time>2021-04-17T08:01:38.947</time></trkpt><trkpt lat="55.8449645" lon="48.9286950"><time>2021-04-17T08:01:42.923</time></trkpt><trkpt lat="55.8449738" lon="48.9286018"><time>2021-04-17T08:01:46.940</time></trkpt><trkpt lat="55.8449818" lon="48.9285028"><time>2021-04-17T08:01:51.087</time></trkpt><trkpt lat="55.8449913" lon="48.9284033"><time>2021-04-17T08:01:54.933</time></trkpt><trkpt lat="55.8450022" lon="48.9283107"><time>2021-04-17T08:01:58.927</time></trkpt><trkpt lat="55.8450334" lon="48.9282279"><time>2021-04-17T08:02:02.907</time></trkpt><trkpt lat="55.8450580" lon="48.9281553"><time>2021-04-17T08:02:06.907</time></trkpt><trkpt lat="55.8450754" lon="48.9280697"><time>2021-04-17T08:02:10.907</time></trkpt><trkpt lat="55.8450879" lon="48.9279743"><time>2021-04-17T08:02:19.917</time></trkpt><trkpt lat="55.8450998" lon="48.9278826"><time>2021-04-17T08:02:28.933</time></trkpt><trkpt lat="55.8451084" lon="48.9278012"><time>2021-04-17T08:02:31.930</time></trkpt><trkpt lat="55.8451399" lon="48.9277324"><time>2021-04-17T08:02:34.927</time></trkpt><trkpt lat="55.8451717" lon="48.9276756"><time>2021-04-17T08:02:37.917</time></trkpt><trkpt lat="55.8452165" lon="48.9276807"><time>2021-04-17T08:02:46.940</time></trkpt><trkpt lat="55.8452661" lon="48.9277028"><time>2021-04-17T08:03:05.910</time></trkpt><trkpt lat="55.8452776" lon="48.9276133"><time>2021-04-17T08:03:20.937</time></trkpt><trkpt lat="55.8453127" lon="48.9275594"><time>2021-04-17T08:03:24.920</time></trkpt><trkpt lat="55.8453412" lon="48.9274531"><time>2021-04-17T08:03:28.927</time></trkpt><trkpt lat="55.8453555" lon="48.9273727"><time>2021-04-17T08:03:30.927</time></trkpt><trkpt lat="55.8453674" lon="48.9272930"><time>2021-04-17T08:03:33.943</time></trkpt><trkpt lat="55.8453836" lon="48.9271965"><time>2021-04-17T08:03:36.940</time></trkpt><trkpt lat="55.8454109" lon="48.9270982"><time>2021-04-17T08:03:39.943</time></trkpt><trkpt lat="55.8454234" lon="48.9270129"><time>2021-04-17T08:03:44.950</time></trkpt><trkpt lat="55.8454467" lon="48.9269388"><time>2021-04-17T08:03:50.943</time></trkpt><trkpt lat="55.8454686" lon="48.9268395"><time>2021-04-17T08:03:54.943</time></trkpt><trkpt lat="55.8454836" lon="48.9267588"><time>2021-04-17T08:03:57.943</time></trkpt><trkpt lat="55.8455012" lon="48.9266620"><time>2021-04-17T08:04:00.943</time></trkpt><trkpt lat="55.8455080" lon="48.9265827"><time>2021-04-17T08:04:02.973</time></trkpt><trkpt lat="55.8454926" lon="48.9264926"><time>2021-04-17T08:04:05.947</time></trkpt><trkpt lat="55.8454622" lon="48.9264228"><time>2021-04-17T08:04:09.940</time></trkpt><trkpt lat="55.8454399" lon="48.9263306"><time>2021-04-17T08:04:13.940</time></trkpt><trkpt lat="55.8454058" lon="48.9262507"><time>2021-04-17T08:04:17.930</time></trkpt><trkpt lat="55.8453583" lon="48.9262215"><time>2021-04-17T08:04:20.933</time></trkpt><trkpt lat="55.8453078" lon="48.9262012"><time>2021-04-17T08:04:23.930</time></trkpt><trkpt lat="55.8452759" lon="48.9262262"><time>2021-04-17T08:04:32.710</time></trkpt><trkpt lat="55.8452603" lon="48.9262041"><time>2021-04-17T08:04:37.953</time></trkpt><trkpt lat="55.8452987" lon="48.9261269"><time>2021-04-17T08:05:09.937</time></trkpt><trkpt lat="55.8452686" lon="48.9260423"><time>2021-04-17T08:05:15.070</time></trkpt><trkpt lat="55.8452237" lon="48.9259915"><time>2021-04-17T08:05:17.950</time></trkpt><trkpt lat="55.8451825" lon="48.9259336"><time>2021-04-17T08:05:20.930</time></trkpt><trkpt lat="55.8451511" lon="48.9258612"><time>2021-04-17T08:05:23.947</time></trkpt><trkpt lat="55.8450984" lon="48.9257712"><time>2021-04-17T08:05:26.947</time></trkpt><trkpt lat="55.8450541" lon="48.9256930"><time>2021-04-17T08:05:29.940</time></trkpt><trkpt lat="55.8450215" lon="48.9256363"><time>2021-04-17T08:05:31.943</time></trkpt><trkpt lat="55.8449849" lon="48.9255698"><time>2021-04-17T08:05:34.943</time></trkpt><trkpt lat="55.8449537" lon="48.9255003"><time>2021-04-17T08:05:37.943</time></trkpt><trkpt lat="55.8449198" lon="48.9254332"><time>2021-04-17T08:05:40.940</time></trkpt><trkpt lat="55.8448765" lon="48.9253615"><time>2021-04-17T08:05:43.947</time></trkpt><trkpt lat="55.8448339" lon="48.9252961"><time>2021-04-17T08:05:48.977</time></trkpt><trkpt lat="55.8447998" lon="48.9252367"><time>2021-04-17T08:05:53.950</time></trkpt><trkpt lat="55.8447570" lon="48.9251598"><time>2021-04-17T08:05:55.947</time></trkpt><trkpt lat="55.8447085" lon="48.9250826"><time>2021-04-17T08:05:57.943</time></trkpt><trkpt lat="55.8446710" lon="48.9250110"><time>2021-04-17T08:05:59.943</time></trkpt><trkpt lat="55.8446395" lon="48.9249497"><time>2021-04-17T08:06:01.947</time></trkpt><trkpt lat="55.8446041" lon="48.9248886"><time>2021-04-17T08:06:03.927</time></trkpt><trkpt lat="55.8445665" lon="48.9248332"><time>2021-04-17T08:06:05.947</time></trkpt><trkpt lat="55.8445326" lon="48.9247769"><time>2021-04-17T08:06:07.947</time></trkpt><trkpt lat="55.8445034" lon="48.9246876"><time>2021-04-17T08:06:12.290</time></trkpt><trkpt lat="55.8444607" lon="48.9245875"><time>2021-04-17T08:06:14.943</time></trkpt><trkpt lat="55.8444198" lon="48.9244795"><time>2021-04-17T08:06:17.920</time></trkpt><trkpt lat="55.8443856" lon="48.9243867"><time>2021-04-17T08:06:19.937</time></trkpt><trkpt lat="55.8443577" lon="48.9243030"><time>2021-04-17T08:06:21.940</time></trkpt><trkpt lat="55.8443252" lon="48.9242201"><time>2021-04-17T08:06:23.943</time></trkpt><trkpt lat="55.8442839" lon="48.9241472"><time>2021-04-17T08:06:25.930</time></trkpt><trkpt lat="55.8442519" lon="48.9240702"><time>2021-04-17T08:06:27.943</time></trkpt><trkpt lat="55.8442236" lon="48.9239973"><time>2021-04-17T08:06:29.940</time></trkpt><trkpt lat="55.8441926" lon="48.9239259"><time>2021-04-17T08:06:31.943</time></trkpt><trkpt lat="55.8441592" lon="48.9238436"><time>2021-04-17T08:06:33.947</time></trkpt><trkpt lat="55.8441236" lon="48.9237716"><time>2021-04-17T08:06:35.957</time></trkpt><trkpt lat="55.8440812" lon="48.9237017"><time>2021-04-17T08:06:37.940</time></trkpt><trkpt lat="55.8440429" lon="48.9236400"><time>2021-04-17T08:06:39.943</time></trkpt><trkpt lat="55.8440078" lon="48.9235891"><time>2021-04-17T08:06:41.927</time></trkpt><trkpt lat="55.8439573" lon="48.9235311"><time>2021-04-17T08:06:44.947</time></trkpt><trkpt lat="55.8439153" lon="48.9234762"><time>2021-04-17T08:06:46.943</time></trkpt><trkpt lat="55.8438745" lon="48.9234174"><time>2021-04-17T08:06:48.937</time></trkpt><trkpt lat="55.8438393" lon="48.9233632"><time>2021-04-17T08:06:50.943</time></trkpt><trkpt lat="55.8438033" lon="48.9233064"><time>2021-04-17T08:06:52.943</time></trkpt><trkpt lat="55.8437669" lon="48.9232517"><time>2021-04-17T08:06:54.943</time></trkpt><trkpt lat="55.8437150" lon="48.9231670"><time>2021-04-17T08:06:57.947</time></trkpt><trkpt lat="55.8436850" lon="48.9230501"><time>2021-04-17T08:06:59.947</time></trkpt><trkpt lat="55.8436580" lon="48.9229601"><time>2021-04-17T08:07:01.930</time></trkpt><trkpt lat="55.8436320" lon="48.9228905"><time>2021-04-17T08:07:03.943</time></trkpt><trkpt lat="55.8435870" lon="48.9228278"><time>2021-04-17T08:07:06.943</time></trkpt><trkpt lat="55.8435339" lon="48.9227607"><time>2021-04-17T08:07:09.970</time></trkpt><trkpt lat="55.8434924" lon="48.9227135"><time>2021-04-17T08:07:11.943</time></trkpt><trkpt lat="55.8434496" lon="48.9226612"><time>2021-04-17T08:07:13.947</time></trkpt><trkpt lat="55.8434096" lon="48.9225978"><time>2021-04-17T08:07:15.960</time></trkpt><trkpt lat="55.8433740" lon="48.9225321"><time>2021-04-17T08:07:17.943</time></trkpt><trkpt lat="55.8433395" lon="48.9224688"><time>2021-04-17T08:07:19.943</time></trkpt><trkpt lat="55.8433058" lon="48.9224031"><time>2021-04-17T08:07:21.960</time></trkpt><trkpt lat="55.8432705" lon="48.9223406"><time>2021-04-17T08:07:23.943</time></trkpt><trkpt lat="55.8432313" lon="48.9222603"><time>2021-04-17T08:07:25.933</time></trkpt><trkpt lat="55.8431922" lon="48.9221930"><time>2021-04-17T08:07:27.960</time></trkpt><trkpt lat="55.8431526" lon="48.9221257"><time>2021-04-17T08:07:29.947</time></trkpt><trkpt lat="55.8431193" lon="48.9220648"><time>2021-04-17T08:07:31.943</time></trkpt><trkpt lat="55.8430729" lon="48.9219827"><time>2021-04-17T08:07:34.943</time></trkpt><trkpt lat="55.8430320" lon="48.9219033"><time>2021-04-17T08:07:37.943</time></trkpt><trkpt lat="55.8429906" lon="48.9218375"><time>2021-04-17T08:07:40.937</time></trkpt><trkpt lat="55.8429508" lon="48.9217523"><time>2021-04-17T08:07:43.943</time></trkpt><trkpt lat="55.8429072" lon="48.9216633"><time>2021-04-17T08:07:46.923</time></trkpt><trkpt lat="55.8428759" lon="48.9216038"><time>2021-04-17T08:07:48.947</time></trkpt><trkpt lat="55.8428279" lon="48.9215066"><time>2021-04-17T08:07:51.943</time></trkpt><trkpt lat="55.8427894" lon="48.9214358"><time>2021-04-17T08:07:53.947</time></trkpt><trkpt lat="55.8427483" lon="48.9213729"><time>2021-04-17T08:07:55.943</time></trkpt><trkpt lat="55.8427035" lon="48.9213026"><time>2021-04-17T08:07:58.943</time></trkpt><trkpt lat="55.8426609" lon="48.9212331"><time>2021-04-17T08:08:01.943</time></trkpt><trkpt lat="55.8426208" lon="48.9211733"><time>2021-04-17T08:08:03.943</time></trkpt><trkpt lat="55.8425713" lon="48.9210950"><time>2021-04-17T08:08:06.943</time></trkpt><trkpt lat="55.8425205" lon="48.9210193"><time>2021-04-17T08:08:09.950</time></trkpt><trkpt lat="55.8424847" lon="48.9209473"><time>2021-04-17T08:08:11.943</time></trkpt><trkpt lat="55.8424408" lon="48.9208700"><time>2021-04-17T08:08:14.930</time></trkpt><trkpt lat="55.8423876" lon="48.9208194"><time>2021-04-17T08:08:17.947</time></trkpt><trkpt lat="55.8423390" lon="48.9207724"><time>2021-04-17T08:08:20.947</time></trkpt><trkpt lat="55.8422956" lon="48.9207105"><time>2021-04-17T08:08:23.940</time></trkpt><trkpt lat="55.8422629" lon="48.9206555"><time>2021-04-17T08:08:25.957</time></trkpt><trkpt lat="55.8422254" lon="48.9206025"><time>2021-04-17T08:08:27.943</time></trkpt><trkpt lat="55.8421896" lon="48.9205541"><time>2021-04-17T08:08:29.947</time></trkpt><trkpt lat="55.8421547" lon="48.9204989"><time>2021-04-17T08:08:31.947</time></trkpt><trkpt lat="55.8421135" lon="48.9204446"><time>2021-04-17T08:08:33.950</time></trkpt><trkpt lat="55.8420598" lon="48.9203885"><time>2021-04-17T08:08:36.940</time></trkpt><trkpt lat="55.8420213" lon="48.9203119"><time>2021-04-17T08:08:39.940</time></trkpt><trkpt lat="55.8419890" lon="48.9202273"><time>2021-04-17T08:08:43.953</time></trkpt><trkpt lat="55.8419492" lon="48.9201746"><time>2021-04-17T08:08:46.943</time></trkpt><trkpt lat="55.8419155" lon="48.9201202"><time>2021-04-17T08:08:49.943</time></trkpt><trkpt lat="55.8418777" lon="48.9200496"><time>2021-04-17T08:08:53.933</time></trkpt><trkpt lat="55.8418350" lon="48.9199957"><time>2021-04-17T08:08:57.940</time></trkpt><trkpt lat="55.8417934" lon="48.9199292"><time>2021-04-17T08:09:01.940</time></trkpt><trkpt lat="55.8417583" lon="48.9198613"><time>2021-04-17T08:09:05.943</time></trkpt><trkpt lat="55.8417311" lon="48.9197965"><time>2021-04-17T08:09:09.943</time></trkpt><trkpt lat="55.8417003" lon="48.9197381"><time>2021-04-17T08:09:12.943</time></trkpt><trkpt lat="55.8416653" lon="48.9196736"><time>2021-04-17T08:09:15.947</time></trkpt><trkpt lat="55.8416242" lon="48.9196164"><time>2021-04-17T08:09:18.943</time></trkpt><trkpt lat="55.8415903" lon="48.9195509"><time>2021-04-17T08:09:21.943</time></trkpt><trkpt lat="55.8415537" lon="48.9194823"><time>2021-04-17T08:09:24.947</time></trkpt><trkpt lat="55.8415139" lon="48.9194240"><time>2021-04-17T08:09:27.943</time></trkpt><trkpt lat="55.8414702" lon="48.9193631"><time>2021-04-17T08:09:31.943</time></trkpt><trkpt lat="55.8414282" lon="48.9192902"><time>2021-04-17T08:09:35.960</time></trkpt><trkpt lat="55.8413909" lon="48.9192099"><time>2021-04-17T08:09:39.943</time></trkpt><trkpt lat="55.8413448" lon="48.9191453"><time>2021-04-17T08:09:43.943</time></trkpt><trkpt lat="55.8413022" lon="48.9190835"><time>2021-04-17T08:09:47.960</time></trkpt><trkpt lat="55.8412589" lon="48.9190393"><time>2021-04-17T08:09:50.947</time></trkpt><trkpt lat="55.8412335" lon="48.9191153"><time>2021-04-17T08:09:56.947</time></trkpt><trkpt lat="55.8411878" lon="48.9191501"><time>2021-04-17T08:10:00.943</time></trkpt><trkpt lat="55.8411391" lon="48.9191585"><time>2021-04-17T08:10:02.947</time></trkpt><trkpt lat="55.8410971" lon="48.9191968"><time>2021-04-17T08:10:05.973</time></trkpt><trkpt lat="55.8410488" lon="48.9192254"><time>2021-04-17T08:10:09.947</time></trkpt><trkpt lat="55.8409902" lon="48.9192545"><time>2021-04-17T08:10:13.947</time></trkpt><trkpt lat="55.8409360" lon="48.9192713"><time>2021-04-17T08:10:16.943</time></trkpt><trkpt lat="55.8408889" lon="48.9192873"><time>2021-04-17T08:10:19.947</time></trkpt><trkpt lat="55.8408360" lon="48.9193183"><time>2021-04-17T08:10:23.970</time></trkpt><trkpt lat="55.8407778" lon="48.9193354"><time>2021-04-17T08:10:27.943</time></trkpt><trkpt lat="55.8407321" lon="48.9193522"><time>2021-04-17T08:10:31.937</time></trkpt><trkpt lat="55.8406786" lon="48.9193892"><time>2021-04-17T08:10:35.947</time></trkpt><trkpt lat="55.8406320" lon="48.9194320"><time>2021-04-17T08:10:38.943</time></trkpt><trkpt lat="55.8405823" lon="48.9194784"><time>2021-04-17T08:10:41.973</time></trkpt><trkpt lat="55.8405405" lon="48.9195096"><time>2021-04-17T08:10:44.940</time></trkpt><trkpt lat="55.8404964" lon="48.9195295"><time>2021-04-17T08:10:47.957</time></trkpt><trkpt lat="55.8404478" lon="48.9195681"><time>2021-04-17T08:10:51.943</time></trkpt><trkpt lat="55.8404047" lon="48.9196256"><time>2021-04-17T08:10:54.943</time></trkpt><trkpt lat="55.8403528" lon="48.9196594"><time>2021-04-17T08:10:58.947</time></trkpt><trkpt lat="55.8403019" lon="48.9196827"><time>2021-04-17T08:11:02.927</time></trkpt><trkpt lat="55.8402590" lon="48.9197261"><time>2021-04-17T08:11:06.927</time></trkpt><trkpt lat="55.8402171" lon="48.9197764"><time>2021-04-17T08:11:10.950</time></trkpt><trkpt lat="55.8401751" lon="48.9198345"><time>2021-04-17T08:11:14.947</time></trkpt><trkpt lat="55.8401334" lon="48.9198887"><time>2021-04-17T08:11:17.947</time></trkpt><trkpt lat="55.8400931" lon="48.9199280"><time>2021-04-17T08:11:20.943</time></trkpt><trkpt lat="55.8400461" lon="48.9199658"><time>2021-04-17T08:11:24.947</time></trkpt><trkpt lat="55.8400286" lon="48.9200586"><time>2021-04-17T08:11:29.943</time></trkpt><trkpt lat="55.8400163" lon="48.9201597"><time>2021-04-17T08:11:33.940</time></trkpt><trkpt lat="55.8399998" lon="48.9202668"><time>2021-04-17T08:11:36.943</time></trkpt><trkpt lat="55.8400093" lon="48.9203592"><time>2021-04-17T08:11:40.953</time></trkpt><trkpt lat="55.8400587" lon="48.9204691"><time>2021-04-17T08:11:45.947</time></trkpt><trkpt lat="55.8400709" lon="48.9205512"><time>2021-04-17T08:11:47.947</time></trkpt><trkpt lat="55.8400960" lon="48.9206256"><time>2021-04-17T08:11:50.937</time></trkpt><trkpt lat="55.8401025" lon="48.9207133"><time>2021-04-17T08:11:58.937</time></trkpt><trkpt lat="55.8401025" lon="48.9208012"><time>2021-04-17T08:12:04.943</time></trkpt><trkpt lat="55.8401093" lon="48.9208863"><time>2021-04-17T08:12:09.947</time></trkpt><trkpt lat="55.8401452" lon="48.9209587"><time>2021-04-17T08:12:14.943</time></trkpt><trkpt lat="55.8401775" lon="48.9210265"><time>2021-04-17T08:12:17.943</time></trkpt><trkpt lat="55.8401970" lon="48.9211156"><time>2021-04-17T08:12:21.943</time></trkpt><trkpt lat="55.8402161" lon="48.9211905"><time>2021-04-17T08:12:25.943</time></trkpt><trkpt lat="55.8402540" lon="48.9212411"><time>2021-04-17T08:12:29.950</time></trkpt><trkpt lat="55.8403011" lon="48.9211948"><time>2021-04-17T08:12:33.947</time></trkpt><trkpt lat="55.8403424" lon="48.9211331"><time>2021-04-17T08:12:38.940</time></trkpt><trkpt lat="55.8403801" lon="48.9210849"><time>2021-04-17T08:12:46.940</time></trkpt><trkpt lat="55.8403862" lon="48.9210897"><time>2021-04-17T08:12:48.003</time></trkpt><trkpt lat="55.8403349" lon="48.9210423"><time>2021-04-17T08:13:14.943</time></trkpt><trkpt lat="55.8403039" lon="48.9209701"><time>2021-04-17T08:13:17.943</time></trkpt><trkpt lat="55.8402805" lon="48.9209003"><time>2021-04-17T08:13:19.943</time></trkpt><trkpt lat="55.8402422" lon="48.9208421"><time>2021-04-17T08:13:21.930</time></trkpt><trkpt lat="55.8402070" lon="48.9207611"><time>2021-04-17T08:13:24.943</time></trkpt><trkpt lat="55.8401453" lon="48.9207143"><time>2021-04-17T08:13:30.947</time></trkpt><trkpt lat="55.8401021" lon="48.9206510"><time>2021-04-17T08:13:51.947</time></trkpt><trkpt lat="55.8401258" lon="48.9205794"><time>2021-04-17T08:13:54.943</time></trkpt><trkpt lat="55.8401347" lon="48.9204981"><time>2021-04-17T08:13:57.943</time></trkpt><trkpt lat="55.8401316" lon="48.9204148"><time>2021-04-17T08:14:01.977</time></trkpt><trkpt lat="55.8401177" lon="48.9203376"><time>2021-04-17T08:14:04.943</time></trkpt><trkpt lat="55.8400972" lon="48.9202398"><time>2021-04-17T08:14:08.927</time></trkpt><trkpt lat="55.8400757" lon="48.9201654"><time>2021-04-17T08:14:12.947</time></trkpt><trkpt lat="55.8400247" lon="48.9201872"><time>2021-04-17T08:14:15.947</time></trkpt><trkpt lat="55.8399837" lon="48.9202277"><time>2021-04-17T08:14:17.947</time></trkpt><trkpt lat="55.8399454" lon="48.9202788"><time>2021-04-17T08:14:19.943</time></trkpt><trkpt lat="55.8399057" lon="48.9203675"><time>2021-04-17T08:14:22.943</time></trkpt><trkpt lat="55.8398668" lon="48.9204301"><time>2021-04-17T08:14:25.943</time></trkpt><trkpt lat="55.8398357" lon="48.9205106"><time>2021-04-17T08:14:28.943</time></trkpt><trkpt lat="55.8398064" lon="48.9205763"><time>2021-04-17T08:14:31.947</time></trkpt><trkpt lat="55.8397589" lon="48.9206391"><time>2021-04-17T08:14:35.943</time></trkpt><trkpt lat="55.8397167" lon="48.9206786"><time>2021-04-17T08:14:38.990</time></trkpt><trkpt lat="55.8396701" lon="48.9207404"><time>2021-04-17T08:14:42.943</time></trkpt><trkpt lat="55.8396134" lon="48.9207581"><time>2021-04-17T08:14:45.947</time></trkpt><trkpt lat="55.8395633" lon="48.9208075"><time>2021-04-17T08:14:50.977</time></trkpt><trkpt lat="55.8395332" lon="48.9208806"><time>2021-04-17T08:14:53.940</time></trkpt><trkpt lat="55.8394990" lon="48.9209437"><time>2021-04-17T08:14:56.977</time></trkpt><trkpt lat="55.8394683" lon="48.9210258"><time>2021-04-17T08:15:02.963</time></trkpt><trkpt lat="55.8394299" lon="48.9211006"><time>2021-04-17T08:15:06.943</time></trkpt><trkpt lat="55.8394017" lon="48.9211914"><time>2021-04-17T08:15:10.943</time></trkpt><trkpt lat="55.8393288" lon="48.9212639"><time>2021-04-17T08:15:14.943</time></trkpt><trkpt lat="55.8393085" lon="48.9213379"><time>2021-04-17T08:15:16.940</time></trkpt><trkpt lat="55.8392836" lon="48.9214266"><time>2021-04-17T08:15:20.943</time></trkpt><trkpt lat="55.8392569" lon="48.9215021"><time>2021-04-17T08:15:24.947</time></trkpt><trkpt lat="55.8392155" lon="48.9215459"><time>2021-04-17T08:15:27.923</time></trkpt><trkpt lat="55.8391817" lon="48.9216009"><time>2021-04-17T08:15:30.940</time></trkpt><trkpt lat="55.8391399" lon="48.9216519"><time>2021-04-17T08:15:33.940</time></trkpt><trkpt lat="55.8390995" lon="48.9216983"><time>2021-04-17T08:15:36.943</time></trkpt><trkpt lat="55.8390548" lon="48.9217537"><time>2021-04-17T08:15:39.940</time></trkpt><trkpt lat="55.8390204" lon="48.9218209"><time>2021-04-17T08:15:43.967</time></trkpt><trkpt lat="55.8389909" lon="48.9218875"><time>2021-04-17T08:15:47.943</time></trkpt><trkpt lat="55.8389582" lon="48.9219459"><time>2021-04-17T08:15:51.943</time></trkpt><trkpt lat="55.8389177" lon="48.9219962"><time>2021-04-17T08:15:55.957</time></trkpt><trkpt lat="55.8388740" lon="48.9220416"><time>2021-04-17T08:15:59.940</time></trkpt><trkpt lat="55.8388245" lon="48.9220937"><time>2021-04-17T08:16:03.940</time></trkpt><trkpt lat="55.8387886" lon="48.9221626"><time>2021-04-17T08:16:07.947</time></trkpt><trkpt lat="55.8387404" lon="48.9221929"><time>2021-04-17T08:16:10.923</time></trkpt><trkpt lat="55.8386992" lon="48.9222283"><time>2021-04-17T08:16:13.943</time></trkpt><trkpt lat="55.8386474" lon="48.9222757"><time>2021-04-17T08:16:16.947</time></trkpt><trkpt lat="55.8386000" lon="48.9223247"><time>2021-04-17T08:16:19.943</time></trkpt><trkpt lat="55.8385546" lon="48.9223708"><time>2021-04-17T08:16:22.947</time></trkpt><trkpt lat="55.8385059" lon="48.9224057"><time>2021-04-17T08:16:25.940</time></trkpt><trkpt lat="55.8384564" lon="48.9224396"><time>2021-04-17T08:16:28.947</time></trkpt><trkpt lat="55.8384097" lon="48.9224698"><time>2021-04-17T08:16:31.940</time></trkpt><trkpt lat="55.8383632" lon="48.9224855"><time>2021-04-17T08:16:34.940</time></trkpt><trkpt lat="55.8383115" lon="48.9225026"><time>2021-04-17T08:16:38.967</time></trkpt><trkpt lat="55.8382627" lon="48.9224751"><time>2021-04-17T08:16:43.943</time></trkpt><trkpt lat="55.8382358" lon="48.9224086"><time>2021-04-17T08:16:47.943</time></trkpt><trkpt lat="55.8382024" lon="48.9223373"><time>2021-04-17T08:16:51.943</time></trkpt><trkpt lat="55.8381703" lon="48.9222774"><time>2021-04-17T08:16:54.943</time></trkpt><trkpt lat="55.8381332" lon="48.9222068"><time>2021-04-17T08:16:58.943</time></trkpt><trkpt lat="55.8380900" lon="48.9221656"><time>2021-04-17T08:17:01.947</time></trkpt><trkpt lat="55.8380362" lon="48.9221302"><time>2021-04-17T08:17:04.943</time></trkpt><trkpt lat="55.8379837" lon="48.9221340"><time>2021-04-17T08:17:07.943</time></trkpt><trkpt lat="55.8379394" lon="48.9221477"><time>2021-04-17T08:17:10.943</time></trkpt><trkpt lat="55.8378848" lon="48.9221377"><time>2021-04-17T08:17:14.940</time></trkpt><trkpt lat="55.8378301" lon="48.9221146"><time>2021-04-17T08:17:18.943</time></trkpt><trkpt lat="55.8377766" lon="48.9220661"><time>2021-04-17T08:17:21.950</time></trkpt><trkpt lat="55.8377245" lon="48.9220230"><time>2021-04-17T08:17:25.940</time></trkpt><trkpt lat="55.8376772" lon="48.9219691"><time>2021-04-17T08:17:29.940</time></trkpt><trkpt lat="55.8376236" lon="48.9219223"><time>2021-04-17T08:17:32.940</time></trkpt><trkpt lat="55.8375749" lon="48.9218747"><time>2021-04-17T08:17:35.937</time></trkpt><trkpt lat="55.8375204" lon="48.9218502"><time>2021-04-17T08:17:38.950</time></trkpt><trkpt lat="55.8374704" lon="48.9218212"><time>2021-04-17T08:17:42.957</time></trkpt><trkpt lat="55.8374274" lon="48.9217849"><time>2021-04-17T08:17:45.943</time></trkpt><trkpt lat="55.8373734" lon="48.9217506"><time>2021-04-17T08:17:48.943</time></trkpt><trkpt lat="55.8373170" lon="48.9217341"><time>2021-04-17T08:17:52.943</time></trkpt><trkpt lat="55.8372575" lon="48.9217155"><time>2021-04-17T08:17:56.940</time></trkpt><trkpt lat="55.8372150" lon="48.9216768"><time>2021-04-17T08:17:59.947</time></trkpt><trkpt lat="55.8371583" lon="48.9216609"><time>2021-04-17T08:18:04.933</time></trkpt><trkpt lat="55.8371032" lon="48.9216126"><time>2021-04-17T08:18:08.933</time></trkpt><trkpt lat="55.8370688" lon="48.9215549"><time>2021-04-17T08:18:11.953</time></trkpt><trkpt lat="55.8370272" lon="48.9215111"><time>2021-04-17T08:18:14.940</time></trkpt><trkpt lat="55.8370073" lon="48.9214365"><time>2021-04-17T08:18:19.957</time></trkpt><trkpt lat="55.8369930" lon="48.9213498"><time>2021-04-17T08:18:26.317</time></trkpt><trkpt lat="55.8369977" lon="48.9212503"><time>2021-04-17T08:18:31.937</time></trkpt><trkpt lat="55.8369737" lon="48.9211697"><time>2021-04-17T08:18:35.930</time></trkpt><trkpt lat="55.8369662" lon="48.9210736"><time>2021-04-17T08:18:39.943</time></trkpt><trkpt lat="55.8370047" lon="48.9209987"><time>2021-04-17T08:18:43.923</time></trkpt><trkpt lat="55.8370195" lon="48.9210173"><time>2021-04-17T08:18:57.903</time></trkpt><trkpt lat="55.8370464" lon="48.9210401"><time>2021-04-17T08:19:18.947</time></trkpt><trkpt lat="55.8370083" lon="48.9209774"><time>2021-04-17T08:19:54.943</time></trkpt><trkpt lat="55.8369433" lon="48.9210570"><time>2021-04-17T08:19:57.943</time></trkpt><trkpt lat="55.8369333" lon="48.9211446"><time>2021-04-17T08:19:59.963</time></trkpt><trkpt lat="55.8369352" lon="48.9212265"><time>2021-04-17T08:20:01.937</time></trkpt><trkpt lat="55.8369427" lon="48.9213178"><time>2021-04-17T08:20:04.947</time></trkpt><trkpt lat="55.8369601" lon="48.9214197"><time>2021-04-17T08:20:07.943</time></trkpt><trkpt lat="55.8369758" lon="48.9215268"><time>2021-04-17T08:20:10.937</time></trkpt><trkpt lat="55.8369957" lon="48.9216096"><time>2021-04-17T08:20:13.943</time></trkpt><trkpt lat="55.8370014" lon="48.9216895"><time>2021-04-17T08:20:36.943</time></trkpt><trkpt lat="55.8369974" lon="48.9217784"><time>2021-04-17T08:20:39.947</time></trkpt><trkpt lat="55.8370184" lon="48.9218573"><time>2021-04-17T08:20:54.943</time></trkpt><trkpt lat="55.8370214" lon="48.9219399"><time>2021-04-17T08:20:59.957</time></trkpt><trkpt lat="55.8370084" lon="48.9220314"><time>2021-04-17T08:21:06.923</time></trkpt><trkpt lat="55.8370311" lon="48.9221298"><time>2021-04-17T08:21:10.940</time></trkpt><trkpt lat="55.8370511" lon="48.9222092"><time>2021-04-17T08:21:14.937</time></trkpt><trkpt lat="55.8370502" lon="48.9223105"><time>2021-04-17T08:21:19.943</time></trkpt><trkpt lat="55.8370508" lon="48.9223968"><time>2021-04-17T08:21:23.930</time></trkpt><trkpt lat="55.8370401" lon="48.9224970"><time>2021-04-17T08:21:27.940</time></trkpt><trkpt lat="55.8370246" lon="48.9225866"><time>2021-04-17T08:21:30.947</time></trkpt><trkpt lat="55.8370070" lon="48.9226779"><time>2021-04-17T08:21:34.947</time></trkpt><trkpt lat="55.8369792" lon="48.9227482"><time>2021-04-17T08:21:43.943</time></trkpt><trkpt lat="55.8369868" lon="48.9228382"><time>2021-04-17T08:21:49.943</time></trkpt><trkpt lat="55.8370048" lon="48.9229207"><time>2021-04-17T08:21:51.943</time></trkpt><trkpt lat="55.8370222" lon="48.9230134"><time>2021-04-17T08:21:55.943</time></trkpt><trkpt lat="55.8370352" lon="48.9230980"><time>2021-04-17T08:22:07.943</time></trkpt><trkpt lat="55.8370673" lon="48.9231717"><time>2021-04-17T08:22:11.943</time></trkpt><trkpt lat="55.8371219" lon="48.9231875"><time>2021-04-17T08:22:15.947</time></trkpt><trkpt lat="55.8371689" lon="48.9231566"><time>2021-04-17T08:22:18.943</time></trkpt><trkpt lat="55.8372173" lon="48.9231192"><time>2021-04-17T08:22:21.943</time></trkpt><trkpt lat="55.8372688" lon="48.9230882"><time>2021-04-17T08:22:24.943</time></trkpt><trkpt lat="55.8373136" lon="48.9230506"><time>2021-04-17T08:22:27.947</time></trkpt><trkpt lat="55.8373617" lon="48.9230143"><time>2021-04-17T08:22:30.943</time></trkpt><trkpt lat="55.8374103" lon="48.9229734"><time>2021-04-17T08:22:33.943</time></trkpt><trkpt lat="55.8374523" lon="48.9229425"><time>2021-04-17T08:22:36.943</time></trkpt><trkpt lat="55.8374961" lon="48.9229190"><time>2021-04-17T08:22:39.943</time></trkpt><trkpt lat="55.8375523" lon="48.9228962"><time>2021-04-17T08:22:44.970</time></trkpt><trkpt lat="55.8376002" lon="48.9228625"><time>2021-04-17T08:22:48.943</time></trkpt><trkpt lat="55.8376538" lon="48.9228596"><time>2021-04-17T08:22:52.943</time></trkpt><trkpt lat="55.8377118" lon="48.9228650"><time>2021-04-17T08:22:56.957</time></trkpt><trkpt lat="55.8377716" lon="48.9228688"><time>2021-04-17T08:23:00.943</time></trkpt><trkpt lat="55.8378286" lon="48.9228831"><time>2021-04-17T08:23:03.947</time></trkpt><trkpt lat="55.8378767" lon="48.9228792"><time>2021-04-17T08:23:06.943</time></trkpt><trkpt lat="55.8379229" lon="48.9228634"><time>2021-04-17T08:23:09.940</time></trkpt><trkpt lat="55.8379675" lon="48.9228289"><time>2021-04-17T08:23:12.943</time></trkpt><trkpt lat="55.8380176" lon="48.9227874"><time>2021-04-17T08:23:15.950</time></trkpt><trkpt lat="55.8380651" lon="48.9227610"><time>2021-04-17T08:23:19.943</time></trkpt><trkpt lat="55.8381130" lon="48.9227565"><time>2021-04-17T08:23:23.947</time></trkpt><trkpt lat="55.8381680" lon="48.9227410"><time>2021-04-17T08:23:27.947</time></trkpt><trkpt lat="55.8382146" lon="48.9227000"><time>2021-04-17T08:23:30.940</time></trkpt><trkpt lat="55.8382594" lon="48.9226681"><time>2021-04-17T08:23:33.947</time></trkpt><trkpt lat="55.8383117" lon="48.9226753"><time>2021-04-17T08:23:37.960</time></trkpt><trkpt lat="55.8383462" lon="48.9227419"><time>2021-04-17T08:23:42.943</time></trkpt><trkpt lat="55.8383756" lon="48.9228270"><time>2021-04-17T08:23:57.943</time></trkpt><trkpt lat="55.8383712" lon="48.9229160"><time>2021-04-17T08:24:02.947</time></trkpt><trkpt lat="55.8383894" lon="48.9229950"><time>2021-04-17T08:24:06.950</time></trkpt><trkpt lat="55.8384069" lon="48.9230898"><time>2021-04-17T08:24:10.943</time></trkpt><trkpt lat="55.8384148" lon="48.9231983"><time>2021-04-17T08:24:14.947</time></trkpt><trkpt lat="55.8384167" lon="48.9232832"><time>2021-04-17T08:24:17.947</time></trkpt><trkpt lat="55.8384179" lon="48.9233873"><time>2021-04-17T08:24:21.943</time></trkpt><trkpt lat="55.8384101" lon="48.9234732"><time>2021-04-17T08:24:24.963</time></trkpt><trkpt lat="55.8383892" lon="48.9235673"><time>2021-04-17T08:24:27.947</time></trkpt><trkpt lat="55.8383640" lon="48.9236532"><time>2021-04-17T08:24:30.943</time></trkpt><trkpt lat="55.8383422" lon="48.9237395"><time>2021-04-17T08:24:34.943</time></trkpt><trkpt lat="55.8383245" lon="48.9238184"><time>2021-04-17T08:24:37.943</time></trkpt><trkpt lat="55.8383033" lon="48.9239024"><time>2021-04-17T08:24:40.940</time></trkpt><trkpt lat="55.8382679" lon="48.9239933"><time>2021-04-17T08:24:43.950</time></trkpt><trkpt lat="55.8382396" lon="48.9240834"><time>2021-04-17T08:24:47.947</time></trkpt><trkpt lat="55.8382188" lon="48.9241584"><time>2021-04-17T08:24:49.943</time></trkpt><trkpt lat="55.8381947" lon="48.9242313"><time>2021-04-17T08:24:52.943</time></trkpt><trkpt lat="55.8381762" lon="48.9243111"><time>2021-04-17T08:24:55.950</time></trkpt><trkpt lat="55.8381633" lon="48.9243881"><time>2021-04-17T08:24:58.947</time></trkpt><trkpt lat="55.8381452" lon="48.9244688"><time>2021-04-17T08:25:02.947</time></trkpt><trkpt lat="55.8381413" lon="48.9245531"><time>2021-04-17T08:25:05.943</time></trkpt><trkpt lat="55.8381234" lon="48.9246549"><time>2021-04-17T08:25:09.943</time></trkpt><trkpt lat="55.8380950" lon="48.9247463"><time>2021-04-17T08:25:12.943</time></trkpt><trkpt lat="55.8380698" lon="48.9248127"><time>2021-04-17T08:25:14.947</time></trkpt><trkpt lat="55.8380518" lon="48.9248891"><time>2021-04-17T08:25:17.960</time></trkpt><trkpt lat="55.8380450" lon="48.9249694"><time>2021-04-17T08:25:21.943</time></trkpt><trkpt lat="55.8380412" lon="48.9250570"><time>2021-04-17T08:25:26.943</time></trkpt><trkpt lat="55.8380346" lon="48.9251425"><time>2021-04-17T08:25:30.940</time></trkpt><trkpt lat="55.8379939" lon="48.9251878"><time>2021-04-17T08:25:33.940</time></trkpt><trkpt lat="55.8379605" lon="48.9252414"><time>2021-04-17T08:25:35.943</time></trkpt><trkpt lat="55.8379297" lon="48.9253069"><time>2021-04-17T08:25:38.947</time></trkpt><trkpt lat="55.8379074" lon="48.9253880"><time>2021-04-17T08:25:42.943</time></trkpt><trkpt lat="55.8378880" lon="48.9254674"><time>2021-04-17T08:25:45.947</time></trkpt><trkpt lat="55.8378699" lon="48.9255637"><time>2021-04-17T08:25:49.940</time></trkpt><trkpt lat="55.8378553" lon="48.9256647"><time>2021-04-17T08:25:53.943</time></trkpt><trkpt lat="55.8378429" lon="48.9257454"><time>2021-04-17T08:25:56.940</time></trkpt><trkpt lat="55.8378374" lon="48.9258466"><time>2021-04-17T08:26:00.943</time></trkpt><trkpt lat="55.8378303" lon="48.9259340"><time>2021-04-17T08:26:03.940</time></trkpt><trkpt lat="55.8378020" lon="48.9260191"><time>2021-04-17T08:26:07.940</time></trkpt><trkpt lat="55.8377816" lon="48.9261045"><time>2021-04-17T08:26:11.947</time></trkpt><trkpt lat="55.8377706" lon="48.9261819"><time>2021-04-17T08:26:14.943</time></trkpt><trkpt lat="55.8377534" lon="48.9262673"><time>2021-04-17T08:26:18.933</time></trkpt><trkpt lat="55.8377412" lon="48.9263711"><time>2021-04-17T08:26:22.960</time></trkpt><trkpt lat="55.8377273" lon="48.9264687"><time>2021-04-17T08:26:26.943</time></trkpt><trkpt lat="55.8377023" lon="48.9265434"><time>2021-04-17T08:26:31.943</time></trkpt><trkpt lat="55.8376702" lon="48.9266212"><time>2021-04-17T08:26:49.943</time></trkpt><trkpt lat="55.8376405" lon="48.9267326"><time>2021-04-17T08:26:53.943</time></trkpt><trkpt lat="55.8376096" lon="48.9268206"><time>2021-04-17T08:26:56.943</time></trkpt><trkpt lat="55.8375820" lon="48.9269147"><time>2021-04-17T08:26:59.940</time></trkpt><trkpt lat="55.8375869" lon="48.9270492"><time>2021-04-17T08:27:03.923</time></trkpt><trkpt lat="55.8375641" lon="48.9271182"><time>2021-04-17T08:27:06.940</time></trkpt><trkpt lat="55.8375314" lon="48.9272147"><time>2021-04-17T08:27:09.940</time></trkpt><trkpt lat="55.8375054" lon="48.9273024"><time>2021-04-17T08:27:12.943</time></trkpt><trkpt lat="55.8374836" lon="48.9273763"><time>2021-04-17T08:27:15.943</time></trkpt><trkpt lat="55.8374686" lon="48.9274773"><time>2021-04-17T08:27:19.940</time></trkpt><trkpt lat="55.8374558" lon="48.9275591"><time>2021-04-17T08:27:22.943</time></trkpt><trkpt lat="55.8374508" lon="48.9276596"><time>2021-04-17T08:27:25.943</time></trkpt><trkpt lat="55.8374295" lon="48.9277624"><time>2021-04-17T08:27:27.940</time></trkpt><trkpt lat="55.8373996" lon="48.9278745"><time>2021-04-17T08:27:29.950</time></trkpt><trkpt lat="55.8373657" lon="48.9279791"><time>2021-04-17T08:27:31.943</time></trkpt><trkpt lat="55.8373374" lon="48.9280669"><time>2021-04-17T08:27:33.943</time></trkpt><trkpt lat="55.8373122" lon="48.9281486"><time>2021-04-17T08:27:35.943</time></trkpt><trkpt lat="55.8372977" lon="48.9282432"><time>2021-04-17T08:27:37.943</time></trkpt><trkpt lat="55.8372845" lon="48.9283218"><time>2021-04-17T08:27:39.930</time></trkpt><trkpt lat="55.8372579" lon="48.9284336"><time>2021-04-17T08:27:42.953</time></trkpt><trkpt lat="55.8372371" lon="48.9285157"><time>2021-04-17T08:27:44.943</time></trkpt><trkpt lat="55.8372223" lon="48.9285990"><time>2021-04-17T08:27:46.947</time></trkpt><trkpt lat="55.8372070" lon="48.9286976"><time>2021-04-17T08:27:48.957</time></trkpt><trkpt lat="55.8371888" lon="48.9287740"><time>2021-04-17T08:27:50.940</time></trkpt><trkpt lat="55.8371648" lon="48.9288835"><time>2021-04-17T08:27:53.957</time></trkpt><trkpt lat="55.8371427" lon="48.9290025"><time>2021-04-17T08:27:56.953</time></trkpt><trkpt lat="55.8371246" lon="48.9290817"><time>2021-04-17T08:27:58.947</time></trkpt><trkpt lat="55.8370935" lon="48.9291906"><time>2021-04-17T08:28:00.943</time></trkpt><trkpt lat="55.8370738" lon="48.9292825"><time>2021-04-17T08:28:02.947</time></trkpt><trkpt lat="55.8370569" lon="48.9293584"><time>2021-04-17T08:28:04.957</time></trkpt><trkpt lat="55.8370336" lon="48.9294399"><time>2021-04-17T08:28:10.940</time></trkpt><trkpt lat="55.8370219" lon="48.9295244"><time>2021-04-17T08:28:15.943</time></trkpt><trkpt lat="55.8370053" lon="48.9296129"><time>2021-04-17T08:28:21.943</time></trkpt><trkpt lat="55.8369802" lon="48.9296883"><time>2021-04-17T08:28:30.940</time></trkpt><trkpt lat="55.8369660" lon="48.9297695"><time>2021-04-17T08:28:34.927</time></trkpt><trkpt lat="55.8369356" lon="48.9298489"><time>2021-04-17T08:28:39.943</time></trkpt><trkpt lat="55.8369097" lon="48.9299349"><time>2021-04-17T08:28:43.943</time></trkpt><trkpt lat="55.8368861" lon="48.9300282"><time>2021-04-17T08:28:47.947</time></trkpt><trkpt lat="55.8368554" lon="48.9301138"><time>2021-04-17T08:28:50.947</time></trkpt><trkpt lat="55.8368343" lon="48.9301925"><time>2021-04-17T08:28:53.927</time></trkpt><trkpt lat="55.8368059" lon="48.9302666"><time>2021-04-17T08:28:56.940</time></trkpt><trkpt lat="55.8368239" lon="48.9303571"><time>2021-04-17T08:29:18.957</time></trkpt><trkpt lat="55.8368623" lon="48.9304302"><time>2021-04-17T08:29:22.947</time></trkpt><trkpt lat="55.8369028" lon="48.9304869"><time>2021-04-17T08:29:24.953</time></trkpt><trkpt lat="55.8369448" lon="48.9305474"><time>2021-04-17T08:29:27.957</time></trkpt><trkpt lat="55.8369800" lon="48.9306227"><time>2021-04-17T08:29:31.943</time></trkpt><trkpt lat="55.8370204" lon="48.9306718"><time>2021-04-17T08:29:36.943</time></trkpt><trkpt lat="55.8370727" lon="48.9307080"><time>2021-04-17T08:29:40.947</time></trkpt><trkpt lat="55.8371246" lon="48.9307284"><time>2021-04-17T08:29:45.940</time></trkpt><trkpt lat="55.8371762" lon="48.9307381"><time>2021-04-17T08:29:49.947</time></trkpt><trkpt lat="55.8372367" lon="48.9307545"><time>2021-04-17T08:29:53.957</time></trkpt><trkpt lat="55.8372928" lon="48.9307570"><time>2021-04-17T08:29:56.943</time></trkpt><trkpt lat="55.8373480" lon="48.9307712"><time>2021-04-17T08:29:59.940</time></trkpt><trkpt lat="55.8374002" lon="48.9308066"><time>2021-04-17T08:30:02.953</time></trkpt><trkpt lat="55.8374439" lon="48.9308711"><time>2021-04-17T08:30:05.947</time></trkpt><trkpt lat="55.8374848" lon="48.9309461"><time>2021-04-17T08:30:08.940</time></trkpt><trkpt lat="55.8375360" lon="48.9310023"><time>2021-04-17T08:30:11.943</time></trkpt><trkpt lat="55.8375794" lon="48.9310502"><time>2021-04-17T08:30:14.947</time></trkpt><trkpt lat="55.8376334" lon="48.9310785"><time>2021-04-17T08:30:17.953</time></trkpt><trkpt lat="55.8376918" lon="48.9310961"><time>2021-04-17T08:30:20.947</time></trkpt><trkpt lat="55.8377460" lon="48.9311018"><time>2021-04-17T08:30:23.943</time></trkpt><trkpt lat="55.8377948" lon="48.9311173"><time>2021-04-17T08:30:27.947</time></trkpt><trkpt lat="55.8378369" lon="48.9311573"><time>2021-04-17T08:30:30.943</time></trkpt><trkpt lat="55.8378793" lon="48.9311912"><time>2021-04-17T08:30:33.953</time></trkpt><trkpt lat="55.8379230" lon="48.9312140"><time>2021-04-17T08:30:36.943</time></trkpt><trkpt lat="55.8379764" lon="48.9312379"><time>2021-04-17T08:30:41.943</time></trkpt><trkpt lat="55.8380370" lon="48.9312497"><time>2021-04-17T08:30:45.943</time></trkpt><trkpt lat="55.8380958" lon="48.9312686"><time>2021-04-17T08:30:48.950</time></trkpt><trkpt lat="55.8381547" lon="48.9313084"><time>2021-04-17T08:30:51.943</time></trkpt><trkpt lat="55.8382046" lon="48.9313579"><time>2021-04-17T08:30:54.943</time></trkpt><trkpt lat="55.8382523" lon="48.9313926"><time>2021-04-17T08:30:57.953</time></trkpt><trkpt lat="55.8382981" lon="48.9314337"><time>2021-04-17T08:31:00.947</time></trkpt><trkpt lat="55.8383452" lon="48.9314619"><time>2021-04-17T08:31:11.693</time></trkpt><trkpt lat="55.8384014" lon="48.9315039"><time>2021-04-17T08:31:11.697</time></trkpt><trkpt lat="55.8384231" lon="48.9315993"><time>2021-04-17T08:31:15.967</time></trkpt><trkpt lat="55.8384362" lon="48.9316992"><time>2021-04-17T08:31:18.950</time></trkpt><trkpt lat="55.8384425" lon="48.9317965"><time>2021-04-17T08:31:21.947</time></trkpt><trkpt lat="55.8384492" lon="48.9318851"><time>2021-04-17T08:31:24.923</time></trkpt><trkpt lat="55.8384676" lon="48.9319778"><time>2021-04-17T08:31:28.947</time></trkpt><trkpt lat="55.8384953" lon="48.9320490"><time>2021-04-17T08:31:32.950</time></trkpt><trkpt lat="55.8385445" lon="48.9320694"><time>2021-04-17T08:31:38.930</time></trkpt><trkpt lat="55.8385448" lon="48.9320631"><time>2021-04-17T08:31:42.107</time></trkpt><trkpt lat="55.8385133" lon="48.9319648"><time>2021-04-17T08:32:14.930</time></trkpt><trkpt lat="55.8384703" lon="48.9319033"><time>2021-04-17T08:32:16.947</time></trkpt><trkpt lat="55.8384256" lon="48.9318297"><time>2021-04-17T08:32:19.950</time></trkpt><trkpt lat="55.8383909" lon="48.9317540"><time>2021-04-17T08:32:22.947</time></trkpt><trkpt lat="55.8383805" lon="48.9316763"><time>2021-04-17T08:32:25.947</time></trkpt><trkpt lat="55.8383915" lon="48.9315897"><time>2021-04-17T08:32:29.923</time></trkpt><trkpt lat="55.8384023" lon="48.9315093"><time>2021-04-17T08:32:34.927</time></trkpt><trkpt lat="55.8383914" lon="48.9313990"><time>2021-04-17T08:32:37.937</time></trkpt><trkpt lat="55.8383855" lon="48.9312951"><time>2021-04-17T08:32:40.947</time></trkpt><trkpt lat="55.8383312" lon="48.9312667"><time>2021-04-17T08:32:45.947</time></trkpt><trkpt lat="55.8382854" lon="48.9312784"><time>2021-04-17T08:32:48.947</time></trkpt><trkpt lat="55.8382401" lon="48.9312853"><time>2021-04-17T08:33:44.957</time></trkpt><trkpt lat="55.8381814" lon="48.9312662"><time>2021-04-17T08:33:48.960</time></trkpt><trkpt lat="55.8381259" lon="48.9312407"><time>2021-04-17T08:33:51.947</time></trkpt><trkpt lat="55.8380744" lon="48.9312235"><time>2021-04-17T08:33:54.960</time></trkpt><trkpt lat="55.8380224" lon="48.9311679"><time>2021-04-17T08:33:57.947</time></trkpt><trkpt lat="55.8379762" lon="48.9311161"><time>2021-04-17T08:34:00.960</time></trkpt><trkpt lat="55.8379251" lon="48.9310959"><time>2021-04-17T08:34:03.947</time></trkpt><trkpt lat="55.8378806" lon="48.9310771"><time>2021-04-17T08:34:05.943</time></trkpt><trkpt lat="55.8378263" lon="48.9310427"><time>2021-04-17T08:34:07.947</time></trkpt><trkpt lat="55.8377755" lon="48.9310156"><time>2021-04-17T08:34:09.953</time></trkpt><trkpt lat="55.8377230" lon="48.9309844"><time>2021-04-17T08:34:11.943</time></trkpt><trkpt lat="55.8376703" lon="48.9309457"><time>2021-04-17T08:34:13.947</time></trkpt><trkpt lat="55.8376249" lon="48.9309123"><time>2021-04-17T08:34:15.950</time></trkpt><trkpt lat="55.8375758" lon="48.9308582"><time>2021-04-17T08:34:18.960</time></trkpt><trkpt lat="55.8375305" lon="48.9308050"><time>2021-04-17T08:34:21.947</time></trkpt><trkpt lat="55.8374855" lon="48.9307919"><time>2021-04-17T08:34:24.960</time></trkpt><trkpt lat="55.8374385" lon="48.9307817"><time>2021-04-17T08:34:27.947</time></trkpt><trkpt lat="55.8373927" lon="48.9307389"><time>2021-04-17T08:34:30.943</time></trkpt><trkpt lat="55.8373383" lon="48.9306918"><time>2021-04-17T08:34:33.943</time></trkpt><trkpt lat="55.8372782" lon="48.9306677"><time>2021-04-17T08:34:36.957</time></trkpt><trkpt lat="55.8372081" lon="48.9306425"><time>2021-04-17T08:34:39.947</time></trkpt><trkpt lat="55.8371447" lon="48.9306088"><time>2021-04-17T08:34:41.943</time></trkpt><trkpt lat="55.8370852" lon="48.9305742"><time>2021-04-17T08:34:43.947</time></trkpt><trkpt lat="55.8370292" lon="48.9305387"><time>2021-04-17T08:34:45.943</time></trkpt><trkpt lat="55.8369843" lon="48.9305126"><time>2021-04-17T08:34:47.943</time></trkpt><trkpt lat="55.8369296" lon="48.9304669"><time>2021-04-17T08:34:50.953</time></trkpt><trkpt lat="55.8368842" lon="48.9303992"><time>2021-04-17T08:34:53.943</time></trkpt><trkpt lat="55.8368359" lon="48.9303263"><time>2021-04-17T08:34:56.947</time></trkpt><trkpt lat="55.8367866" lon="48.9302684"><time>2021-04-17T08:34:59.947</time></trkpt><trkpt lat="55.8367288" lon="48.9302443"><time>2021-04-17T08:35:02.947</time></trkpt><trkpt lat="55.8366748" lon="48.9302452"><time>2021-04-17T08:35:06.953</time></trkpt><trkpt lat="55.8366259" lon="48.9302267"><time>2021-04-17T08:35:10.923</time></trkpt><trkpt lat="55.8365751" lon="48.9302126"><time>2021-04-17T08:35:14.947</time></trkpt><trkpt lat="55.8365300" lon="48.9301860"><time>2021-04-17T08:35:18.943</time></trkpt><trkpt lat="55.8364784" lon="48.9301577"><time>2021-04-17T08:35:21.947</time></trkpt><trkpt lat="55.8364239" lon="48.9301280"><time>2021-04-17T08:35:24.947</time></trkpt><trkpt lat="55.8363742" lon="48.9300976"><time>2021-04-17T08:35:27.950</time></trkpt><trkpt lat="55.8363272" lon="48.9300672"><time>2021-04-17T08:35:30.957</time></trkpt><trkpt lat="55.8362799" lon="48.9300477"><time>2021-04-17T08:35:33.947</time></trkpt><trkpt lat="55.8362231" lon="48.9300112"><time>2021-04-17T08:35:37.957</time></trkpt><trkpt lat="55.8361755" lon="48.9299788"><time>2021-04-17T08:35:41.947</time></trkpt><trkpt lat="55.8361353" lon="48.9299371"><time>2021-04-17T08:35:44.943</time></trkpt><trkpt lat="55.8360916" lon="48.9299074"><time>2021-04-17T08:35:47.943</time></trkpt><trkpt lat="55.8360446" lon="48.9298853"><time>2021-04-17T08:35:50.943</time></trkpt><trkpt lat="55.8359982" lon="48.9298433"><time>2021-04-17T08:35:53.947</time></trkpt><trkpt lat="55.8359437" lon="48.9298129"><time>2021-04-17T08:35:56.947</time></trkpt><trkpt lat="55.8358840" lon="48.9297972"><time>2021-04-17T08:35:59.940</time></trkpt><trkpt lat="55.8358323" lon="48.9297794"><time>2021-04-17T08:36:02.957</time></trkpt><trkpt lat="55.8357883" lon="48.9297381"><time>2021-04-17T08:36:05.957</time></trkpt><trkpt lat="55.8357429" lon="48.9296760"><time>2021-04-17T08:36:09.943</time></trkpt><trkpt lat="55.8357029" lon="48.9296372"><time>2021-04-17T08:36:12.950</time></trkpt><trkpt lat="55.8356539" lon="48.9296087"><time>2021-04-17T08:36:16.953</time></trkpt><trkpt lat="55.8356031" lon="48.9295925"><time>2021-04-17T08:36:21.943</time></trkpt><trkpt lat="55.8355564" lon="48.9295503"><time>2021-04-17T08:36:27.950</time></trkpt><trkpt lat="55.8355088" lon="48.9295175"><time>2021-04-17T08:36:32.950</time></trkpt><trkpt lat="55.8354670" lon="48.9294863"><time>2021-04-17T08:36:36.930</time></trkpt><trkpt lat="55.8354170" lon="48.9294684"><time>2021-04-17T08:36:42.363</time></trkpt><trkpt lat="55.8353556" lon="48.9294671"><time>2021-04-17T08:36:45.937</time></trkpt><trkpt lat="55.8353017" lon="48.9294467"><time>2021-04-17T08:36:50.027</time></trkpt><trkpt lat="55.8352465" lon="48.9294298"><time>2021-04-17T08:36:53.920</time></trkpt><trkpt lat="55.8351883" lon="48.9294203"><time>2021-04-17T08:36:57.923</time></trkpt><trkpt lat="55.8351434" lon="48.9294091"><time>2021-04-17T08:37:00.927</time></trkpt><trkpt lat="55.8350896" lon="48.9293781"><time>2021-04-17T08:37:04.943</time></trkpt><trkpt lat="55.8350393" lon="48.9293334"><time>2021-04-17T08:37:08.943</time></trkpt><trkpt lat="55.8350124" lon="48.9292476"><time>2021-04-17T08:37:12.943</time></trkpt><trkpt lat="55.8349857" lon="48.9291798"><time>2021-04-17T08:37:16.947</time></trkpt><trkpt lat="55.8349644" lon="48.9291054"><time>2021-04-17T08:37:22.943</time></trkpt><trkpt lat="55.8349407" lon="48.9290350"><time>2021-04-17T08:37:28.943</time></trkpt><trkpt lat="55.8348961" lon="48.9290068"><time>2021-04-17T08:37:41.943</time></trkpt><trkpt lat="55.8348594" lon="48.9289579"><time>2021-04-17T08:37:50.943</time></trkpt><trkpt lat="55.8348326" lon="48.9288769"><time>2021-04-17T08:37:56.927</time></trkpt><trkpt lat="55.8348135" lon="48.9288038"><time>2021-04-17T08:37:58.930</time></trkpt><trkpt lat="55.8348087" lon="48.9287356"><time>2021-04-17T08:38:10.627</time></trkpt><trkpt lat="55.8348008" lon="48.9287131"><time>2021-04-17T08:38:28.940</time></trkpt><trkpt lat="55.8347424" lon="48.9287495"><time>2021-04-17T08:38:34.947</time></trkpt><trkpt lat="55.8346932" lon="48.9287960"><time>2021-04-17T08:38:38.950</time></trkpt><trkpt lat="55.8346502" lon="48.9288538"><time>2021-04-17T08:38:42.947</time></trkpt><trkpt lat="55.8346063" lon="48.9288968"><time>2021-04-17T08:38:45.943</time></trkpt><trkpt lat="55.8345579" lon="48.9289030"><time>2021-04-17T08:38:48.947</time></trkpt><trkpt lat="55.8345390" lon="48.9288222"><time>2021-04-17T08:39:48.967</time></trkpt><trkpt lat="55.8345077" lon="48.9287550"><time>2021-04-17T08:39:51.953</time></trkpt><trkpt lat="55.8344844" lon="48.9286731"><time>2021-04-17T08:39:54.963</time></trkpt><trkpt lat="55.8344734" lon="48.9285851"><time>2021-04-17T08:39:58.943</time></trkpt><trkpt lat="55.8344669" lon="48.9284897"><time>2021-04-17T08:40:02.950</time></trkpt><trkpt lat="55.8344485" lon="48.9284008"><time>2021-04-17T08:40:05.950</time></trkpt><trkpt lat="55.8344404" lon="48.9283126"><time>2021-04-17T08:40:08.943</time></trkpt><trkpt lat="55.8344271" lon="48.9282247"><time>2021-04-17T08:40:11.943</time></trkpt><trkpt lat="55.8343776" lon="48.9281756"><time>2021-04-17T08:40:15.947</time></trkpt><trkpt lat="55.8343142" lon="48.9281606"><time>2021-04-17T08:40:19.947</time></trkpt><trkpt lat="55.8342616" lon="48.9281309"><time>2021-04-17T08:40:22.947</time></trkpt><trkpt lat="55.8342273" lon="48.9280606"><time>2021-04-17T08:40:25.947</time></trkpt><trkpt lat="55.8342088" lon="48.9279842"><time>2021-04-17T08:40:28.947</time></trkpt><trkpt lat="55.8341690" lon="48.9279092"><time>2021-04-17T08:40:32.950</time></trkpt><trkpt lat="55.8341316" lon="48.9278537"><time>2021-04-17T08:40:35.950</time></trkpt><trkpt lat="55.8340963" lon="48.9277953"><time>2021-04-17T08:40:38.947</time></trkpt><trkpt lat="55.8340525" lon="48.9277301"><time>2021-04-17T08:40:42.947</time></trkpt><trkpt lat="55.8340176" lon="48.9276795"><time>2021-04-17T08:40:45.950</time></trkpt><trkpt lat="55.8339836" lon="48.9276171"><time>2021-04-17T08:40:48.947</time></trkpt><trkpt lat="55.8339508" lon="48.9275510"><time>2021-04-17T08:40:51.947</time></trkpt><trkpt lat="55.8339111" lon="48.9274867"><time>2021-04-17T08:40:54.947</time></trkpt><trkpt lat="55.8338608" lon="48.9274289"><time>2021-04-17T08:40:57.947</time></trkpt><trkpt lat="55.8338064" lon="48.9274168"><time>2021-04-17T08:41:00.947</time></trkpt><trkpt lat="55.8337658" lon="48.9274664"><time>2021-04-17T08:41:03.950</time></trkpt><trkpt lat="55.8337117" lon="48.9274222"><time>2021-04-17T08:41:11.947</time></trkpt><trkpt lat="55.8336740" lon="48.9273631"><time>2021-04-17T08:41:14.930</time></trkpt><trkpt lat="55.8336207" lon="48.9273296"><time>2021-04-17T08:41:17.940</time></trkpt><trkpt lat="55.8335728" lon="48.9273151"><time>2021-04-17T08:41:20.933</time></trkpt><trkpt lat="55.8335300" lon="48.9272767"><time>2021-04-17T08:41:24.007</time></trkpt><trkpt lat="55.8334934" lon="48.9272130"><time>2021-04-17T08:41:26.947</time></trkpt><trkpt lat="55.8334658" lon="48.9271453"><time>2021-04-17T08:41:29.937</time></trkpt><trkpt lat="55.8334493" lon="48.9270599"><time>2021-04-17T08:41:33.953</time></trkpt><trkpt lat="55.8334363" lon="48.9269640"><time>2021-04-17T08:41:37.950</time></trkpt><trkpt lat="55.8334171" lon="48.9268760"><time>2021-04-17T08:41:40.950</time></trkpt><trkpt lat="55.8333949" lon="48.9268027"><time>2021-04-17T08:41:43.947</time></trkpt><trkpt lat="55.8333833" lon="48.9267132"><time>2021-04-17T08:41:47.953</time></trkpt><trkpt lat="55.8333701" lon="48.9266281"><time>2021-04-17T08:41:51.950</time></trkpt><trkpt lat="55.8333592" lon="48.9265498"><time>2021-04-17T08:41:54.947</time></trkpt><trkpt lat="55.8333445" lon="48.9264612"><time>2021-04-17T08:41:57.947</time></trkpt><trkpt lat="55.8333316" lon="48.9263778"><time>2021-04-17T08:42:00.957</time></trkpt><trkpt lat="55.8333176" lon="48.9262885"><time>2021-04-17T08:42:03.973</time></trkpt><trkpt lat="55.8332985" lon="48.9262037"><time>2021-04-17T08:42:06.947</time></trkpt><trkpt lat="55.8332703" lon="48.9261277"><time>2021-04-17T08:42:10.950</time></trkpt><trkpt lat="55.8332199" lon="48.9261043"><time>2021-04-17T08:42:14.953</time></trkpt><trkpt lat="55.8331753" lon="48.9260876"><time>2021-04-17T08:42:17.947</time></trkpt><trkpt lat="55.8331228" lon="48.9260540"><time>2021-04-17T08:42:21.967</time></trkpt><trkpt lat="55.8330703" lon="48.9260111"><time>2021-04-17T08:42:25.947</time></trkpt><trkpt lat="55.8330112" lon="48.9259913"><time>2021-04-17T08:42:29.947</time></trkpt><trkpt lat="55.8329504" lon="48.9259956"><time>2021-04-17T08:42:32.963</time></trkpt><trkpt lat="55.8329041" lon="48.9259772"><time>2021-04-17T08:42:35.950</time></trkpt><trkpt lat="55.8328574" lon="48.9259669"><time>2021-04-17T08:42:39.950</time></trkpt><trkpt lat="55.8328130" lon="48.9259347"><time>2021-04-17T08:42:44.947</time></trkpt><trkpt lat="55.8327845" lon="48.9260025"><time>2021-04-17T08:43:13.970</time></trkpt><trkpt lat="55.8327713" lon="48.9260941"><time>2021-04-17T08:43:16.950</time></trkpt><trkpt lat="55.8327279" lon="48.9261602"><time>2021-04-17T08:43:19.973</time></trkpt><trkpt lat="55.8326918" lon="48.9262094"><time>2021-04-17T08:43:22.950</time></trkpt><trkpt lat="55.8326437" lon="48.9262406"><time>2021-04-17T08:43:25.980</time></trkpt><trkpt lat="55.8326022" lon="48.9262808"><time>2021-04-17T08:43:28.947</time></trkpt><trkpt lat="55.8325562" lon="48.9263414"><time>2021-04-17T08:43:32.950</time></trkpt><trkpt lat="55.8325074" lon="48.9263994"><time>2021-04-17T08:43:36.957</time></trkpt><trkpt lat="55.8324759" lon="48.9264873"><time>2021-04-17T08:43:40.947</time></trkpt><trkpt lat="55.8324365" lon="48.9265601"><time>2021-04-17T08:43:44.950</time></trkpt><trkpt lat="55.8323981" lon="48.9266245"><time>2021-04-17T08:43:48.953</time></trkpt><trkpt lat="55.8323488" lon="48.9266705"><time>2021-04-17T08:43:51.947</time></trkpt><trkpt lat="55.8322963" lon="48.9267108"><time>2021-04-17T08:43:54.970</time></trkpt><trkpt lat="55.8322548" lon="48.9267669"><time>2021-04-17T08:43:57.950</time></trkpt><trkpt lat="55.8322173" lon="48.9268217"><time>2021-04-17T08:44:00.947</time></trkpt><trkpt lat="55.8321887" lon="48.9268909"><time>2021-04-17T08:44:03.953</time></trkpt><trkpt lat="55.8321490" lon="48.9269521"><time>2021-04-17T08:44:06.953</time></trkpt><trkpt lat="55.8321090" lon="48.9270021"><time>2021-04-17T08:44:09.950</time></trkpt><trkpt lat="55.8320678" lon="48.9270376"><time>2021-04-17T08:44:12.953</time></trkpt><trkpt lat="55.8320284" lon="48.9270859"><time>2021-04-17T08:44:16.947</time></trkpt><trkpt lat="55.8319735" lon="48.9271258"><time>2021-04-17T08:44:20.947</time></trkpt><trkpt lat="55.8319274" lon="48.9271086"><time>2021-04-17T08:44:23.980</time></trkpt><trkpt lat="55.8318733" lon="48.9271132"><time>2021-04-17T08:44:27.950</time></trkpt><trkpt lat="55.8318273" lon="48.9271360"><time>2021-04-17T08:44:30.960</time></trkpt><trkpt lat="55.8317778" lon="48.9271624"><time>2021-04-17T08:44:34.947</time></trkpt><trkpt lat="55.8317271" lon="48.9271747"><time>2021-04-17T08:44:38.947</time></trkpt><trkpt lat="55.8316775" lon="48.9271488"><time>2021-04-17T08:44:42.947</time></trkpt><trkpt lat="55.8316238" lon="48.9271003"><time>2021-04-17T08:44:45.950</time></trkpt><trkpt lat="55.8315758" lon="48.9270713"><time>2021-04-17T08:44:48.947</time></trkpt><trkpt lat="55.8315302" lon="48.9270331"><time>2021-04-17T08:44:52.947</time></trkpt><trkpt lat="55.8315032" lon="48.9269590"><time>2021-04-17T08:44:56.950</time></trkpt><trkpt lat="55.8314480" lon="48.9269420"><time>2021-04-17T08:45:01.950</time></trkpt><trkpt lat="55.8314053" lon="48.9269081"><time>2021-04-17T08:45:04.947</time></trkpt><trkpt lat="55.8313649" lon="48.9268713"><time>2021-04-17T08:45:07.957</time></trkpt><trkpt lat="55.8313148" lon="48.9268500"><time>2021-04-17T08:45:10.947</time></trkpt><trkpt lat="55.8312605" lon="48.9268263"><time>2021-04-17T08:45:13.947</time></trkpt><trkpt lat="55.8312092" lon="48.9268038"><time>2021-04-17T08:45:16.947</time></trkpt><trkpt lat="55.8311473" lon="48.9267737"><time>2021-04-17T08:45:19.950</time></trkpt><trkpt lat="55.8310907" lon="48.9267429"><time>2021-04-17T08:45:22.947</time></trkpt><trkpt lat="55.8310407" lon="48.9267122"><time>2021-04-17T08:45:25.953</time></trkpt><trkpt lat="55.8309890" lon="48.9266866"><time>2021-04-17T08:45:28.947</time></trkpt><trkpt lat="55.8309406" lon="48.9266527"><time>2021-04-17T08:45:31.947</time></trkpt><trkpt lat="55.8308854" lon="48.9266247"><time>2021-04-17T08:45:36.950</time></trkpt><trkpt lat="55.8308363" lon="48.9266273"><time>2021-04-17T08:45:39.970</time></trkpt><trkpt lat="55.8307853" lon="48.9266417"><time>2021-04-17T08:45:42.950</time></trkpt><trkpt lat="55.8307409" lon="48.9266120"><time>2021-04-17T08:45:45.967</time></trkpt><trkpt lat="55.8307086" lon="48.9265558"><time>2021-04-17T08:45:48.943</time></trkpt><trkpt lat="55.8306640" lon="48.9265072"><time>2021-04-17T08:45:51.967</time></trkpt><trkpt lat="55.8306211" lon="48.9264601"><time>2021-04-17T08:45:56.950</time></trkpt><trkpt lat="55.8305680" lon="48.9264158"><time>2021-04-17T08:46:01.940</time></trkpt><trkpt lat="55.8305190" lon="48.9263729"><time>2021-04-17T08:46:06.947</time></trkpt><trkpt lat="55.8304814" lon="48.9263208"><time>2021-04-17T08:46:10.950</time></trkpt><trkpt lat="55.8304315" lon="48.9263064"><time>2021-04-17T08:46:16.957</time></trkpt><trkpt lat="55.8303828" lon="48.9263109"><time>2021-04-17T08:46:21.983</time></trkpt><trkpt lat="55.8303675" lon="48.9262283"><time>2021-04-17T08:46:27.947</time></trkpt><trkpt lat="55.8304025" lon="48.9261759"><time>2021-04-17T08:46:30.930</time></trkpt><trkpt lat="55.8304500" lon="48.9261295"><time>2021-04-17T08:46:34.950</time></trkpt><trkpt lat="55.8304867" lon="48.9260426"><time>2021-04-17T08:46:37.950</time></trkpt><trkpt lat="55.8305311" lon="48.9259691"><time>2021-04-17T08:46:40.947</time></trkpt><trkpt lat="55.8305597" lon="48.9258895"><time>2021-04-17T08:46:43.947</time></trkpt><trkpt lat="55.8305781" lon="48.9258111"><time>2021-04-17T08:46:46.947</time></trkpt><trkpt lat="55.8305970" lon="48.9257278"><time>2021-04-17T08:46:49.947</time></trkpt><trkpt lat="55.8306134" lon="48.9256509"><time>2021-04-17T08:46:52.947</time></trkpt><trkpt lat="55.8306249" lon="48.9255644"><time>2021-04-17T08:46:55.930</time></trkpt><trkpt lat="55.8306348" lon="48.9254857"><time>2021-04-17T08:46:58.950</time></trkpt><trkpt lat="55.8306284" lon="48.9253672"><time>2021-04-17T08:47:04.093</time></trkpt><trkpt lat="55.8306075" lon="48.9252740"><time>2021-04-17T08:47:07.957</time></trkpt><trkpt lat="55.8305729" lon="48.9251857"><time>2021-04-17T08:47:10.927</time></trkpt><trkpt lat="55.8305577" lon="48.9251029"><time>2021-04-17T08:47:15.957</time></trkpt><trkpt lat="55.8305549" lon="48.9250134"><time>2021-04-17T08:47:19.927</time></trkpt><trkpt lat="55.8305479" lon="48.9249208"><time>2021-04-17T08:47:23.930</time></trkpt><trkpt lat="55.8305546" lon="48.9248396"><time>2021-04-17T08:47:26.930</time></trkpt><trkpt lat="55.8305554" lon="48.9247540"><time>2021-04-17T08:47:30.043</time></trkpt><trkpt lat="55.8305485" lon="48.9246628"><time>2021-04-17T08:47:32.953</time></trkpt><trkpt lat="55.8305320" lon="48.9245652"><time>2021-04-17T08:47:36.937</time></trkpt><trkpt lat="55.8305145" lon="48.9244902"><time>2021-04-17T08:47:39.943</time></trkpt><trkpt lat="55.8304993" lon="48.9244068"><time>2021-04-17T08:47:42.933</time></trkpt><trkpt lat="55.8304843" lon="48.9243116"><time>2021-04-17T08:47:46.933</time></trkpt><trkpt lat="55.8304736" lon="48.9242052"><time>2021-04-17T08:47:50.933</time></trkpt><trkpt lat="55.8304556" lon="48.9241191"><time>2021-04-17T08:47:53.943</time></trkpt><trkpt lat="55.8304284" lon="48.9240196"><time>2021-04-17T08:47:56.950</time></trkpt><trkpt lat="55.8304022" lon="48.9239360"><time>2021-04-17T08:47:59.950</time></trkpt><trkpt lat="55.8303952" lon="48.9238511"><time>2021-04-17T08:48:02.930</time></trkpt><trkpt lat="55.8304074" lon="48.9237451"><time>2021-04-17T08:48:05.937</time></trkpt><trkpt lat="55.8304052" lon="48.9236600"><time>2021-04-17T08:48:08.937</time></trkpt><trkpt lat="55.8303975" lon="48.9235722"><time>2021-04-17T08:48:12.947</time></trkpt><trkpt lat="55.8304143" lon="48.9234828"><time>2021-04-17T08:48:16.923</time></trkpt><trkpt lat="55.8304494" lon="48.9234268"><time>2021-04-17T08:48:20.950</time></trkpt><trkpt lat="55.8304837" lon="48.9233568"><time>2021-04-17T08:48:26.947</time></trkpt><trkpt lat="55.8304915" lon="48.9233141"><time>2021-04-17T08:48:30.007</time></trkpt><trkpt lat="55.8304910" lon="48.9234407"><time>2021-04-17T08:48:45.950</time></trkpt><trkpt lat="55.8304467" lon="48.9234182"><time>2021-04-17T08:49:09.947</time></trkpt><trkpt lat="55.8304405" lon="48.9234981"><time>2021-04-17T08:49:28.927</time></trkpt><trkpt lat="55.8304447" lon="48.9235923"><time>2021-04-17T08:49:32.937</time></trkpt><trkpt lat="55.8304357" lon="48.9236955"><time>2021-04-17T08:49:37.950</time></trkpt><trkpt lat="55.8304367" lon="48.9237756"><time>2021-04-17T08:49:41.950</time></trkpt><trkpt lat="55.8304332" lon="48.9238676"><time>2021-04-17T08:49:45.973</time></trkpt><trkpt lat="55.8304420" lon="48.9239716"><time>2021-04-17T08:49:48.947</time></trkpt><trkpt lat="55.8304728" lon="48.9240581"><time>2021-04-17T08:49:51.967</time></trkpt><trkpt lat="55.8304971" lon="48.9241275"><time>2021-04-17T08:49:55.950</time></trkpt><trkpt lat="55.8304876" lon="48.9242097"><time>2021-04-17T08:49:59.940</time></trkpt><trkpt lat="55.8305013" lon="48.9242918"><time>2021-04-17T08:50:01.950</time></trkpt><trkpt lat="55.8305074" lon="48.9243721"><time>2021-04-17T08:50:03.937</time></trkpt><trkpt lat="55.8305192" lon="48.9244856"><time>2021-04-17T08:50:06.937</time></trkpt><trkpt lat="55.8305403" lon="48.9245648"><time>2021-04-17T08:50:09.917</time></trkpt><trkpt lat="55.8305627" lon="48.9246411"><time>2021-04-17T08:50:11.930</time></trkpt><trkpt lat="55.8305623" lon="48.9247224"><time>2021-04-17T08:50:13.950</time></trkpt><trkpt lat="55.8305689" lon="48.9248331"><time>2021-04-17T08:50:16.950</time></trkpt><trkpt lat="55.8305903" lon="48.9249407"><time>2021-04-17T08:50:19.947</time></trkpt><trkpt lat="55.8306104" lon="48.9250422"><time>2021-04-17T08:50:22.930</time></trkpt><trkpt lat="55.8306378" lon="48.9251346"><time>2021-04-17T08:50:28.943</time></trkpt><trkpt lat="55.8306420" lon="48.9252154"><time>2021-04-17T08:50:30.937</time></trkpt><trkpt lat="55.8306414" lon="48.9253052"><time>2021-04-17T08:50:33.953</time></trkpt><trkpt lat="55.8306322" lon="48.9253973"><time>2021-04-17T08:50:36.950</time></trkpt><trkpt lat="55.8306160" lon="48.9254886"><time>2021-04-17T08:50:39.947</time></trkpt><trkpt lat="55.8306033" lon="48.9255983"><time>2021-04-17T08:50:43.960</time></trkpt><trkpt lat="55.8305751" lon="48.9256742"><time>2021-04-17T08:50:46.950</time></trkpt><trkpt lat="55.8305523" lon="48.9257678"><time>2021-04-17T08:50:50.957</time></trkpt><trkpt lat="55.8305313" lon="48.9258620"><time>2021-04-17T08:50:53.953</time></trkpt><trkpt lat="55.8305202" lon="48.9259537"><time>2021-04-17T08:50:56.953</time></trkpt><trkpt lat="55.8304991" lon="48.9260416"><time>2021-04-17T08:50:59.947</time></trkpt><trkpt lat="55.8304772" lon="48.9261230"><time>2021-04-17T08:51:02.933</time></trkpt><trkpt lat="55.8304500" lon="48.9261912"><time>2021-04-17T08:51:05.957</time></trkpt><trkpt lat="55.8304245" lon="48.9262603"><time>2021-04-17T08:51:08.937</time></trkpt><trkpt lat="55.8304011" lon="48.9263475"><time>2021-04-17T08:51:12.953</time></trkpt><trkpt lat="55.8303908" lon="48.9264482"><time>2021-04-17T08:51:16.943</time></trkpt><trkpt lat="55.8303963" lon="48.9265423"><time>2021-04-17T08:51:19.933</time></trkpt><trkpt lat="55.8303864" lon="48.9266400"><time>2021-04-17T08:51:22.950</time></trkpt><trkpt lat="55.8303714" lon="48.9267253"><time>2021-04-17T08:51:26.947</time></trkpt><trkpt lat="55.8303560" lon="48.9268180"><time>2021-04-17T08:51:30.910</time></trkpt><trkpt lat="55.8303052" lon="48.9267831"><time>2021-04-17T08:51:44.967</time></trkpt><trkpt lat="55.8302932" lon="48.9268938"><time>2021-04-17T08:51:56.337</time></trkpt><trkpt lat="55.8303101" lon="48.9269907"><time>2021-04-17T08:51:57.940</time></trkpt><trkpt lat="55.8303078" lon="48.9270895"><time>2021-04-17T08:52:00.947</time></trkpt><trkpt lat="55.8303027" lon="48.9271695"><time>2021-04-17T08:52:02.953</time></trkpt><trkpt lat="55.8302934" lon="48.9272724"><time>2021-04-17T08:52:05.940</time></trkpt><trkpt lat="55.8302652" lon="48.9273717"><time>2021-04-17T08:52:10.923</time></trkpt><trkpt lat="55.8302571" lon="48.9275109"><time>2021-04-17T08:52:15.933</time></trkpt><trkpt lat="55.8302239" lon="48.9275749"><time>2021-04-17T08:52:17.937</time></trkpt><trkpt lat="55.8302246" lon="48.9276580"><time>2021-04-17T08:52:21.930</time></trkpt><trkpt lat="55.8302159" lon="48.9277524"><time>2021-04-17T08:52:25.950</time></trkpt><trkpt lat="55.8302321" lon="48.9278288"><time>2021-04-17T08:52:28.947</time></trkpt><trkpt lat="55.8302360" lon="48.9279425"><time>2021-04-17T08:52:33.927</time></trkpt><trkpt lat="55.8302008" lon="48.9280113"><time>2021-04-17T08:52:36.927</time></trkpt><trkpt lat="55.8301569" lon="48.9280668"><time>2021-04-17T08:52:39.930</time></trkpt><trkpt lat="55.8301238" lon="48.9281230"><time>2021-04-17T08:52:42.950</time></trkpt><trkpt lat="55.8300699" lon="48.9281589"><time>2021-04-17T08:52:45.947</time></trkpt><trkpt lat="55.8300328" lon="48.9282084"><time>2021-04-17T08:52:48.947</time></trkpt><trkpt lat="55.8300085" lon="48.9282910"><time>2021-04-17T08:52:51.967</time></trkpt><trkpt lat="55.8299928" lon="48.9283722"><time>2021-04-17T08:52:54.957</time></trkpt><trkpt lat="55.8299728" lon="48.9284606"><time>2021-04-17T08:52:57.947</time></trkpt><trkpt lat="55.8299637" lon="48.9285569"><time>2021-04-17T08:53:00.947</time></trkpt><trkpt lat="55.8299521" lon="48.9286448"><time>2021-04-17T08:53:03.957</time></trkpt><trkpt lat="55.8299335" lon="48.9287388"><time>2021-04-17T08:53:07.950</time></trkpt><trkpt lat="55.8299220" lon="48.9288583"><time>2021-04-17T08:53:10.957</time></trkpt><trkpt lat="55.8299117" lon="48.9289392"><time>2021-04-17T08:53:12.960</time></trkpt><trkpt lat="55.8299019" lon="48.9290290"><time>2021-04-17T08:53:15.983</time></trkpt><trkpt lat="55.8298869" lon="48.9291219"><time>2021-04-17T08:53:18.950</time></trkpt><trkpt lat="55.8298622" lon="48.9292070"><time>2021-04-17T08:53:22.957</time></trkpt><trkpt lat="55.8298655" lon="48.9292953"><time>2021-04-17T08:53:26.933</time></trkpt><trkpt lat="55.8298621" lon="48.9293821"><time>2021-04-17T08:53:44.937</time></trkpt><trkpt lat="55.8298440" lon="48.9294780"><time>2021-04-17T08:53:49.933</time></trkpt><trkpt lat="55.8298684" lon="48.9295761"><time>2021-04-17T08:53:52.953</time></trkpt><trkpt lat="55.8298742" lon="48.9296707"><time>2021-04-17T08:53:55.950</time></trkpt><trkpt lat="55.8298558" lon="48.9297616"><time>2021-04-17T08:53:58.947</time></trkpt><trkpt lat="55.8298784" lon="48.9296770"><time>2021-04-17T08:54:36.943</time></trkpt><trkpt lat="55.8298690" lon="48.9295964"><time>2021-04-17T08:54:39.937</time></trkpt><trkpt lat="55.8298565" lon="48.9295178"><time>2021-04-17T08:54:43.930</time></trkpt><trkpt lat="55.8298498" lon="48.9294327"><time>2021-04-17T08:54:49.937</time></trkpt><trkpt lat="55.8298613" lon="48.9293444"><time>2021-04-17T08:54:54.930</time></trkpt><trkpt lat="55.8298381" lon="48.9292474"><time>2021-04-17T08:54:59.953</time></trkpt><trkpt lat="55.8298153" lon="48.9291761"><time>2021-04-17T08:55:09.947</time></trkpt><trkpt lat="55.8297734" lon="48.9291201"><time>2021-04-17T08:55:14.933</time></trkpt><trkpt lat="55.8297548" lon="48.9290198"><time>2021-04-17T08:55:21.923</time></trkpt><trkpt lat="55.8297159" lon="48.9289500"><time>2021-04-17T08:55:24.943</time></trkpt><trkpt lat="55.8296755" lon="48.9288991"><time>2021-04-17T08:55:27.957</time></trkpt><trkpt lat="55.8296317" lon="48.9288543"><time>2021-04-17T08:55:30.950</time></trkpt><trkpt lat="55.8295939" lon="48.9287832"><time>2021-04-17T08:55:34.947</time></trkpt><trkpt lat="55.8295511" lon="48.9287256"><time>2021-04-17T08:55:38.943</time></trkpt><trkpt lat="55.8295082" lon="48.9286656"><time>2021-04-17T08:55:44.930</time></trkpt><trkpt lat="55.8294556" lon="48.9286209"><time>2021-04-17T08:55:48.950</time></trkpt><trkpt lat="55.8294189" lon="48.9286824"><time>2021-04-17T08:55:52.943</time></trkpt><trkpt lat="55.8293845" lon="48.9286742"><time>2021-04-17T08:55:59.277</time></trkpt><trkpt lat="55.8294200" lon="48.9286003"><time>2021-04-17T08:56:39.947</time></trkpt><trkpt lat="55.8294712" lon="48.9285665"><time>2021-04-17T08:56:44.930</time></trkpt><trkpt lat="55.8295101" lon="48.9286163"><time>2021-04-17T08:56:48.917</time></trkpt><trkpt lat="55.8295518" lon="48.9286811"><time>2021-04-17T08:56:52.960</time></trkpt><trkpt lat="55.8295992" lon="48.9287417"><time>2021-04-17T08:56:55.943</time></trkpt><trkpt lat="55.8296481" lon="48.9288196"><time>2021-04-17T08:56:58.937</time></trkpt><trkpt lat="55.8296814" lon="48.9288737"><time>2021-04-17T08:57:00.957</time></trkpt><trkpt lat="55.8297246" lon="48.9289142"><time>2021-04-17T08:57:03.947</time></trkpt><trkpt lat="55.8297773" lon="48.9289272"><time>2021-04-17T08:57:08.963</time></trkpt><trkpt lat="55.8298196" lon="48.9290014"><time>2021-04-17T08:57:14.937</time></trkpt><trkpt lat="55.8298493" lon="48.9290616"><time>2021-04-17T08:57:17.947</time></trkpt><trkpt lat="55.8298795" lon="48.9291212"><time>2021-04-17T08:57:19.947</time></trkpt><trkpt lat="55.8299061" lon="48.9292288"><time>2021-04-17T08:57:22.957</time></trkpt><trkpt lat="55.8299299" lon="48.9293499"><time>2021-04-17T08:57:25.947</time></trkpt><trkpt lat="55.8299714" lon="48.9294005"><time>2021-04-17T08:57:28.957</time></trkpt><trkpt lat="55.8299921" lon="48.9294764"><time>2021-04-17T08:57:31.947</time></trkpt><trkpt lat="55.8300262" lon="48.9295650"><time>2021-04-17T08:57:35.950</time></trkpt><trkpt lat="55.8300685" lon="48.9296473"><time>2021-04-17T08:57:38.967</time></trkpt><trkpt lat="55.8301061" lon="48.9297100"><time>2021-04-17T08:57:40.933</time></trkpt><trkpt lat="55.8301401" lon="48.9297745"><time>2021-04-17T08:57:42.957</time></trkpt><trkpt lat="55.8301801" lon="48.9298650"><time>2021-04-17T08:57:45.930</time></trkpt><trkpt lat="55.8302188" lon="48.9299378"><time>2021-04-17T08:57:48.953</time></trkpt><trkpt lat="55.8302419" lon="48.9300097"><time>2021-04-17T08:57:52.947</time></trkpt><trkpt lat="55.8302731" lon="48.9300765"><time>2021-04-17T08:57:56.983</time></trkpt><trkpt lat="55.8303097" lon="48.9301397"><time>2021-04-17T08:58:00.950</time></trkpt><trkpt lat="55.8303517" lon="48.9301934"><time>2021-04-17T08:58:04.957</time></trkpt><trkpt lat="55.8303702" lon="48.9302695"><time>2021-04-17T08:58:06.950</time></trkpt><trkpt lat="55.8304069" lon="48.9303479"><time>2021-04-17T08:58:09.953</time></trkpt><trkpt lat="55.8304350" lon="48.9304157"><time>2021-04-17T08:58:12.950</time></trkpt><trkpt lat="55.8304662" lon="48.9305027"><time>2021-04-17T08:58:15.957</time></trkpt><trkpt lat="55.8304913" lon="48.9305718"><time>2021-04-17T08:58:18.950</time></trkpt><trkpt lat="55.8305051" lon="48.9306488"><time>2021-04-17T08:58:21.953</time></trkpt><trkpt lat="55.8305268" lon="48.9307661"><time>2021-04-17T08:58:24.947</time></trkpt><trkpt lat="55.8305358" lon="48.9308462"><time>2021-04-17T08:58:28.940</time></trkpt><trkpt lat="55.8305378" lon="48.9309361"><time>2021-04-17T08:58:32.960</time></trkpt><trkpt lat="55.8305304" lon="48.9310173"><time>2021-04-17T08:58:37.933</time></trkpt><trkpt lat="55.8305151" lon="48.9311153"><time>2021-04-17T08:58:41.947</time></trkpt><trkpt lat="55.8305250" lon="48.9312196"><time>2021-04-17T08:58:44.937</time></trkpt><trkpt lat="55.8305302" lon="48.9313128"><time>2021-04-17T08:58:50.930</time></trkpt><trkpt lat="55.8305335" lon="48.9314023"><time>2021-04-17T08:58:54.947</time></trkpt><trkpt lat="55.8305266" lon="48.9315142"><time>2021-04-17T08:58:57.953</time></trkpt><trkpt lat="55.8305242" lon="48.9316182"><time>2021-04-17T08:58:59.927</time></trkpt><trkpt lat="55.8305128" lon="48.9317186"><time>2021-04-17T08:59:02.950</time></trkpt><trkpt lat="55.8304930" lon="48.9318001"><time>2021-04-17T08:59:05.943</time></trkpt><trkpt lat="55.8304660" lon="48.9318678"><time>2021-04-17T08:59:08.943</time></trkpt><trkpt lat="55.8304494" lon="48.9319542"><time>2021-04-17T08:59:12.947</time></trkpt><trkpt lat="55.8304775" lon="48.9320179"><time>2021-04-17T08:59:15.940</time></trkpt><trkpt lat="55.8305089" lon="48.9320910"><time>2021-04-17T08:59:18.947</time></trkpt><trkpt lat="55.8305526" lon="48.9321205"><time>2021-04-17T08:59:22.950</time></trkpt><trkpt lat="55.8305928" lon="48.9321632"><time>2021-04-17T08:59:25.953</time></trkpt><trkpt lat="55.8306346" lon="48.9322125"><time>2021-04-17T08:59:30.930</time></trkpt><trkpt lat="55.8306945" lon="48.9322153"><time>2021-04-17T08:59:34.953</time></trkpt><trkpt lat="55.8307263" lon="48.9322841"><time>2021-04-17T08:59:42.950</time></trkpt><trkpt lat="55.8307191" lon="48.9323721"><time>2021-04-17T08:59:46.940</time></trkpt><trkpt lat="55.8307381" lon="48.9324497"><time>2021-04-17T08:59:50.933</time></trkpt><trkpt lat="55.8307863" lon="48.9324555"><time>2021-04-17T08:59:56.950</time></trkpt><trkpt lat="55.8308245" lon="48.9324930"><time>2021-04-17T09:00:03.377</time></trkpt><trkpt lat="55.8308275" lon="48.9324926"><time>2021-04-17T09:00:03.930</time></trkpt><trkpt lat="55.8308581" lon="48.9325702"><time>2021-04-17T09:00:33.933</time></trkpt><trkpt lat="55.8309042" lon="48.9326013"><time>2021-04-17T09:00:38.930</time></trkpt><trkpt lat="55.8309068" lon="48.9326878"><time>2021-04-17T09:00:56.953</time></trkpt><trkpt lat="55.8309425" lon="48.9327599"><time>2021-04-17T09:01:00.950</time></trkpt><trkpt lat="55.8309982" lon="48.9327994"><time>2021-04-17T09:01:04.960</time></trkpt><trkpt lat="55.8310228" lon="48.9328774"><time>2021-04-17T09:01:07.960</time></trkpt><trkpt lat="55.8310326" lon="48.9329716"><time>2021-04-17T09:01:10.957</time></trkpt><trkpt lat="55.8310625" lon="48.9330333"><time>2021-04-17T09:01:13.953</time></trkpt><trkpt lat="55.8310889" lon="48.9331048"><time>2021-04-17T09:01:18.933</time></trkpt><trkpt lat="55.8310804" lon="48.9331991"><time>2021-04-17T09:01:21.960</time></trkpt><trkpt lat="55.8310626" lon="48.9332948"><time>2021-04-17T09:01:25.937</time></trkpt><trkpt lat="55.8310442" lon="48.9334173"><time>2021-04-17T09:01:29.947</time></trkpt><trkpt lat="55.8310375" lon="48.9335257"><time>2021-04-17T09:01:31.943</time></trkpt><trkpt lat="55.8310313" lon="48.9336215"><time>2021-04-17T09:01:34.930</time></trkpt><trkpt lat="55.8310166" lon="48.9337126"><time>2021-04-17T09:01:37.947</time></trkpt><trkpt lat="55.8310018" lon="48.9337887"><time>2021-04-17T09:01:39.937</time></trkpt><trkpt lat="55.8309868" lon="48.9339013"><time>2021-04-17T09:01:42.957</time></trkpt><trkpt lat="55.8309746" lon="48.9339792"><time>2021-04-17T09:01:44.947</time></trkpt><trkpt lat="55.8309641" lon="48.9340615"><time>2021-04-17T09:01:46.947</time></trkpt><trkpt lat="55.8309514" lon="48.9341453"><time>2021-04-17T09:01:48.953</time></trkpt><trkpt lat="55.8309415" lon="48.9342271"><time>2021-04-17T09:01:50.953</time></trkpt><trkpt lat="55.8309233" lon="48.9343327"><time>2021-04-17T09:01:52.957</time></trkpt><trkpt lat="55.8309062" lon="48.9344359"><time>2021-04-17T09:01:55.973</time></trkpt><trkpt lat="55.8308933" lon="48.9345396"><time>2021-04-17T09:01:58.953</time></trkpt><trkpt lat="55.8308726" lon="48.9346352"><time>2021-04-17T09:02:01.953</time></trkpt><trkpt lat="55.8308622" lon="48.9347139"><time>2021-04-17T09:02:03.957</time></trkpt><trkpt lat="55.8308462" lon="48.9347936"><time>2021-04-17T09:02:05.953</time></trkpt><trkpt lat="55.8308255" lon="48.9349072"><time>2021-04-17T09:02:08.953</time></trkpt><trkpt lat="55.8308086" lon="48.9349880"><time>2021-04-17T09:02:10.953</time></trkpt><trkpt lat="55.8308000" lon="48.9350706"><time>2021-04-17T09:02:12.947</time></trkpt><trkpt lat="55.8307867" lon="48.9351683"><time>2021-04-17T09:02:15.940</time></trkpt><trkpt lat="55.8307656" lon="48.9352629"><time>2021-04-17T09:02:20.970</time></trkpt><trkpt lat="55.8307425" lon="48.9353532"><time>2021-04-17T09:02:24.927</time></trkpt><trkpt lat="55.8307264" lon="48.9354376"><time>2021-04-17T09:02:27.953</time></trkpt><trkpt lat="55.8307050" lon="48.9355174"><time>2021-04-17T09:02:30.947</time></trkpt><trkpt lat="55.8307030" lon="48.9355976"><time>2021-04-17T09:02:32.957</time></trkpt><trkpt lat="55.8306894" lon="48.9356875"><time>2021-04-17T09:02:35.927</time></trkpt><trkpt lat="55.8306807" lon="48.9357770"><time>2021-04-17T09:02:38.927</time></trkpt><trkpt lat="55.8306711" lon="48.9358714"><time>2021-04-17T09:02:42.013</time></trkpt><trkpt lat="55.8306637" lon="48.9359532"><time>2021-04-17T09:02:44.933</time></trkpt><trkpt lat="55.8306522" lon="48.9360389"><time>2021-04-17T09:02:47.937</time></trkpt><trkpt lat="55.8306400" lon="48.9361163"><time>2021-04-17T09:02:50.947</time></trkpt><trkpt lat="55.8306122" lon="48.9362160"><time>2021-04-17T09:02:54.957</time></trkpt><trkpt lat="55.8305874" lon="48.9362893"><time>2021-04-17T09:02:57.933</time></trkpt><trkpt lat="55.8305567" lon="48.9363762"><time>2021-04-17T09:03:00.947</time></trkpt><trkpt lat="55.8305298" lon="48.9364520"><time>2021-04-17T09:03:03.950</time></trkpt><trkpt lat="55.8304968" lon="48.9365280"><time>2021-04-17T09:03:06.940</time></trkpt><trkpt lat="55.8304725" lon="48.9365990"><time>2021-04-17T09:03:09.953</time></trkpt><trkpt lat="55.8304499" lon="48.9366763"><time>2021-04-17T09:03:12.957</time></trkpt><trkpt lat="55.8304330" lon="48.9367606"><time>2021-04-17T09:03:15.947</time></trkpt><trkpt lat="55.8304112" lon="48.9368458"><time>2021-04-17T09:03:18.957</time></trkpt><trkpt lat="55.8304006" lon="48.9369470"><time>2021-04-17T09:03:28.930</time></trkpt><trkpt lat="55.8303865" lon="48.9370291"><time>2021-04-17T09:03:31.950</time></trkpt><trkpt lat="55.8303747" lon="48.9371065"><time>2021-04-17T09:03:34.947</time></trkpt><trkpt lat="55.8303600" lon="48.9372044"><time>2021-04-17T09:03:39.943</time></trkpt><trkpt lat="55.8303466" lon="48.9372899"><time>2021-04-17T09:03:42.963</time></trkpt><trkpt lat="55.8303494" lon="48.9373724"><time>2021-04-17T09:03:45</time></trkpt><trkpt lat="55.8303555" lon="48.9374756"><time>2021-04-17T09:03:47.937</time></trkpt><trkpt lat="55.8303522" lon="48.9375698"><time>2021-04-17T09:03:50.947</time></trkpt><trkpt lat="55.8303367" lon="48.9376556"><time>2021-04-17T09:03:53.927</time></trkpt><trkpt lat="55.8303179" lon="48.9377597"><time>2021-04-17T09:03:56.947</time></trkpt><trkpt lat="55.8302971" lon="48.9378523"><time>2021-04-17T09:03:59.957</time></trkpt><trkpt lat="55.8302688" lon="48.9379582"><time>2021-04-17T09:04:02.947</time></trkpt><trkpt lat="55.8302493" lon="48.9380547"><time>2021-04-17T09:04:05.947</time></trkpt><trkpt lat="55.8302298" lon="48.9381457"><time>2021-04-17T09:04:08.950</time></trkpt><trkpt lat="55.8301952" lon="48.9382173"><time>2021-04-17T09:04:11.953</time></trkpt><trkpt lat="55.8301835" lon="48.9383043"><time>2021-04-17T09:04:14.967</time></trkpt><trkpt lat="55.8301644" lon="48.9384024"><time>2021-04-17T09:04:17.953</time></trkpt><trkpt lat="55.8301473" lon="48.9384928"><time>2021-04-17T09:04:19.953</time></trkpt><trkpt lat="55.8301261" lon="48.9385764"><time>2021-04-17T09:04:21.967</time></trkpt><trkpt lat="55.8301062" lon="48.9386539"><time>2021-04-17T09:04:23.950</time></trkpt><trkpt lat="55.8300831" lon="48.9387571"><time>2021-04-17T09:04:26.947</time></trkpt><trkpt lat="55.8300563" lon="48.9388621"><time>2021-04-17T09:04:29.957</time></trkpt><trkpt lat="55.8300317" lon="48.9389624"><time>2021-04-17T09:04:32.953</time></trkpt><trkpt lat="55.8300146" lon="48.9390430"><time>2021-04-17T09:04:34.953</time></trkpt><trkpt lat="55.8299932" lon="48.9391238"><time>2021-04-17T09:04:36.953</time></trkpt><trkpt lat="55.8299672" lon="48.9392277"><time>2021-04-17T09:04:39.950</time></trkpt><trkpt lat="55.8299413" lon="48.9393249"><time>2021-04-17T09:04:42.953</time></trkpt><trkpt lat="55.8299180" lon="48.9394145"><time>2021-04-17T09:04:45.953</time></trkpt><trkpt lat="55.8298901" lon="48.9394983"><time>2021-04-17T09:04:48.953</time></trkpt><trkpt lat="55.8298782" lon="48.9395774"><time>2021-04-17T09:04:51.963</time></trkpt><trkpt lat="55.8298570" lon="48.9396554"><time>2021-04-17T09:04:53.927</time></trkpt><trkpt lat="55.8298346" lon="48.9397252"><time>2021-04-17T09:04:55.937</time></trkpt><trkpt lat="55.8298128" lon="48.9398031"><time>2021-04-17T09:04:57.937</time></trkpt><trkpt lat="55.8297923" lon="48.9398831"><time>2021-04-17T09:04:59.933</time></trkpt><trkpt lat="55.8297684" lon="48.9399517"><time>2021-04-17T09:05:01.953</time></trkpt><trkpt lat="55.8297338" lon="48.9400442"><time>2021-04-17T09:05:04.947</time></trkpt><trkpt lat="55.8297060" lon="48.9401222"><time>2021-04-17T09:05:08.957</time></trkpt><trkpt lat="55.8296952" lon="48.9402111"><time>2021-04-17T09:05:13.933</time></trkpt><trkpt lat="55.8296777" lon="48.9402931"><time>2021-04-17T09:05:16.957</time></trkpt><trkpt lat="55.8296493" lon="48.9403651"><time>2021-04-17T09:05:19.943</time></trkpt><trkpt lat="55.8296169" lon="48.9404346"><time>2021-04-17T09:05:23.953</time></trkpt><trkpt lat="55.8296007" lon="48.9405105"><time>2021-04-17T09:05:26.953</time></trkpt><trkpt lat="55.8295829" lon="48.9405944"><time>2021-04-17T09:05:31.947</time></trkpt><trkpt lat="55.8295575" lon="48.9406695"><time>2021-04-17T09:05:34.940</time></trkpt><trkpt lat="55.8295325" lon="48.9407505"><time>2021-04-17T09:05:37.957</time></trkpt><trkpt lat="55.8295220" lon="48.9408365"><time>2021-04-17T09:05:40.950</time></trkpt><trkpt lat="55.8295059" lon="48.9409128"><time>2021-04-17T09:05:43.940</time></trkpt><trkpt lat="55.8294901" lon="48.9409978"><time>2021-04-17T09:05:46.947</time></trkpt><trkpt lat="55.8294794" lon="48.9410947"><time>2021-04-17T09:05:49.933</time></trkpt><trkpt lat="55.8294569" lon="48.9411769"><time>2021-04-17T09:05:52.937</time></trkpt><trkpt lat="55.8294509" lon="48.9412777"><time>2021-04-17T09:05:55.950</time></trkpt><trkpt lat="55.8294472" lon="48.9413608"><time>2021-04-17T09:05:58.957</time></trkpt><trkpt lat="55.8294508" lon="48.9414469"><time>2021-04-17T09:06:02.947</time></trkpt><trkpt lat="55.8294622" lon="48.9415293"><time>2021-04-17T09:06:06.937</time></trkpt><trkpt lat="55.8294789" lon="48.9416420"><time>2021-04-17T09:06:11.957</time></trkpt><trkpt lat="55.8294935" lon="48.9417192"><time>2021-04-17T09:06:14.940</time></trkpt><trkpt lat="55.8294904" lon="48.9418013"><time>2021-04-17T09:06:18.957</time></trkpt><trkpt lat="55.8294812" lon="48.9419021"><time>2021-04-17T09:06:22.960</time></trkpt><trkpt lat="55.8294617" lon="48.9419752"><time>2021-04-17T09:06:25.963</time></trkpt><trkpt lat="55.8294416" lon="48.9420691"><time>2021-04-17T09:06:29.957</time></trkpt><trkpt lat="55.8294499" lon="48.9421591"><time>2021-04-17T09:06:32.957</time></trkpt><trkpt lat="55.8294467" lon="48.9422543"><time>2021-04-17T09:06:35.957</time></trkpt><trkpt lat="55.8294474" lon="48.9423518"><time>2021-04-17T09:06:38.947</time></trkpt><trkpt lat="55.8294529" lon="48.9424473"><time>2021-04-17T09:06:42.957</time></trkpt><trkpt lat="55.8294532" lon="48.9425427"><time>2021-04-17T09:06:46.947</time></trkpt><trkpt lat="55.8294738" lon="48.9426303"><time>2021-04-17T09:06:49.940</time></trkpt><trkpt lat="55.8294815" lon="48.9427107"><time>2021-04-17T09:06:52.930</time></trkpt><trkpt lat="55.8294926" lon="48.9427938"><time>2021-04-17T09:06:55.933</time></trkpt><trkpt lat="55.8295223" lon="48.9428561"><time>2021-04-17T09:06:59.947</time></trkpt><trkpt lat="55.8295631" lon="48.9429071"><time>2021-04-17T09:07:05.940</time></trkpt><trkpt lat="55.8296144" lon="48.9428655"><time>2021-04-17T09:07:09.937</time></trkpt><trkpt lat="55.8296146" lon="48.9429565"><time>2021-04-17T09:07:15.957</time></trkpt><trkpt lat="55.8296642" lon="48.9430034"><time>2021-04-17T09:07:20.950</time></trkpt><trkpt lat="55.8297102" lon="48.9430176"><time>2021-04-17T09:07:25.957</time></trkpt><trkpt lat="55.8297213" lon="48.9430195"><time>2021-04-17T09:07:30.770</time></trkpt><trkpt lat="55.8297193" lon="48.9429381"><time>2021-04-17T09:08:22.983</time></trkpt><trkpt lat="55.8296926" lon="48.9430067"><time>2021-04-17T09:08:56.950</time></trkpt><trkpt lat="55.8296462" lon="48.9429887"><time>2021-04-17T09:09:01.920</time></trkpt><trkpt lat="55.8296019" lon="48.9430360"><time>2021-04-17T09:09:07.933</time></trkpt><trkpt lat="55.8295651" lon="48.9431061"><time>2021-04-17T09:09:10.940</time></trkpt><trkpt lat="55.8295300" lon="48.9431847"><time>2021-04-17T09:09:13.950</time></trkpt><trkpt lat="55.8295293" lon="48.9432697"><time>2021-04-17T09:09:16.953</time></trkpt><trkpt lat="55.8295279" lon="48.9433581"><time>2021-04-17T09:09:19.960</time></trkpt><trkpt lat="55.8295057" lon="48.9434441"><time>2021-04-17T09:09:23.937</time></trkpt><trkpt lat="55.8294816" lon="48.9435160"><time>2021-04-17T09:09:27.950</time></trkpt><trkpt lat="55.8294716" lon="48.9436110"><time>2021-04-17T09:09:30.960</time></trkpt><trkpt lat="55.8294458" lon="48.9437003"><time>2021-04-17T09:09:33.957</time></trkpt><trkpt lat="55.8294219" lon="48.9437763"><time>2021-04-17T09:09:37.967</time></trkpt><trkpt lat="55.8294048" lon="48.9438669"><time>2021-04-17T09:09:40.940</time></trkpt><trkpt lat="55.8293852" lon="48.9439388"><time>2021-04-17T09:09:43.947</time></trkpt><trkpt lat="55.8293691" lon="48.9440174"><time>2021-04-17T09:09:47.953</time></trkpt><trkpt lat="55.8293525" lon="48.9441152"><time>2021-04-17T09:09:51.947</time></trkpt><trkpt lat="55.8293413" lon="48.9442212"><time>2021-04-17T09:09:54.963</time></trkpt><trkpt lat="55.8293287" lon="48.9443247"><time>2021-04-17T09:09:57.953</time></trkpt><trkpt lat="55.8293174" lon="48.9444062"><time>2021-04-17T09:10:00.937</time></trkpt><trkpt lat="55.8293268" lon="48.9444854"><time>2021-04-17T09:10:23.937</time></trkpt><trkpt lat="55.8293044" lon="48.9445678"><time>2021-04-17T09:10:27.957</time></trkpt><trkpt lat="55.8292886" lon="48.9446564"><time>2021-04-17T09:10:30.953</time></trkpt><trkpt lat="55.8292796" lon="48.9447435"><time>2021-04-17T09:10:32.963</time></trkpt><trkpt lat="55.8292629" lon="48.9448505"><time>2021-04-17T09:10:35.953</time></trkpt><trkpt lat="55.8292370" lon="48.9449453"><time>2021-04-17T09:10:38.957</time></trkpt><trkpt lat="55.8292297" lon="48.9450588"><time>2021-04-17T09:10:41.957</time></trkpt><trkpt lat="55.8292157" lon="48.9451651"><time>2021-04-17T09:10:44.960</time></trkpt><trkpt lat="55.8292015" lon="48.9452512"><time>2021-04-17T09:10:47.953</time></trkpt><trkpt lat="55.8291973" lon="48.9453365"><time>2021-04-17T09:10:50.947</time></trkpt><trkpt lat="55.8291669" lon="48.9454051"><time>2021-04-17T09:10:55.067</time></trkpt><trkpt lat="55.8291622" lon="48.9455165"><time>2021-04-17T09:10:57.947</time></trkpt><trkpt lat="55.8291498" lon="48.9456018"><time>2021-04-17T09:11:00.970</time></trkpt><trkpt lat="55.8291382" lon="48.9456873"><time>2021-04-17T09:11:03.957</time></trkpt><trkpt lat="55.8291317" lon="48.9457849"><time>2021-04-17T09:11:08.973</time></trkpt><trkpt lat="55.8291104" lon="48.9458590"><time>2021-04-17T09:11:12.957</time></trkpt><trkpt lat="55.8290918" lon="48.9459401"><time>2021-04-17T09:11:18.953</time></trkpt><trkpt lat="55.8290707" lon="48.9460167"><time>2021-04-17T09:11:20.967</time></trkpt><trkpt lat="55.8290540" lon="48.9460990"><time>2021-04-17T09:11:22.957</time></trkpt><trkpt lat="55.8290400" lon="48.9461814"><time>2021-04-17T09:11:23.957</time></trkpt><trkpt lat="55.8290264" lon="48.9462719"><time>2021-04-17T09:11:25.943</time></trkpt><trkpt lat="55.8290129" lon="48.9463655"><time>2021-04-17T09:11:27.930</time></trkpt><trkpt lat="55.8289919" lon="48.9464505"><time>2021-04-17T09:11:29.937</time></trkpt><trkpt lat="55.8289820" lon="48.9465389"><time>2021-04-17T09:11:31.943</time></trkpt><trkpt lat="55.8289733" lon="48.9466258"><time>2021-04-17T09:11:33.943</time></trkpt><trkpt lat="55.8289596" lon="48.9467089"><time>2021-04-17T09:11:35.947</time></trkpt><trkpt lat="55.8289480" lon="48.9468133"><time>2021-04-17T09:11:38.953</time></trkpt><trkpt lat="55.8289459" lon="48.9469097"><time>2021-04-17T09:11:41.957</time></trkpt><trkpt lat="55.8289266" lon="48.9469989"><time>2021-04-17T09:11:44.950</time></trkpt><trkpt lat="55.8289159" lon="48.9471083"><time>2021-04-17T09:11:50.943</time></trkpt><trkpt lat="55.8289041" lon="48.9471895"><time>2021-04-17T09:11:53.957</time></trkpt><trkpt lat="55.8288855" lon="48.9472652"><time>2021-04-17T09:11:56.967</time></trkpt><trkpt lat="55.8288589" lon="48.9473677"><time>2021-04-17T09:12:00.957</time></trkpt><trkpt lat="55.8288320" lon="48.9474974"><time>2021-04-17T09:12:02.947</time></trkpt><trkpt lat="55.8288258" lon="48.9476235"><time>2021-04-17T09:12:04.957</time></trkpt><trkpt lat="55.8288161" lon="48.9477211"><time>2021-04-17T09:12:07.957</time></trkpt><trkpt lat="55.8288060" lon="48.9478189"><time>2021-04-17T09:12:10.960</time></trkpt><trkpt lat="55.8287825" lon="48.9479012"><time>2021-04-17T09:12:13.953</time></trkpt><trkpt lat="55.8287622" lon="48.9479724"><time>2021-04-17T09:12:22.937</time></trkpt><trkpt lat="55.8287804" lon="48.9481009"><time>2021-04-17T09:12:25.957</time></trkpt><trkpt lat="55.8287856" lon="48.9482040"><time>2021-04-17T09:12:28.953</time></trkpt><trkpt lat="55.8287481" lon="48.9483117"><time>2021-04-17T09:12:33.957</time></trkpt><trkpt lat="55.8287294" lon="48.9484150"><time>2021-04-17T09:12:35.957</time></trkpt><trkpt lat="55.8287161" lon="48.9485017"><time>2021-04-17T09:12:37.957</time></trkpt><trkpt lat="55.8286952" lon="48.9486004"><time>2021-04-17T09:12:40.973</time></trkpt><trkpt lat="55.8286689" lon="48.9486711"><time>2021-04-17T09:12:43.993</time></trkpt><trkpt lat="55.8286586" lon="48.9487516"><time>2021-04-17T09:12:45.937</time></trkpt><trkpt lat="55.8286261" lon="48.9488537"><time>2021-04-17T09:12:49.943</time></trkpt><trkpt lat="55.8286162" lon="48.9489461"><time>2021-04-17T09:12:52.950</time></trkpt><trkpt lat="55.8286144" lon="48.9490512"><time>2021-04-17T09:12:55.957</time></trkpt><trkpt lat="55.8286135" lon="48.9491503"><time>2021-04-17T09:12:58.963</time></trkpt><trkpt lat="55.8286018" lon="48.9492553"><time>2021-04-17T09:13:01.960</time></trkpt><trkpt lat="55.8285942" lon="48.9493421"><time>2021-04-17T09:13:04.957</time></trkpt><trkpt lat="55.8285866" lon="48.9494286"><time>2021-04-17T09:13:07.937</time></trkpt><trkpt lat="55.8285793" lon="48.9495177"><time>2021-04-17T09:13:11.950</time></trkpt><trkpt lat="55.8285589" lon="48.9495968"><time>2021-04-17T09:13:14.960</time></trkpt><trkpt lat="55.8285381" lon="48.9496690"><time>2021-04-17T09:13:18.947</time></trkpt><trkpt lat="55.8285040" lon="48.9497479"><time>2021-04-17T09:13:32.960</time></trkpt><trkpt lat="55.8284587" lon="48.9498033"><time>2021-04-17T09:13:35.937</time></trkpt><trkpt lat="55.8284071" lon="48.9498592"><time>2021-04-17T09:13:38.937</time></trkpt><trkpt lat="55.8283564" lon="48.9498323"><time>2021-04-17T09:13:41.943</time></trkpt><trkpt lat="55.8283006" lon="48.9498014"><time>2021-04-17T09:13:44.977</time></trkpt><trkpt lat="55.8282523" lon="48.9497811"><time>2021-04-17T09:13:48.967</time></trkpt><trkpt lat="55.8281970" lon="48.9497858"><time>2021-04-17T09:13:52.950</time></trkpt><trkpt lat="55.8282270" lon="48.9498078"><time>2021-04-17T09:14:01.463</time></trkpt><trkpt lat="55.8282634" lon="48.9498164"><time>2021-04-17T09:14:23.940</time></trkpt><trkpt lat="55.8282943" lon="48.9498745"><time>2021-04-17T09:14:25.937</time></trkpt><trkpt lat="55.8283218" lon="48.9499502"><time>2021-04-17T09:14:28.933</time></trkpt><trkpt lat="55.8283542" lon="48.9500180"><time>2021-04-17T09:14:30.963</time></trkpt><trkpt lat="55.8283951" lon="48.9500965"><time>2021-04-17T09:14:33.960</time></trkpt><trkpt lat="55.8284319" lon="48.9501513"><time>2021-04-17T09:14:35.937</time></trkpt><trkpt lat="55.8284772" lon="48.9502045"><time>2021-04-17T09:14:37.960</time></trkpt><trkpt lat="55.8285192" lon="48.9502741"><time>2021-04-17T09:14:40.953</time></trkpt><trkpt lat="55.8285548" lon="48.9503239"><time>2021-04-17T09:14:44.963</time></trkpt><trkpt lat="55.8285936" lon="48.9503795"><time>2021-04-17T09:14:46.957</time></trkpt><trkpt lat="55.8286428" lon="48.9504667"><time>2021-04-17T09:14:52.137</time></trkpt><trkpt lat="55.8286734" lon="48.9505473"><time>2021-04-17T09:14:54.937</time></trkpt><trkpt lat="55.8287144" lon="48.9505950"><time>2021-04-17T09:14:57.927</time></trkpt><trkpt lat="55.8287519" lon="48.9506401"><time>2021-04-17T09:15:04.950</time></trkpt><trkpt lat="55.8287994" lon="48.9507285"><time>2021-04-17T09:15:13.963</time></trkpt><trkpt lat="55.8288389" lon="48.9507969"><time>2021-04-17T09:15:15.957</time></trkpt><trkpt lat="55.8288742" lon="48.9508533"><time>2021-04-17T09:15:17.957</time></trkpt><trkpt lat="55.8289130" lon="48.9509020"><time>2021-04-17T09:15:21.973</time></trkpt><trkpt lat="55.8289601" lon="48.9508754"><time>2021-04-17T09:15:26.960</time></trkpt><trkpt lat="55.8290161" lon="48.9508337"><time>2021-04-17T09:15:29.960</time></trkpt><trkpt lat="55.8290667" lon="48.9507717"><time>2021-04-17T09:15:32.957</time></trkpt><trkpt lat="55.8291107" lon="48.9506958"><time>2021-04-17T09:15:35.950</time></trkpt><trkpt lat="55.8291592" lon="48.9506189"><time>2021-04-17T09:15:38.967</time></trkpt><trkpt lat="55.8291979" lon="48.9505602"><time>2021-04-17T09:15:42.963</time></trkpt><trkpt lat="55.8292502" lon="48.9505245"><time>2021-04-17T09:15:46.957</time></trkpt><trkpt lat="55.8293003" lon="48.9504794"><time>2021-04-17T09:15:50.930</time></trkpt><trkpt lat="55.8293256" lon="48.9503968"><time>2021-04-17T09:15:53.933</time></trkpt><trkpt lat="55.8293764" lon="48.9504087"><time>2021-04-17T09:15:55.937</time></trkpt><trkpt lat="55.8294241" lon="48.9503670"><time>2021-04-17T09:16:01.947</time></trkpt><trkpt lat="55.8295014" lon="48.9502981"><time>2021-04-17T09:16:05.953</time></trkpt><trkpt lat="55.8295619" lon="48.9502746"><time>2021-04-17T09:16:07.957</time></trkpt><trkpt lat="55.8296065" lon="48.9502348"><time>2021-04-17T09:16:09.933</time></trkpt><trkpt lat="55.8296499" lon="48.9501691"><time>2021-04-17T09:16:11.960</time></trkpt><trkpt lat="55.8296947" lon="48.9500991"><time>2021-04-17T09:16:14.953</time></trkpt><trkpt lat="55.8297404" lon="48.9500312"><time>2021-04-17T09:16:18.960</time></trkpt><trkpt lat="55.8297783" lon="48.9499787"><time>2021-04-17T09:16:22.960</time></trkpt><trkpt lat="55.8298215" lon="48.9499418"><time>2021-04-17T09:16:26.987</time></trkpt><trkpt lat="55.8298765" lon="48.9499994"><time>2021-04-17T09:16:30.953</time></trkpt><trkpt lat="55.8299207" lon="48.9500784"><time>2021-04-17T09:16:32.977</time></trkpt><trkpt lat="55.8299526" lon="48.9501597"><time>2021-04-17T09:16:34.957</time></trkpt><trkpt lat="55.8299808" lon="48.9502320"><time>2021-04-17T09:16:36.960</time></trkpt><trkpt lat="55.8300108" lon="48.9503153"><time>2021-04-17T09:16:38.963</time></trkpt><trkpt lat="55.8300453" lon="48.9503934"><time>2021-04-17T09:16:40.960</time></trkpt><trkpt lat="55.8300766" lon="48.9504707"><time>2021-04-17T09:16:42.957</time></trkpt><trkpt lat="55.8301101" lon="48.9505330"><time>2021-04-17T09:16:44.953</time></trkpt><trkpt lat="55.8301498" lon="48.9505956"><time>2021-04-17T09:16:46.957</time></trkpt><trkpt lat="55.8302024" lon="48.9506271"><time>2021-04-17T09:16:49.953</time></trkpt><trkpt lat="55.8302466" lon="48.9505699"><time>2021-04-17T09:16:52.957</time></trkpt><trkpt lat="55.8302886" lon="48.9505338"><time>2021-04-17T09:16:55.957</time></trkpt><trkpt lat="55.8303335" lon="48.9504879"><time>2021-04-17T09:16:58.953</time></trkpt><trkpt lat="55.8303932" lon="48.9504685"><time>2021-04-17T09:17:01.953</time></trkpt><trkpt lat="55.8304321" lon="48.9505264"><time>2021-04-17T09:17:04.953</time></trkpt><trkpt lat="55.8304624" lon="48.9505981"><time>2021-04-17T09:17:07.950</time></trkpt><trkpt lat="55.8304834" lon="48.9506763"><time>2021-04-17T09:17:10.957</time></trkpt><trkpt lat="55.8304967" lon="48.9507668"><time>2021-04-17T09:17:13.940</time></trkpt><trkpt lat="55.8305165" lon="48.9508522"><time>2021-04-17T09:17:16.930</time></trkpt><trkpt lat="55.8305410" lon="48.9509381"><time>2021-04-17T09:17:19.937</time></trkpt><trkpt lat="55.8305697" lon="48.9510131"><time>2021-04-17T09:17:22.960</time></trkpt><trkpt lat="55.8306018" lon="48.9510934"><time>2021-04-17T09:17:26.957</time></trkpt><trkpt lat="55.8306312" lon="48.9511564"><time>2021-04-17T09:17:30.957</time></trkpt><trkpt lat="55.8306837" lon="48.9511732"><time>2021-04-17T09:17:33.957</time></trkpt><trkpt lat="55.8307299" lon="48.9512141"><time>2021-04-17T09:17:36.957</time></trkpt><trkpt lat="55.8307668" lon="48.9512812"><time>2021-04-17T09:17:40.960</time></trkpt><trkpt lat="55.8308188" lon="48.9513141"><time>2021-04-17T09:17:44.930</time></trkpt><trkpt lat="55.8308722" lon="48.9513517"><time>2021-04-17T09:17:48.950</time></trkpt><trkpt lat="55.8309162" lon="48.9514126"><time>2021-04-17T09:17:51.943</time></trkpt><trkpt lat="55.8309519" lon="48.9514661"><time>2021-04-17T09:17:54.937</time></trkpt><trkpt lat="55.8309988" lon="48.9515138"><time>2021-04-17T09:17:57.957</time></trkpt><trkpt lat="55.8310114" lon="48.9516184"><time>2021-04-17T09:18:01.960</time></trkpt><trkpt lat="55.8310113" lon="48.9517107"><time>2021-04-17T09:18:04.957</time></trkpt><trkpt lat="55.8310275" lon="48.9517945"><time>2021-04-17T09:18:07.950</time></trkpt><trkpt lat="55.8310734" lon="48.9518048"><time>2021-04-17T09:18:10.957</time></trkpt><trkpt lat="55.8311221" lon="48.9518083"><time>2021-04-17T09:18:15.977</time></trkpt><trkpt lat="55.8311620" lon="48.9518758"><time>2021-04-17T09:18:19.960</time></trkpt><trkpt lat="55.8311695" lon="48.9519700"><time>2021-04-17T09:18:22.957</time></trkpt><trkpt lat="55.8311766" lon="48.9520522"><time>2021-04-17T09:18:25.960</time></trkpt><trkpt lat="55.8311911" lon="48.9521415"><time>2021-04-17T09:18:28.957</time></trkpt><trkpt lat="55.8311926" lon="48.9522291"><time>2021-04-17T09:18:31.957</time></trkpt><trkpt lat="55.8311996" lon="48.9523201"><time>2021-04-17T09:18:35.957</time></trkpt><trkpt lat="55.8312107" lon="48.9524073"><time>2021-04-17T09:18:39.957</time></trkpt><trkpt lat="55.8312116" lon="48.9524901"><time>2021-04-17T09:18:44.923</time></trkpt><trkpt lat="55.8312040" lon="48.9526073"><time>2021-04-17T09:18:47.930</time></trkpt><trkpt lat="55.8312143" lon="48.9526980"><time>2021-04-17T09:18:49.930</time></trkpt><trkpt lat="55.8312238" lon="48.9527899"><time>2021-04-17T09:18:51.943</time></trkpt><trkpt lat="55.8312492" lon="48.9529124"><time>2021-04-17T09:18:54.957</time></trkpt><trkpt lat="55.8312636" lon="48.9530207"><time>2021-04-17T09:18:56.927</time></trkpt><trkpt lat="55.8312792" lon="48.9531280"><time>2021-04-17T09:18:58.957</time></trkpt><trkpt lat="55.8312958" lon="48.9532191"><time>2021-04-17T09:19:00.930</time></trkpt><trkpt lat="55.8313167" lon="48.9533150"><time>2021-04-17T09:19:02.930</time></trkpt><trkpt lat="55.8313351" lon="48.9534123"><time>2021-04-17T09:19:04.943</time></trkpt><trkpt lat="55.8313444" lon="48.9534922"><time>2021-04-17T09:19:06.933</time></trkpt><trkpt lat="55.8313588" lon="48.9535767"><time>2021-04-17T09:19:08.953</time></trkpt><trkpt lat="55.8313741" lon="48.9536583"><time>2021-04-17T09:19:10.967</time></trkpt><trkpt lat="55.8313874" lon="48.9537421"><time>2021-04-17T09:19:12.950</time></trkpt><trkpt lat="55.8314021" lon="48.9538239"><time>2021-04-17T09:19:14.937</time></trkpt><trkpt lat="55.8314204" lon="48.9539030"><time>2021-04-17T09:19:16.933</time></trkpt><trkpt lat="55.8314437" lon="48.9540083"><time>2021-04-17T09:19:19.937</time></trkpt><trkpt lat="55.8314670" lon="48.9540815"><time>2021-04-17T09:19:22.930</time></trkpt><trkpt lat="55.8314991" lon="48.9541617"><time>2021-04-17T09:19:25.937</time></trkpt><trkpt lat="55.8315344" lon="48.9542232"><time>2021-04-17T09:19:28.947</time></trkpt><trkpt lat="55.8315632" lon="48.9542856"><time>2021-04-17T09:19:31.947</time></trkpt><trkpt lat="55.8316023" lon="48.9543340"><time>2021-04-17T09:19:34.940</time></trkpt><trkpt lat="55.8316381" lon="48.9543904"><time>2021-04-17T09:19:37.940</time></trkpt><trkpt lat="55.8316877" lon="48.9544542"><time>2021-04-17T09:19:41.933</time></trkpt><trkpt lat="55.8317307" lon="48.9545257"><time>2021-04-17T09:19:45.967</time></trkpt><trkpt lat="55.8317740" lon="48.9546274"><time>2021-04-17T09:19:48.940</time></trkpt><trkpt lat="55.8318062" lon="48.9547176"><time>2021-04-17T09:19:50.933</time></trkpt><trkpt lat="55.8318410" lon="48.9548003"><time>2021-04-17T09:19:52.947</time></trkpt><trkpt lat="55.8318696" lon="48.9548837"><time>2021-04-17T09:19:54.937</time></trkpt><trkpt lat="55.8318957" lon="48.9549630"><time>2021-04-17T09:19:56.947</time></trkpt><trkpt lat="55.8319215" lon="48.9550347"><time>2021-04-17T09:19:58.937</time></trkpt><trkpt lat="55.8319489" lon="48.9551082"><time>2021-04-17T09:20:00.947</time></trkpt><trkpt lat="55.8319811" lon="48.9551873"><time>2021-04-17T09:20:03.953</time></trkpt><trkpt lat="55.8320082" lon="48.9552553"><time>2021-04-17T09:20:08.943</time></trkpt><trkpt lat="55.8319738" lon="48.9551690"><time>2021-04-17T09:20:27.947</time></trkpt><trkpt lat="55.8319279" lon="48.9550896"><time>2021-04-17T09:20:29.937</time></trkpt><trkpt lat="55.8318857" lon="48.9550264"><time>2021-04-17T09:20:33.940</time></trkpt><trkpt lat="55.8318350" lon="48.9550398"><time>2021-04-17T09:20:36.960</time></trkpt><trkpt lat="55.8317882" lon="48.9550786"><time>2021-04-17T09:20:38.970</time></trkpt><trkpt lat="55.8317385" lon="48.9551099"><time>2021-04-17T09:20:49.960</time></trkpt><trkpt lat="55.8317863" lon="48.9550833"><time>2021-04-17T09:21:04.933</time></trkpt><trkpt lat="55.8318545" lon="48.9550549"><time>2021-04-17T09:21:08.927</time></trkpt><trkpt lat="55.8318960" lon="48.9551012"><time>2021-04-17T09:21:10.937</time></trkpt><trkpt lat="55.8319358" lon="48.9551407"><time>2021-04-17T09:21:12.933</time></trkpt><trkpt lat="55.8319745" lon="48.9551994"><time>2021-04-17T09:21:15.933</time></trkpt><trkpt lat="55.8320024" lon="48.9552734"><time>2021-04-17T09:21:17.957</time></trkpt><trkpt lat="55.8320298" lon="48.9553523"><time>2021-04-17T09:21:19.957</time></trkpt><trkpt lat="55.8320613" lon="48.9554246"><time>2021-04-17T09:21:21.957</time></trkpt><trkpt lat="55.8320920" lon="48.9554955"><time>2021-04-17T09:21:23.957</time></trkpt><trkpt lat="55.8321286" lon="48.9555566"><time>2021-04-17T09:21:25.950</time></trkpt><trkpt lat="55.8321651" lon="48.9556247"><time>2021-04-17T09:21:27.960</time></trkpt><trkpt lat="55.8321961" lon="48.9557023"><time>2021-04-17T09:21:29.957</time></trkpt><trkpt lat="55.8322232" lon="48.9557764"><time>2021-04-17T09:21:31.957</time></trkpt><trkpt lat="55.8322512" lon="48.9558488"><time>2021-04-17T09:21:33.957</time></trkpt><trkpt lat="55.8322797" lon="48.9559178"><time>2021-04-17T09:21:35.943</time></trkpt><trkpt lat="55.8323072" lon="48.9559909"><time>2021-04-17T09:21:37.953</time></trkpt><trkpt lat="55.8323283" lon="48.9560709"><time>2021-04-17T09:21:39.947</time></trkpt><trkpt lat="55.8323353" lon="48.9561514"><time>2021-04-17T09:21:41.980</time></trkpt><trkpt lat="55.8323274" lon="48.9562414"><time>2021-04-17T09:21:43.950</time></trkpt><trkpt lat="55.8323164" lon="48.9563294"><time>2021-04-17T09:21:45.957</time></trkpt><trkpt lat="55.8323084" lon="48.9564241"><time>2021-04-17T09:21:48.960</time></trkpt><trkpt lat="55.8322986" lon="48.9565059"><time>2021-04-17T09:21:51.927</time></trkpt><trkpt lat="55.8322903" lon="48.9565968"><time>2021-04-17T09:21:55.960</time></trkpt><trkpt lat="55.8322568" lon="48.9566747"><time>2021-04-17T09:21:59.953</time></trkpt><trkpt lat="55.8322165" lon="48.9567436"><time>2021-04-17T09:22:03.943</time></trkpt><trkpt lat="55.8321671" lon="48.9568145"><time>2021-04-17T09:22:06.960</time></trkpt><trkpt lat="55.8321182" lon="48.9568547"><time>2021-04-17T09:22:08.960</time></trkpt><trkpt lat="55.8320593" lon="48.9568503"><time>2021-04-17T09:22:10.957</time></trkpt><trkpt lat="55.8320083" lon="48.9568419"><time>2021-04-17T09:22:12.953</time></trkpt><trkpt lat="55.8319610" lon="48.9568680"><time>2021-04-17T09:22:17.947</time></trkpt><trkpt lat="55.8320088" lon="48.9567841"><time>2021-04-17T09:22:59.933</time></trkpt><trkpt lat="55.8320704" lon="48.9568034"><time>2021-04-17T09:23:01.937</time></trkpt><trkpt lat="55.8321366" lon="48.9568225"><time>2021-04-17T09:23:03.927</time></trkpt><trkpt lat="55.8321822" lon="48.9567906"><time>2021-04-17T09:23:05.957</time></trkpt><trkpt lat="55.8322267" lon="48.9567499"><time>2021-04-17T09:23:08.957</time></trkpt><trkpt lat="55.8322638" lon="48.9568575"><time>2021-04-17T09:23:13.927</time></trkpt><trkpt lat="55.8323197" lon="48.9569170"><time>2021-04-17T09:23:15.940</time></trkpt><trkpt lat="55.8323778" lon="48.9569471"><time>2021-04-17T09:23:17.957</time></trkpt><trkpt lat="55.8324353" lon="48.9569916"><time>2021-04-17T09:23:19.940</time></trkpt><trkpt lat="55.8324591" lon="48.9570781"><time>2021-04-17T09:23:21.960</time></trkpt><trkpt lat="55.8324610" lon="48.9571932"><time>2021-04-17T09:23:23.937</time></trkpt><trkpt lat="55.8324472" lon="48.9573106"><time>2021-04-17T09:23:25.953</time></trkpt><trkpt lat="55.8324275" lon="48.9574398"><time>2021-04-17T09:23:27.947</time></trkpt><trkpt lat="55.8324164" lon="48.9575457"><time>2021-04-17T09:23:29.960</time></trkpt><trkpt lat="55.8324417" lon="48.9576802"><time>2021-04-17T09:23:32.963</time></trkpt><trkpt lat="55.8324533" lon="48.9578029"><time>2021-04-17T09:23:34.957</time></trkpt><trkpt lat="55.8324599" lon="48.9579194"><time>2021-04-17T09:23:36.943</time></trkpt><trkpt lat="55.8324798" lon="48.9580200"><time>2021-04-17T09:23:38.943</time></trkpt><trkpt lat="55.8325151" lon="48.9581064"><time>2021-04-17T09:23:40.927</time></trkpt><trkpt lat="55.8325562" lon="48.9581831"><time>2021-04-17T09:23:42.953</time></trkpt><trkpt lat="55.8325924" lon="48.9582619"><time>2021-04-17T09:23:44.957</time></trkpt><trkpt lat="55.8326242" lon="48.9583304"><time>2021-04-17T09:23:46.943</time></trkpt><trkpt lat="55.8326641" lon="48.9584060"><time>2021-04-17T09:23:48.960</time></trkpt><trkpt lat="55.8327049" lon="48.9584726"><time>2021-04-17T09:23:50.947</time></trkpt><trkpt lat="55.8327471" lon="48.9585355"><time>2021-04-17T09:23:52.960</time></trkpt><trkpt lat="55.8327918" lon="48.9585888"><time>2021-04-17T09:23:54.957</time></trkpt><trkpt lat="55.8328520" lon="48.9586067"><time>2021-04-17T09:23:56.960</time></trkpt><trkpt lat="55.8329156" lon="48.9585976"><time>2021-04-17T09:23:58.960</time></trkpt><trkpt lat="55.8329725" lon="48.9585813"><time>2021-04-17T09:24:00.960</time></trkpt><trkpt lat="55.8330213" lon="48.9585620"><time>2021-04-17T09:24:02.960</time></trkpt><trkpt lat="55.8330695" lon="48.9585653"><time>2021-04-17T09:24:05.957</time></trkpt><trkpt lat="55.8331161" lon="48.9585481"><time>2021-04-17T09:24:09.967</time></trkpt><trkpt lat="55.8331622" lon="48.9585114"><time>2021-04-17T09:24:12.963</time></trkpt><trkpt lat="55.8332267" lon="48.9585670"><time>2021-04-17T09:24:15.960</time></trkpt><trkpt lat="55.8332750" lon="48.9586411"><time>2021-04-17T09:24:17.957</time></trkpt><trkpt lat="55.8333326" lon="48.9586658"><time>2021-04-17T09:24:19.960</time></trkpt><trkpt lat="55.8333911" lon="48.9586695"><time>2021-04-17T09:24:21.957</time></trkpt><trkpt lat="55.8334512" lon="48.9587095"><time>2021-04-17T09:24:23.963</time></trkpt><trkpt lat="55.8334922" lon="48.9587471"><time>2021-04-17T09:24:25.970</time></trkpt><trkpt lat="55.8335314" lon="48.9588203"><time>2021-04-17T09:24:27.970</time></trkpt><trkpt lat="55.8335705" lon="48.9588828"><time>2021-04-17T09:24:29.957</time></trkpt><trkpt lat="55.8336245" lon="48.9589026"><time>2021-04-17T09:24:31.960</time></trkpt><trkpt lat="55.8336876" lon="48.9588675"><time>2021-04-17T09:24:34.957</time></trkpt><trkpt lat="55.8337380" lon="48.9588159"><time>2021-04-17T09:24:36.960</time></trkpt><trkpt lat="55.8337814" lon="48.9587686"><time>2021-04-17T09:24:38.947</time></trkpt><trkpt lat="55.8338266" lon="48.9587278"><time>2021-04-17T09:24:40.960</time></trkpt><trkpt lat="55.8338737" lon="48.9586780"><time>2021-04-17T09:24:42.960</time></trkpt><trkpt lat="55.8339214" lon="48.9586285"><time>2021-04-17T09:24:44.923</time></trkpt><trkpt lat="55.8339699" lon="48.9585809"><time>2021-04-17T09:24:47.957</time></trkpt><trkpt lat="55.8340198" lon="48.9585092"><time>2021-04-17T09:24:50.940</time></trkpt><trkpt lat="55.8340679" lon="48.9584663"><time>2021-04-17T09:24:53.950</time></trkpt><trkpt lat="55.8341063" lon="48.9584051"><time>2021-04-17T09:24:56.960</time></trkpt><trkpt lat="55.8341395" lon="48.9583463"><time>2021-04-17T09:24:59.950</time></trkpt><trkpt lat="55.8341722" lon="48.9582895"><time>2021-04-17T09:25:01.947</time></trkpt><trkpt lat="55.8342304" lon="48.9582275"><time>2021-04-17T09:25:04.943</time></trkpt><trkpt lat="55.8342829" lon="48.9581940"><time>2021-04-17T09:25:07.950</time></trkpt><trkpt lat="55.8343455" lon="48.9581804"><time>2021-04-17T09:25:10.957</time></trkpt><trkpt lat="55.8343908" lon="48.9581921"><time>2021-04-17T09:25:13.933</time></trkpt></trkseg></trk></gpx>